Bharatpur
S.No. Kiosk Code Kiosk Name LSP Address Ph. No. Credit Limit Remaining Limit Active / Deactive Creation Date Deactivation Date Prepaid Limit Virtual Limit
1 501 CSC Gopalgarh CSC Vakrangee Bharatpur Rural Village Gopalgarh  Block NAGAR  District BHARATPUR   9983757532  113  600  Active  10-10-2012    0.00 
2 741 CSC Bansi Khurd_WRS 2014-Aksh-BHARATPUR Village - Bansi Khurd Block - Bansi Khurd Dist. - Bharatpur  9461490904  59  Active  07-08-2014    .74  1372.80 
3 742 CSC Seekri Chak No.1_WRS 2014-Aksh-BHARATPUR Village - Seekri Chak No. 1 Block - Nagar Dist. - Bharatpur  9828104120  39  Active  07-08-2014    636.67  2734.56 
4 743 CSC Karhi_WRS 2014-Aksh-BHARATPUR Village - Karhi Block - Karhi Dist. - Bharatpur  9461694089  33  Active  07-08-2014    649.55  1019.62 
5 744 Vinod Kumar Sharma 2014-Aksh-BHARATPUR chudi market town nagar   Dist. - Bharatpur  9694431183  200  Active  07-08-2014    8.14  11322.98 
6 747 CSC Khera_WRS 2014-Aksh-BHARATPUR Village - Khera Block - Nadbai Dist. - Bharatpur  9057975797  45  Active  07-08-2014    216.61  366.94 
7 748 CSC Janoothar_WRS 2014-Aksh-BHARATPUR Village - Janoothar Block - Deeg Dist. Bharatpur  9602813066  60  Active  07-08-2014    802.72  2740.41 
8 752 Ravindra Kumar Sharma 2014-Aksh-BHARATPUR Near Khadi Vastra Bhandar   8696844133  736  Active  07-08-2014    424.14  231.41 
9 753 CSC Siras_WRS 2014-Aksh-BHARATPUR Village - Siras Block - Weir Dist. - Bharatpur  7732872541  190  Active  07-08-2014    599.14  6755.70 
10 788 Ravi Saini 2014-Aksh-BHARATPUR Near Buis Stand Rarah Tehsil Kumher Dist. Bharatpur  9785056392  252  Active  21-08-2014    46.03  4099.06 
11 791 Mahendra Kumar 2014-Aksh-BHARATPUR Court Campus Tehsil, Bayana Dist. - Bharatpur  9461100334  6311  Active  21-08-2014    .37  5404.79 
12 797 Pavnesh Kumar 2014-Aksh-BHARATPUR Near PNB bank Khanua Teh. Rupwas Dist. Bharatpur  9928771440  72  Active  21-08-2014    5830.14  9089.88 
13 807 Dinesh Kumar Sharma 2014-Aksh-BHARATPUR Shyam Nagar  Colony Behind Central School Bharatpur  7790898199  1947  Active  22-08-2014    778.03  641.09 
14 810 Nateen Singh 2014-Aksh-BHARATPUR Main Market Old Post  Office Pahari Tehsil  Disst. - Bharatpur  9783715200  97  Active  23-08-2014    10.56  12864.56 
15 811 Laxmi Narayan 2014-Aksh-BHARATPUR 760 Kalakar Mohalla Jurahra Tehsil Kaman Disst. - Bharatpur  9982906461  411  Active  23-08-2014    8423.69  32569.83 
16 816 Ghanshyam Saini 2014-Aksh-BHARATPUR Main Market Sikri Tehisl - Nagar Disst. - Bharatpur  9785508730  18532  Active  27-08-2014    .87  67470.37 
17 817 Sher Singh 2014-Aksh-BHARATPUR Hospital Ke Pass Uchchain Road Sear Bharatpur  9828607228  11382  Active  27-08-2014    1113.75  17308.05 
18 818 Rakesh Kumar Sharma 2014-Aksh-BHARATPUR Prince Attachi House Deewan Mohalla  Kaman Bharatpur  9529480001  10000  709  Active  27-08-2014    795.27  4240.56 
19 819 Ashok Kumar 2014-Aksh-BHARATPUR VPO Bidyari  Tehsil 0 Bayana Bharatpur  9351939397  24  Active  27-08-2014    455  968.46 
20 855 Kamlesh Prasad Sharma 2014-Aksh-BHARATPUR Reliance Medicals Goal Baug road Bharatpur  8104525131  Active  08-09-2014    26.6  83.85 
21 856 Fatte Krishna Gaur 2014-Aksh-BHARATPUR Bus Stand Jurhere  Tehsil - Kaman Disst. - Bharatpur  9649340809  469  Active  08-09-2014    830.86  5098.11 
22 865 Nakul Raj 2014-Aksh-BHARATPUR Single Window E Sugam Kumher  Dist. Jaipur  9785037811  238  Active  11-09-2014    6099.49  13604.19 
23 866 Vishnu Kumar Sharma 2014-Aksh-BHARATPUR Single Window E Sugam tehsil bayana Dist. - Bharatpur  7877699329  Active  11-09-2014    0.00 
24 895 Meena Devi 2014-Aksh-BHARATPUR Near Court  Deeg Bharatpur  9414584015  10000  2009  Active  16-09-2014    .67  16838.28 
25 897 Mayuri emitra 2014-Aksh-BHARATPUR opposite govt.  hospital weir Bharatpur  9928585402  4073  Active  16-09-2014    57.95  15423.70 
26 898 Mina Devi 2014-Aksh-BHARATPUR BNRGSK Panchayat Samiti DeeG Bharatpur  9829333108  1169  Active  16-09-2014    .79  15221.21 
27 899 Sachin Khandelwal 2014-Aksh-BHARATPUR Near Devi Ram Kachori wala Choburja Market Bharatpur  9461695960  1207  Active  16-09-2014    .19  886.04 
28 901 Santosh Kumar 2014-Aksh-BHARATPUR Surajmal Nagar Near Center School Bharatpur  9887112441  40000  31965  Active  17-09-2014    694.01  8211.24 
29 919 KRISHNA KANT 2014-Aksh-BHARATPUR Ram Nagar Colony Bhartpur   7792001955  12  Active  19-09-2014    8.85  10206.11 
30 932 Zuber Khan 2014-Aksh-BHARATPUR Cheetha Wali Gali Chaburja Bazar Bharatpur  9462484927  5991  Active  25-09-2014    .02  29147.26 
31 934 Vinita 2014-Aksh-BHARATPUR Khaluja Hospital Ke pass Jawahar Nagar Bharatpur  7597156959  114  Active  25-09-2014    193.13  219.23 
32 966 Gulap Khandelwal 2014-Aksh-BHARATPUR Peer Mohalla  kaman Bharatpur  05640250100  40000  7827  Active  09-10-2014    .19  7649.65 
33 982 Manoj sharma 2014-Aksh-BHARATPUR Peer mohalla ward no 17 Kama Kaman Bharatpur  05640-251101  516  Active  13-10-2014    14.42  1060.47 
34 999 SUNIL KUMAR 2014-Aksh-BHARATPUR A32 JAWAHAR NAGAR  BHARATPUR   9414303388  8027  Active  22-10-2014    .78  2425.60 
35 1000 ABHAY KUMAR JAIN 2014-Aksh-BHARATPUR INFRONT OF COURT BKAMAN  BHARATPUR   9875000161  53  Active  22-10-2014    6901.27  17630.73 
36 1002 Vishnu Kumar 2014-Aksh-BHARATPUR Tehsil Campus Bayana  Bharatpur   9672086606  41  Active  27-10-2014    1.3  253.36 
37 1003 Suresh Sharma 2014-Aksh-BHARATPUR Tehsil Parisar  Kaman Bharatpur  9413672361  30  Active  27-10-2014    18.01  6102.47 
38 1004 RITESH GARG 2014-Aksh-BHARATPUR Teshsil Campus Weir    9509489583  354  Active  27-10-2014    62.54  3801.01 
39 1005 Surendra Sharma 2014-Aksh-BHARATPUR Tehsil- Bhusawar Bharatpur- 321406   05643271000  85  Active  27-10-2014    2520.73  1799.61 
40 1006 MEENA DEVI 2014-Aksh-BHARATPUR Tehsil Campus Deeg   8058565580  Active  27-10-2014    1034.46  2588.80 
41 1008 Deepak Kumar Jain 2014-Aksh-BHARATPUR Tehsil Office Bharatpur    9929929920  1502  Active  27-10-2014    19145.79  4193.28 
42 1029 Jitendra Kumar 2014-Aksh-BHARATPUR near bank of baroda  bayana Bharatpur  9783283874  59  Active  03-11-2014    .34  2751.48 
43 1030 Amit Sharma 2014-Aksh-BHARATPUR Near Railway Station Bharatpur   9461582799  90000  69356  Active  03-11-2014    7093.18  3325.99 
44 1031 Gaurav Sharma 2014-Aksh-BHARATPUR New Santan Dharam  Market Bharatpur  9414375500  40000  29795  Active  03-11-2014    .23  10792.45 
45 1038 Dharam Chand 2014-Aksh-BHARATPUR OLD PAHADI ROAD BILOD STAND KAMAN BHARATPUR    9950659910  1178  Active  06-11-2014    18.64  4825.53 
46 1046 Sanjeev Kumar Sharma 2014-Aksh-BHARATPUR MUDGAL DIGITAL STUDIO NEW MANDI BHARATPUR    9166944376  1648  Active  20-11-2014    .15  4295.20 
47 1048 Purshottam 2014-Aksh-BHARATPUR NEAR PANCHAYAT SAMITI ROOPWAS DIST BHARATPUR RAJASTHAN    8058252616  19300  Active  20-11-2014    41426.34  89632.44 
48 1052 Dinesh Kumar Sharma 2014-Aksh-BHARATPUR JAIN MANDIR SE SAMNE PAHADI DIST BHARATPUR    9610107548  24  Active  21-11-2014    5.07  16054.17 
49 1073 Ram Kunwar 2014-Aksh-BHARATPUR MAIN MARKET SATAVADI DIST BHARATPUR RAJASTHAN    9001660241  4152  Active  26-11-2014    24835.07  31083.81 
50 1075 Mayank Jain 2014-Aksh-BHARATPUR NEAR JAIN MANDIR SEWAR ROAD BHARATPUR RAJASTHAN    9166772669  5626  Active  27-11-2014    .7  5599.46 
51 1079 Aksh Optifibre 2014-Aksh-BHARATPUR Room No.55  Dist. collectrate  Bharatpur  9414059654  11632  Active  27-11-2014    .97  9038.23 
52 1081 Dharmveer Singh 2014-Aksh-BHARATPUR In front of Santoshi Temple Surajpole Gate Bharatpur  9529040674  10000  671  Active  27-11-2014    .18  26515.87 
53 1082 Aksh Rajeev Gandhi Seva Kendra Bharatpur 2014-Aksh-BHARATPUR Bharat Nirmaan Rajeev Gandhi Seva Kendra Bharatpur   9414059654  20000  968  Active  27-11-2014    11271.58  15103.40 
54 1092 Jyoti Sharma 2014-Aksh-BHARATPUR TEHSIL NADBAI BHARATPUR    9024903752  263  Active  01-12-2014    1500.89  4662.57 
55 1093 Parwesh Kumar 2014-Aksh-BHARATPUR SHOP NO 1 PNB ATM KE UPAR JAWAHAR NAGAR CIRCLE BHARATPUR RAJASTHAN    8890458315  126  Active  01-12-2014    39.29  36.51 
56 1094 Rajeswari Devi 2014-Aksh-BHARATPUR MAIN MARKET UCHCHAIN TEH ROOPWAS DIST BHARATPUR RAJASTHAN    9887433476  Active  01-12-2014    .72  41782.87 
57 1095 Ghanshyam Singhal 2014-Aksh-BHARATPUR BAPU MARKET NAGAT DIST BHARATPUR RAJASTHAN    9983956579  221  Active  01-12-2014    1.85  838.87 
58 1097 Umesh Tiwari 2014-Aksh-BHARATPUR MURWARA ROAD SUBHASH NAGAR BHARATPUR RAJASTHAN    9413300272  2564  Active  01-12-2014    .6  13806.47 
59 1098 Vineet Kumar 2014-Aksh-BHARATPUR BIHARI GALI RUDAWAL DIST BHARATPUR RAJASTHAN    9649013300  2515  Active  02-12-2014    5463.56  1898.97 
60 1099 Parul 2014-Aksh-BHARATPUR KARTAR COLONY NEAR NEW TEHSIL KAMAN BHARATPUR RAJASTHAN    7597755001  29  Active  02-12-2014    4.24  1650.65 
61 1105 Aksh Optifibre Limited 2014-Aksh-BHARATPUR BNSK HQ TEHSIL ROOPWAS DISTRICT BHARATPUR     9694420125  2007  Active  05-12-2014    .27  12701.87 
62 1112 Mohit Kumar Gupta 2014-Aksh-BHARATPUR 122 RAJENDRA NAGAR BHARATPUR RAJASTHAN    9414692950  8286  Active  11-12-2014    67.42  3699.55 
63 1113 Durga Prasad 2014-Aksh-BHARATPUR RADHA COLONY, NEAR RADHA BALLABH TEMPLE  KAMAN, BHARATPUR undefined  9829121852  1500  Active  11-12-2014    14.2  176.36 
64 1121 Hemant Kumar Garg 2014-Aksh-BHARATPUR SHOP N0 97 NEAR OLD COLLECTARY BHARATPUR    9782505764  2234  Active  17-12-2014    .55  1254.68 
65 1131 Naeem Khan 2014-Aksh-BHARATPUR ANAND NAGAR COLONY BHARATPUR RAJASTHAN    9694946814  357  Active  19-12-2014    23.85  16411.08 
66 1141 Lekhraj Bhardwaj 2014-Aksh-BHARATPUR Kaliki Bageechi Bharatpur Rajasthan-321001   9875228260  40000  40000  Active  22-12-2014    566.12  800.17 
67 1142 Anil Kumar jindal 2014-Aksh-BHARATPUR In front of Sindhi dharmashala Gate Road  Bharatpur  9694139121  240000  41506  Active  22-12-2014    69247.08  1001.49 
68 1143 Dilip Kumar Pahadia 2014-Aksh-BHARATPUR Old Anaj Mandi Bhusawar Bharatpur  9875057615  90000  1615  Active  22-12-2014    4.28  681.16 
69 1145 Rama eMitra Centre 2014-Aksh-BHARATPUR Basan Gate Chouraha Bharatpur   9667621874  120000  167  Active  22-12-2014    .35  10560.96 
70 1146 Gurumeet eMitra 2014-Aksh-BHARATPUR Bizli Ghar Collectrate Road  Bharatpur  05644220610  40000  40177  Active  22-12-2014    60.02  8010.44 
71 1147 Aditiya emitra kiosk 2014-Aksh-BHARATPUR Near Devi Temple Ranjeet Nagar Bharatpur  05644236851  40000  22668  Active  22-12-2014    6560.93  11810.30 
72 1148 Jeetendra Emitra Center 2014-Aksh-BHARATPUR Golpura Road, Subhash nagar behind central bus stand Bharatpur  9414893789  90000  13727  Active  22-12-2014    9608.34  10325.07 
73 1150 Lokesh Sharma 2014-Aksh-BHARATPUR Infront of RTO Office Anah Bharatpur  9887959411  90000  288  Active  22-12-2014    19.27  632.98 
74 1152 Manish emitra Center 2014-Aksh-BHARATPUR Manish emitra center Mahal khas road kila  Bharatpur  9982920850  50000  49761  Active  22-12-2014    3665.05  4096.59 
75 1153 Manoj Chahar 2014-Aksh-BHARATPUR Infornt of MSJ College 23-Geeta Colony  Bharatpur  9680838811  50000  20959  Active  22-12-2014    9.42  1226.36 
76 1154 Manoj Khandelwal 2014-Aksh-BHARATPUR Near Kiran Niwas home ke  goverdhan gate  Bharatpur  9783001714  40000  33073  Active  22-12-2014    75.65  9395.18 
77 1155 Manoj emitra Center 2014-Aksh-BHARATPUR Pratap colony Kumer gate Bharatpur  8058079654  25  Active  22-12-2014    38.7  0.00 
78 1156 Mohit Khandelwal 2014-Aksh-BHARATPUR Chhote Ramji ke samne Kumher  Bharatpur  8875075750  1086  Active  22-12-2014    .6  2702.61 
79 1157 Narendra kumar Jindal 2014-Aksh-BHARATPUR Behind of ganga Mandir Chohara near Budh ki hat Bharatpur  9414344163  140000  1884  Active  22-12-2014    42.58  578.93 
80 1158 Paritosh 2014-Aksh-BHARATPUR 28, shoping center  Krishna Nagar Bharatpur  9828102544  10000  2604  Active  22-12-2014    .5  976.52 
81 1160 Vinay Goyal 2014-Aksh-BHARATPUR Kumher Road Bus Stand ke Samne katra Nadbai Bharatpur  9785615572  90000  1419  Active  22-12-2014    4.25  4924.38 
82 1161 Atul Emitra 2014-Aksh-BHARATPUR Gandhi Chowk  Bayana Bharatpur  9414485885  40000  121  Active  22-12-2014    .73  1263.32 
83 1162 Banvari Shrama Emitra Bayana 2014-Aksh-BHARATPUR Cachari Road  Bayana Bharatpur  9887241956  684  Active  22-12-2014    60.26  1024.24 
84 1163 Bhoodev Goyal Emitra Center Nadbai 2014-Aksh-BHARATPUR Near APS School ware House Road nadbai Bharatpur  9024920267  40000  57  Active  22-12-2014    .61  1280.66 
85 1164 Chandra Shekhar Sharma 2014-Aksh-BHARATPUR Near Panchayat Samiti  Sewar Bharatpur  9782565377  30000  5667  Active  22-12-2014    463.23  33972.13 
86 1165 Mukesh emitra Center 2014-Aksh-BHARATPUR Near Ghanta Ghar Deeg Bharatpur  9414870877  40000  14065  Active  22-12-2014    53.4  13995.49 
87 1167 Nidhi eMitra Center 2014-Aksh-BHARATPUR Krishna Nagar Bharatpur   9828265217  40000  40000  Active  22-12-2014    985.59  438.62 
88 1169 Rohit eMitra Center 2014-Aksh-BHARATPUR Arya Samaj Road Bharatpur   9252066443  40000  2551  Active  22-12-2014    1150.96  970.08 
89 1170 Chankee Arora 2014-Aksh-BHARATPUR Ridhi Sidhi complex infront of thana  Nadbai Bharatpur  9166437449  1680  Active  22-12-2014    36.56  1736.81 
90 1172 Deepak Emitra Center 2014-Aksh-BHARATPUR Tehsil parisar ke andar Nagar Bharatpur  9887835434  684  Active  22-12-2014    .04  5692.33 
91 1173 Suresh Sharma emitra Center 2014-Aksh-BHARATPUR Near New Tehsil Kaman Bharatpur   9413672361  467  Active  22-12-2014    216.32  6274.58 
92 1174 Mahesh Sharma 2014-Aksh-BHARATPUR New Road  Deeg Bharatpur  05641220820  90000  7019  Active  22-12-2014    6.82  4345.80 
93 1177 Yatendra Kumar 2014-Aksh-BHARATPUR Nomish Road Bharatpur   9667179064  60000  61178  Active  22-12-2014    448.61  161.23 
94 1178 Deepak Gupta 2014-Aksh-BHARATPUR Middle School Ki Gali Deeg Bharatpur  9887228511  59  Active  22-12-2014    .11  4642.97 
95 1179 Pramod Singh 2014-Aksh-BHARATPUR Near Saini Mishtan Bhandar Bus stand, Bharatpur   9887764466  90000  98  Active  22-12-2014    3.89  2134.59 
96 1180 Lalit Khatri 2014-Aksh-BHARATPUR Near Shamshan Ghat Subhash Colony Bharatpur  9413303004  1147  Active  22-12-2014    83.78  6303.00 
97 1181 Pankaj Jain 2014-Aksh-BHARATPUR Jain Computers Katra Nadbai Bharatpur  05643276714  40000  1032  Active  22-12-2014    2.3  793.89 
98 1182 Rachna Sharma 2014-Aksh-BHARATPUR Anah Gate Bajariya Bharatpur   9785099684  30000  3324  Active  22-12-2014    6.68  6304.04 
99 1183 MOHAN LAL GUPTA 2014-Aksh-BHARATPUR MELA GROUND NAGAR NAGAR, BHARATPUR  9928352201  40000  19800  Active  22-12-2014    14231.09  14.34 
100 1185 Deepak Verma 2014-Aksh-BHARATPUR Near P N B Bank Kumher Bharatpur  9887512513  15000  358  Active  22-12-2014    168.83  2083.73 
101 1186 Madan Mohan 2014-Aksh-BHARATPUR New Bust Stand Weir Bharatpur   9468664073  15000  14  Active  22-12-2014    4830.7  55461.54 
102 1187 Rakesh Sharma 2014-Aksh-BHARATPUR Madarpur Road Infront of Podar Kothi Bharatpur   9887353542  90000  640  Active  22-12-2014    23.61  5552.66 
103 1188 Neeraj 2014-Aksh-BHARATPUR Super Market  GPF Office Ke Samne Bharatpur  9680702196  40000  116  Active  22-12-2014    .35  15819.37 
104 1189 Deepak Raj 2014-Aksh-BHARATPUR 109 Sewar Bazar Sewar Bharatpur  9928328689  10000  15755  Active  22-12-2014    .16  7034.88 
105 1191 Pooja Khandelwal 2014-Aksh-BHARATPUR B 4 Jawahar Nagar Bharatpur   05644220008  5171  Active  22-12-2014    .94  11663.48 
106 1192 Rupesh Kumar 2014-Aksh-BHARATPUR Ram Singh Ka Nagla Bajariya Bharatpur  9785362498  5000  323  Active  22-12-2014    .44  6143.38 
107 1194 Manoj Kumar 2014-Aksh-BHARATPUR Saharai Road Deeg Bharatpur  9983406728  3399  Active  22-12-2014    210.58  12951.48 
108 1195 Ravi Shankar Sharma 2014-Aksh-BHARATPUR Goverdhan Road Deeg Bharatpur  8058568722  10000  29  Active  22-12-2014    .14  3147.53 
109 1196 Veerendra Singh 2014-Aksh-BHARATPUR Near S.P. Office Bharatpur   9887002112  128  Active  22-12-2014    1.86  4786.31 
110 1197 Ritvis Cyber World 2014-Aksh-BHARATPUR 475 SPM Nagar Bharatpur   9784648494  34  Active  22-12-2014    .58  2449.81 
111 1199 Sudhir Kumar Sharma 2014-Aksh-BHARATPUR BNRGSK Panchayat Samiti Nadwai  9887982284  72  Active  22-12-2014    6880.21  21868.08 
112 1201 Hitesh Kumar 2014-Aksh-BHARATPUR BNRGSK Panchayat Samiti Kaman  9887242675  15000  798  Active  22-12-2014    .48  50707.35 
113 1202 Honey Saraswat 2014-Aksh-BHARATPUR BNRGSK Panchayat Smiti Bayana  9414942200  1364  Active  22-12-2014    85.52  9665.83 
114 1203 Manvendra 2014-Aksh-BHARATPUR 36, Shopping Center Krishna Nagar Bharatpur   9799348952  1488  Active  22-12-2014    .52  16284.75 
115 1204 Pankaj Yadav 2014-Aksh-BHARATPUR Near Suraj Pole Gate Gopal Garh Bharatpur   9782597856  1603  Active  22-12-2014    79.7  5956.06 
116 1207 Rajendra Goyal 2014-Aksh-BHARATPUR Near Power House Bharatpur   9530445152  1454  Active  22-12-2014    .45  33562.91 
117 1208 Pradeep Kaushik 2014-Aksh-BHARATPUR Nabab Gali Mathura Gate Bharatpur   9413304237  471  Active  22-12-2014    662.79  95.29 
118 1210 Dinesh Kumar Goyal 2014-Aksh-BHARATPUR Sadar Bazar Kaman  Bharatpur   9351721784  243  Active  22-12-2014    3128.1  2744.91 
119 1211 Ravi Prakash 2014-Aksh-BHARATPUR Old Sabji Mandi Near Main Post Office Bayana Bharatpur  9460174979  Active  22-12-2014    .62  2781.75 
120 1212 Sushil Shukla 2014-Aksh-BHARATPUR A-12 Ranjeet Nagar Bharatpur   9460012395  3031  Active  22-12-2014    5051.51  586.30 
121 1213 Hirendra Kumar 2014-Aksh-BHARATPUR Near S.B.I. Bank  Kumhar Gate  Bharatpur  9667153781  Active  22-12-2014    .64  25546.42 
122 1215 Praveen Kumar 2014-Aksh-BHARATPUR Infornt of Police Station  Nadbai Bharatpur  9461694089  456  Active  22-12-2014    48.41  4153.99 
123 1216 Devendra Pal 2014-Aksh-BHARATPUR Kasgang Road Nadabi Bharatpur   9785467573  523  Active  22-12-2014    57.93  1787.14 
124 1217 Arun Kumar Saxena 2014-Aksh-BHARATPUR Near Mahaveer Public School Rundhiya Nagar Bharatpur  9468885839  689  Active  22-12-2014    361.26  9950.49 
125 1230 Aslam 2014-Aksh-BHARATPUR BNRGSK Panchayat Samiti Nagar  9982090666  2061  Active  25-12-2014    .88  34457.75 
126 1255 Ganesh Dutt Mishra 2014-Aksh-BHARATPUR GOPALGHAR BHARATPUR    9680714485  13248  Active  09-01-2015    952.89  4128.21 
127 1258 Ram Mohan 2014-Aksh-BHARATPUR ANHA  GATE BAJARIYA BHARATPUR    8387978336  429  Active  09-01-2015    .26  9252.24 
128 1259 Daniel 2014-Aksh-BHARATPUR OUTSIDE  SURAJ POLE GATE BHARATPUR   9783863436  1245  Active  09-01-2015    .62  861.48 
129 1260 Pankaj Kumar Koli 2014-Aksh-BHARATPUR RAJEEV GNADHI SEVA KENDRA  AKHAIGAR NADBAI BHARATPUR   9785196307  349  Active  09-01-2015    470.55  7957.46 
130 1265 Satyendra Singh 2014-Aksh-BHARATPUR VEAR HOUSE ROAD NEAR POST  OFFICE, NADABI BHARATPUR   9875200277  290  Active  10-01-2015    623.01  979.13 
131 1266 Rajkumari Rajora 2014-Aksh-BHARATPUR COMPUTECH COMPUTER CENTER  NEAR KHADHI A SHARAM WEIR DIST BHARATPUR  9001733488  3333  Active  10-01-2015    166.04  146.23 
132 1267 Pavan Kumar 2014-Aksh-BHARATPUR ANHA GATE BAJARIYA BHARATPUR    9414000016  2552  Active  10-01-2015    3192.58  4700.11 
133 1271 Azad Khan 2014-Aksh-BHARATPUR TESHIL CAMPUS NAGAR BHARATPUR    9887712794  3162  Active  16-01-2015    .67  19868.56 
134 1281 JIYA RAHMAN 2014-Aksh-BHARATPUR Jiya rahaman emitra center babu bazar Bhartpur   9829753722  916  Active  20-01-2015    50.83  5871.02 
135 1282 Ashok Kumar Sharma 2014-Aksh-BHARATPUR MAIN MARKET NEAR POLICE CHOKI DEEG BHARATPUR    9351329943  1430  Active  20-01-2015    424.3  7473.49 
136 1307 Bhupendra Agrawal 2014-Aksh-BHARATPUR AGRAWAL COMPUTER POINT, NEAR AGRAWAL DHARMSHALA   KAMAN BHARATPUR RAJASTHAN   7877030711  170  Active  28-01-2015    .6  1335.59 
137 1310 Naresh Chand Agarwal 2014-Aksh-BHARATPUR MORI CHAR BAGH OPP. EYE HOSPITAL BHARATPUR RAJASTHAN    9414307673  139  Active  28-01-2015    .04  794.96 
138 1311 Radha Kumari 2014-Aksh-BHARATPUR VILLAGE BANSI PHADPUR TEHSIL RUPBAS BHARATPUR RAJASTHAN    9875003256  71  Active  28-01-2015    178.26  222.77 
139 1316 Dinesh Chand 2014-Aksh-BHARATPUR ATAL SEWA KENDRA JAGHINA SEWAR BHARATPUR RAJASTHAN    9784114403  238  Active  29-01-2015    245.45  12077.76 
140 1317 Bholu Ram Sharma 2014-Aksh-BHARATPUR ATAL SEWA KENDRA AKTA BHARATPUR RAJASTHAN    8058200671  1103  Active  29-01-2015    11451.68  11424.88 
141 1331 Lalit Mohan 2014-Aksh-BHARATPUR NEAR PNB BANK OLD BYEPASS ROAD NAGAR BHARATPUR RAJASTHAN    9024528958  1975  Active  03-02-2015    2.18  1865.56 
142 1332 Praveen Kumar 2014-Aksh-BHARATPUR ATAL SAMPARK KENDRA USRANI KUMHER BHARATPUR RAJASTHAN    9785506082  1458  Active  03-02-2015    104.17  15138.52 
143 1339 Bijendra Singh Gurjar 2014-Aksh-BHARATPUR GANDHI CHAUK BAYANA  BHARATPUR RAJASTHAN   9351950965  5560  Active  04-02-2015    1831.2  7801.00 
144 1340 Sanjay Kumar 2014-Aksh-BHARATPUR LAXMAN MANDIR BHARATPUR RAJASTHAN    9414200200  1142  Active  04-02-2015    .46  962.62 
145 1341 Sanjay Kumar Saini 2014-Aksh-BHARATPUR OUT SIDE SOORAJPOL GATE BHARATPUR RAJASTHAN    9529192492  14  Active  04-02-2015    93.99  6831.15 
146 1378 Veerendra Kumar 2014-Aksh-BHARATPUR VPO KALSARA TEH BAYANA BHARATPUR RAJASTHAN    9783335317  641  Active  09-02-2015    126.02  14019.44 
147 1389 Rajesh Kumar 2014-Aksh-BHARATPUR KUMHER ROAD NADBAI BHARATPUR RAJASTHAN    9782848895  495  Active  18-02-2015    .57  26480.05 
148 1390 Shyam Sundar Gupta 2014-Aksh-BHARATPUR ATAL SEWA KENDRA JANOOTHAR DEEG BHARATPUR RAJASTHAN    00000000000000  546  Active  18-02-2015    .52  1198.95 
149 1391 Varish 2014-Aksh-BHARATPUR RAJEEV GANDHI KENDRA  GULPARA NAGAR BHARATPUR RAJASTHAN   9772003536  16  Active  18-02-2015    .02  22136.33 
150 1392 Mausam Khan 2014-Aksh-BHARATPUR RAJEEV GANDHI Kendra Samler Pahari Nagar Bharatpur Rajasthan    8094101616  790  Active  18-02-2015    17.64  6540.18 
151 1393 Prateek Singhal 2014-Aksh-BHARATPUR STATE BANK KI GALI  DEEVAN MOHALLA KAMANSTATE BANK KI GALI DEEVAN MOHALLA KAMAN BHARATPUR RAJAS   9529208400  65  Active  18-02-2015    972.42 
152 1394 Krishan Murari 2014-Aksh-BHARATPUR MADHUR COMPUTERS ANAH GATE BHARATPUR RAJASTHAN    9414376540  1920  Active  18-02-2015    .19  3650.12 
153 1395 Shyam Sundar 2014-Aksh-BHARATPUR KISHORI PAYASA MOHALLA KAMAN BHARATPUR RAJASTHAN    8290431006  Active  18-02-2015    55.94  6724.82 
154 1425 Umesh Chand 2014-Aksh-BHARATPUR ATAL SEWA KENDRA MATUKI TEH. KAMAN DIST BHARATPUR RAJASTHAN    9828130014  1466  Active  27-02-2015    .06  3935.57 
155 1428 Anil Kumar Sharma 2014-Aksh-BHARATPUR KAMLA ROAD BASAN GATE BHARATPURRAJASTHAN    9782505905  191  Active  02-03-2015    2.67  21462.12 
156 1429 Jagdish Prasad Sharma 2014-Aksh-BHARATPUR NEAR GIRLSSCHOOL PAHARI ROAD KAMAN BHARATPUR RAJASTHAN    05640251351  646  Active  02-03-2015    .19  171.49 
157 1431 Bharat Singh 2014-Aksh-BHARATPUR ATAL SEWA KENDRA SIRAS TEH. WEIR DIST BHARATPUR RAJASTHAN    9660347923  75  Active  02-03-2015    8466.32  23633.17 
158 1432 Anuj Agarwal 2014-Aksh-BHARATPUR INFRONT OF GOAL GATE ARYA SAMAJ BHARATPUR    9928941555  66  Active  02-03-2015    .46  3086.87 
159 1433 Daulat Singh 2014-Aksh-BHARATPUR BRIJ NAGAR BHARATPUR RAJASTHAN    9667844838  1141  Active  02-03-2015    16.06  8278.20 
160 1442 Shakir 2014-Aksh-BHARATPUR RAJEEV GANDHI KENDRA KAKRALA NAGAR BHARATPUR RAJASTHAN    9828197456  478  Active  03-03-2015    8.56  1236.10 
161 1443 Dharmendra Singh 2014-Aksh-BHARATPUR ATAL SEWA KENDRA DAURDA TEHSIL ROOPWAS Bharatpur    9587363073  3346  Active  03-03-2015    194.43  14767.99 
162 1444 Brij Mohan 2014-Aksh-BHARATPUR ATAL SAMPARK KENDRA KHOH DEEG Bharatpur    9887685567  36  Active  03-03-2015    1005.37  26784.63 
163 1451 Aksh Optifibre Limited 2014-Aksh-BHARATPUR BAYANA, PHARASO District- BHARATPUR (Rajasthan    9414377104  11157  Active  11-03-2015    2254.08  23835.72 
164 1452 Omprakash 2014-Aksh-BHARATPUR BANSI KALAN BUS STAND Teh Sewar Dist Bharatpur Rajasthan    9887493560  848  Active  11-03-2015    .97  5435.95 
165 1453 Hitesh Kumar 2014-Aksh-BHARATPUR SINGLE WINDOW E SUGAM TEHSIL PAHARI DISST BHARATPUR    9251002005  24  Active  12-03-2015    .57  12103.89 
166 1455 Yahaya 2014-Aksh-BHARATPUR ATAL SEWA KENDRA NOGAWAN BAMNI TEH KAMAN BHARATPUR RAJASTHAN    9828412828  92  Active  13-03-2015    .44  6597.65 
167 1459 Kuldeep Singh 2014-Aksh-BHARATPUR ATAL SEWA KENDRA GANGROLI TEH. WEIR DIST BHARATPUR    9667234914  182  Active  16-03-2015    4759.61  16318.73 
168 1464 Rekha 2014-Aksh-BHARATPUR Atal Sewa Kendra,Gangroly Weir   8696805758  138  Active  19-03-2015    64.1  641.10 
169 1465 Jagdish Singh 2014-Aksh-BHARATPUR ATAL SEWA KENDRA CHICHANA    7691036392  3331  Active  19-03-2015    5000.56  13408.47 
170 1466 Nyaj Mohammad 2014-Aksh-BHARATPUR Nagar,Fatehpur Kala Fatehpur Kala   9549890604  83  Active  19-03-2015    .12  28751.16 
171 1467 Deepak Singh 2014-Aksh-BHARATPUR ATAL SEWA KENDRA JALALAPUR TEH. NAGAR BHARATPUR    9928319699  3839  Active  19-03-2015    853.82  20256.48 
172 1468 Babu Lal 2014-Aksh-BHARATPUR Atal Sewa Kendra,Sihawali Nagar   8239112676  56  Active  19-03-2015    12550.89  25498.78 
173 1469 Naresh Kumar Dhadoriya 2014-Aksh-BHARATPUR ATAL SEWA KENDRA ANDHIYARI TEH. RUPBAS Bharatpur    8058984002  1125  Active  19-03-2015    .23  5019.15 
174 1470 Neeraj 2014-Aksh-BHARATPUR ATAL SEWA KENDRA SONGAWN TEH.DEEG    8058222137  4750  Active  19-03-2015    1602.91  5843.25 
175 1472 Aksh Optifibre Limited 2014-Aksh-BHARATPUR A.En Office,Old Power House Bharatpur   9887877254  100000  50127  Active  20-03-2015    2352.8  8978.03 
176 1477 Ramvir Singh 2014-Aksh-BHARATPUR ATAL SEWA KENDRA KHEDA BRAHAMAN TEH. DEEG BHARATPUR RAJASTHAN    7733916667  3650  Active  23-03-2015    1011.53  919.00 
177 1478 Lakhan Singh 2014-Aksh-BHARATPUR ATAL SEWA KENDRA BADANGARH TEH. DEEG BHARATPUR    9982665647  1039  Active  23-03-2015    3385.61  15813.13 
178 1479 Dileep Kumar Sharma 2014-Aksh-BHARATPUR ATAL SEWA KENDRA NAROLI     7568593912  12  Active  23-03-2015    28.04  6737.96 
179 1505 Pushapendra Kumar Sharma 2014-Aksh-BHARATPUR ATAL SEWA KENDRA PICHUNA     9694806607  1395  Active  25-03-2015    2950.37  13375.67 
180 1506 Brijmohan Singh Maggo 2014-Aksh-BHARATPUR ANAH GATE BAJARIYA BHARATPUR Rajasthan    7615801777  3845  Active  25-03-2015    .42  12036.78 
181 1507 Gurmeet Singh 2014-Aksh-BHARATPUR WARD N0 24 GOLBAG ROAD MATHURA GATE BHARATPUR    9587000115  17661  Active  25-03-2015    1614.22  6827.92 
182 1508 Ajeet Singh 2014-Aksh-BHARATPUR ATAL SEWA KENDRA PATHENA THE. WEIR BHARATPUR RAJASTHAN    9887515038  138  Active  25-03-2015    .6  9725.50 
183 1509 Vishnu Kumar Gupta 2014-Aksh-BHARATPUR ATAL SEVA KENDRA RARAH    9950780243  13  Active  25-03-2015    19.05  7080.37 
184 1510 Radhe Shyam Rajpoot 2014-Aksh-BHARATPUR ATAL SEWA KENDRA GOGERA TEH .BHUSAWAR    9413837008  1535  Active  25-03-2015    5398.57  7720.80 
185 1795 Hari Mohan 2014-Aksh-BHARATPUR ATAL SEWA KENDRA UBAR TEH KUMHER BHARATPUR    7023396261  96  Active  06-04-2015    6.28  2141.45 
186 1798 Lokesh Kumar 2014-Aksh-BHARATPUR ATAL SEWA KENDRA KHESTI    9024062105  1860  Active  06-04-2015    3524.92  25522.26 
187 1799 Harnam Singh 2014-Aksh-BHARATPUR ATAL SEWA KENDRA SADHPURI TEH. NAGAR    8502807926  780  Active  06-04-2015    7409.2  9353.00 
188 1819 Harmeet Singh 2014-Aksh-BHARATPUR ATAL SEWA KENDRA BASBURJA TEH. NAGAR Bharatpur    8426020062  4490  Active  11-04-2015    16687.68  27497.55 
189 1822 Yashwant Singh 2014-Aksh-BHARATPUR VILLAGE POST PATHENA BABEKHAR TEH.BHUSAWAR BHARATPUR    9413027496  46  Active  11-04-2015    4612.4  19693.10 
190 1823 Gaurav Agrawal 2014-Aksh-BHARATPUR 29 STC HOUSING BOARD COLONEY BHARATPUR    9680399300  1210  Active  11-04-2015    1.3  1168.38 
191 1824 Veerendra Singh 2014-Aksh-BHARATPUR POST GOPALGARH THESIL PAHARI Bharatpur    9461623407  99  Active  11-04-2015    611.59  12850.91 
192 1825 Bhavnesh Kumar 2014-Aksh-BHARATPUR ATAL SEWA KENDRA JAHANGEERPUR TEH.NADBAI Bharatpur Rajasthan    8426924549  296  Active  11-04-2015    793.75  4713.41 
193 1826 Tufail Khan 2014-Aksh-BHARATPUR ATAL SEWAKENDRA GHOSINGA TEH. PAHARI    8058533192  40  Active  11-04-2015    1494.63  17322.46 
194 1827 Samay Singh 2014-Aksh-BHARATPUR ATAL SEWA KENDRA DHADHAIN TEH BAYANA    9950486489  131  Active  11-04-2015    213.64  2697.47 
195 1829 Chandra Sekhar Sharma 2014-Aksh-BHARATPUR ATAL SEWA KENDRA SHEESHWADA TEH. DEEG    9672327226  5585  Active  11-04-2015    .07  8872.95 
196 1830 Yashpal Singh 2014-Aksh-BHARATPUR ATAL SEWA KENDRA SALEMPUR KALAN TEH.BHUSAWAR    7891508503  6914  Active  11-04-2015    24.55  36075.74 
197 1879 Harish Chand 2014-Aksh-BHARATPUR SURAJ BAGH COLONY KAMAN BHARATPUR    9460963151  608  Active  15-04-2015    .54  9415.70 
198 1924 Pavan Kumar 2014-Aksh-BHARATPUR ATAL SEWA KENDRA MAHMADPURA THE. BAYANA Bharatpur Rajasthan    9785300376  8623  Active  17-04-2015    7360.59  21384.15 
199 1925 Surendra Singh 2014-Aksh-BHARATPUR ATAL SEWA KENDRA BHARAMDA THE. NADBAI Bharatpur Rajasthan    9680480465  43  Active  17-04-2015    100.01  2220.27 
200 1936 Nadeem 2014-Aksh-BHARATPUR ANAJ MANDI KE SAMNE  KOSI ROAD KAMAN Bharatpur   9001409058  Active  17-04-2015    4.06  25847.62 
201 1938 Santosh Kumar 2014-Aksh-BHARATPUR NERA DURGA TEMPLE RANJEET  NAGAR BHARATPUR   9887039878  45  Active  17-04-2015    30.58  8808.27 
202 1940 Mukesh Saini 2014-Aksh-BHARATPUR NAGAR ROAD, DEEG Bharatpur Rajasthan    9636585941  574  Active  17-04-2015    1570.95  6264.98 
203 1944 Raghvendra Sharma 2014-Aksh-BHARATPUR RADHA KRISHNA MANDIR WALI GALI B- NARAYAN GATE BHARATPUR     9828856009  3369  Active  18-04-2015    .69  3403.34 
204 1945 Mukesh Chand 2014-Aksh-BHARATPUR IN FRONT OF NAGAR PALIKA NADBAI BHARATPUR RAJASTHAN     9887963208  2047  Active  18-04-2015    9.77  1978.63 
205 1946 Lakhan Singh 2014-Aksh-BHARATPUR PADAM VIHAR COLONY SEWAR ROAD BHARATPUR    9468681247  16  Active  18-04-2015    50.26  57.66 
206 1949 Raju Singh 2014-Aksh-BHARATPUR 52, JATAV MOHALLA SADPURI THE. NAGAR Bharatpur Rajasthan    8094133729  97  Active  18-04-2015    5077.65  16834.14 
207 1950 Mukesh Chand Sharma 2014-Aksh-BHARATPUR RADHA SWAMI SCHOOL KE SAMNE KHERLI  ROAD NAGAR BHARATPUR   9460646954  242  Active  18-04-2015    .98  15650.29 
208 1951 Pushpendra Kumar 2014-Aksh-BHARATPUR ATAL SEWA KENDRA FARSO THE. BAYANA BHARATPUR RAJASTHAN    9887740044  2911  Active  18-04-2015    168.46  3018.94 
209 1964 Vinod Kumar Sharma 2014-Aksh-BHARATPUR MAIN MARKET SEWAR BHARATPUR    9649644179  1651  Active  22-04-2015    .07  2704.38 
210 2014 Mousam 2014-Aksh-BHARATPUR NEAR GOVT. HOSPITAL PAHARI Bharatpur Rajasthan    9887812410  45  Active  29-04-2015    101.6  5563.43 
211 2015 Suveer Chhonkar 2014-Aksh-BHARATPUR NEW CIVIL LINES WARD N0. 39 BHARATPUR    8560087478  169  Active  29-04-2015    .93  209.91 
212 2017 Jal Singh 2014-Aksh-BHARATPUR KHERLI GADASIYA TEH. BAYANA Bharatpur    9784913377  Active  29-04-2015    .25  24790.29 
213 2031 Yashpal Singh 2014-Aksh-BHARATPUR ATAL SEWA KENDRA ,BACHHRAIN TEH. WEIR BHARATPUR.    9680771458  1169  Active  30-04-2015    12587.85  17740.70 
214 2035 Vikram Singh 2014-Aksh-BHARATPUR ATAL SEWA KENDRA BARAI THE.DEEG, Bharatpur    9680467064  1020  Active  30-04-2015    3346.36  10969.66 
215 2036 Narayan Singh 2014-Aksh-BHARATPUR ATAL SEWA KENDRA RASIYA THE. NAGAR, Bharatpur    9785386110  370  Active  30-04-2015    1980.69  1875.00 
216 2038 Ijhar 2014-Aksh-BHARATPUR ATAL SEWA KENDRA DHOULET THE. PAHARI Bharatpur    8058657171  80  Active  30-04-2015    1779.84  4625.28 
217 2040 Ved Prakash 2014-Aksh-BHARATPUR ATAL SEWA KENDRA TERHIYA THE.RUPWAS BHARATPUR    05648277021  1195  Active  30-04-2015    1997.4  19391.16 
218 2041 Ramveer Singh 2014-Aksh-BHARATPUR ATAL SEWA KENDRA BARSO BHARATPUR    9887493642  168  Active  30-04-2015    92.54  5252.86 
219 2043 Pushpendra Kumar 2014-Aksh-BHARATPUR PUSHPENDRA EMITRA CENTRE GOPALGARH BHARATPUR RAJASTHAN    9413303160  22  Active  30-04-2015    4346.99  11852.51 
220 2044 Nitin Kumar Sachdeva 2014-Aksh-BHARATPUR BABA PHOTOSTATE JUREHRA THE. KAMAN Bharatpur    9667069627  11  Active  30-04-2015    1.3  2347.44 
221 2046 Rinku Kumar Rawat 2014-Aksh-BHARATPUR MOROLI DAHAR TEH. RUPWAS, Bharatpur    9927130712  1917  Active  30-04-2015    1952.98  10361.35 
222 2048 Ashok Kumar 2014-Aksh-BHARATPUR 135, RUNDHIYA NAGAR NEAR GIRRAJ KENAL BHARATPUR Rajasthan    9828370901  4722  Active  01-05-2015    138.73  4633.45 
223 2059 Hemant Kumar Sharma 2014-Aksh-BHARATPUR PURABAI KHERA TEH. BAYANA DIST BHARATPUR    9772739816  471  Active  04-05-2015    7340.35  8841.23 
224 2070 Rajpal Yadav 2014-Aksh-BHARATPUR KALYAN MOHALLA KAMAN BHARATPUR RAJASTHAN    8058657957  707  Active  05-05-2015    2608.76  3420.23 
225 2071 Khem Singh 2014-Aksh-BHARATPUR ATAL SEWA KENDRA SALABAD THE. BAYANA    9887368362  1847  Active  05-05-2015    .33  23744.74 
226 2072 Subham Khandelwal 2014-Aksh-BHARATPUR PAWAN KUNJ COLONY WARD N024 KAMAN Bharatpur Rajasthan    8387872670  2048  Active  05-05-2015    1185.77  1006.59 
227 2073 Pankaj Kumar 2014-Aksh-BHARATPUR GOPALGARH PAHARI BHARATPUR RAJASTHAN    9828551252  1341  Active  05-05-2015    1384.11  13290.23 
228 2095 Dhramvir Singh 2014-Aksh-BHARATPUR ATAL SEWA KENDRA FULWARA THE. BHARATPUR Dist Bharatpur Rajasthan    8094802622  Active  06-05-2015    45.87  30.56 
229 2096 Arun Singh 2014-Aksh-BHARATPUR ATAL SEWA KENRDAR NEWARA THE. WEIR BHARATPUR RAJASTHAN    9001686769  Active  06-05-2015    1500  7589.21 
230 2098 Shree Ram 2014-Aksh-BHARATPUR ATAL SEWA KENDRA SABORA THE. KUMHER Bharatpur Rajasthan    9929169030  380  Active  06-05-2015    2587.79  3383.58 
231 2099 Radharaman Sharma 2014-Aksh-BHARATPUR ATAL SEWA KENDRA PARAUA THE.RUPWAS Bharatpur Rajasthan    9887196436  325  Active  06-05-2015    5634.2  28354.73 
232 2100 Gopal Prasad 2014-Aksh-BHARATPUR ATAL SEWA KENDRA GOVINDPURA WEIR BHARATPUR RAJASTHAN    8696367636  50  Active  06-05-2015    173.12  2047.45 
233 2132 Bhupendra Singh 2014-Aksh-BHARATPUR DEEP COMPUTER CENTRE PAHUA THE. KUMHER, Bharatpur    9828815751  18  Active  14-05-2015    1136.09  12760.40 
234 2133 Pankaj Agarwal 2014-Aksh-BHARATPUR PURANI ANAJ MANDI WEIR Bharatpur Rajasthan    9461966250  333  Active  14-05-2015    .39  3352.49 
235 2135 Anil Kumar 2014-Aksh-BHARATPUR ATAL SEWA KENDRA BIDIYARI TEH. BAYANA BHARATPUR RAJASTHAN    9414226716  52  Active  14-05-2015    4001  3336.36 
236 2144 Roopkishor Yadav 2014-Aksh-BHARATPUR Atal Seva Kendra Berro Nagar Bharatpur Rajasthan    9799180017  473  Active  20-05-2015    155.28  34237.21 
237 2145 Surjeet Singh 2014-Aksh-BHARATPUR ATAL SEWA KENDRA SAHSAN THE. PAHARI BHARATPUR RAJASTHAN    8441058009  2170  Active  20-05-2015    161.25  3492.01 
238 2146 Fareed Khan 2014-Aksh-BHARATPUR 115 JATAV MOHALLA MUDIYA THE. NAGAR BHARATPUR RAJASTHAN    9587727320  555  Active  20-05-2015    100.31  18422.63 
239 2147 Akhlesh Kumar Sharma 2014-Aksh-BHARATPUR ATAL SEWA KENDRA JAGGIVANPUR THE. WEIR BHARATPUR RAJASTHAN    9950251165  65  Active  20-05-2015    11.25  5724.32 
240 2148 Devendra Prasad Sharma 2014-Aksh-BHARATPUR ATAL SEWA KENDRA BHARATPUR Rajasthan    9782248942  55  Active  20-05-2015    605.5  970.09 
241 2149 Vinod Kumar Sain 2014-Aksh-BHARATPUR ATAL SEWA KENDRA MAINAPURA TEH. BHUSAWAR BHARATPUR RAJASTHAN    9549586750  605  Active  20-05-2015    12957.09  37572.92 
242 2160 Jyoti Gupta 2014-Aksh-BHARATPUR CM PRINTERS EMITRA CENTRE BHARATPUR RAJASTHAN    9166834100  50  Active  26-05-2015    540.7  47.78 
243 2164 Arun Kumar 2014-Aksh-BHARATPUR INFRONT OF PNB BANK DEEG ROAD BHARATPUR Rajasthan    9887887202  413  Active  26-05-2015    227.88  4407.01 
244 2168 Rajkumar 2014-Aksh-BHARATPUR Gram Panchayat LAKHAN THESILKUMHER, Bharatpur    9983684578  144  Active  26-05-2015    1569.25  7574.87 
245 2173 Pushpendra Singh 2014-Aksh-BHARATPUR PLOT N0 Q INDRA NAGAR HEERADAS BHARATPUR RAJASTHAN    8561037440  22  Active  27-05-2015    250.75  854.35 
246 2174 Amit Chawla 2014-Aksh-BHARATPUR INFRONT OF SDM COURT KAMAN BHARATPUR RAJASTHAN    9610376376  198  Active  27-05-2015    27.58  1308.80 
247 2176 Bhupendra Kumar Dixit 2014-Aksh-BHARATPUR GANDHI NAGAR ROAD SEWAR ROAD BHARATPUR RAJASTHAN    9887503135  5052  Active  27-05-2015    41.92  3126.88 
248 2258 Balram Yadav 2014-Aksh-BHARATPUR CHURI BAZAR TEH. NAGAR BHARATPUR    9352777935  11  Active  10-06-2015    .07  5515.98 
249 2261 Iliyas Khan 2014-Aksh-BHARATPUR ATAL SEWA KENDRA TODA THESIL DEEG    9772391011  185  Active  10-06-2015    692.78  22623.57 
250 2262 Jeetendra Kumar Gurjar 2014-Aksh-BHARATPUR ATAL SEWA KENDRA BRAHMABAD THE. BAYANA Bharatpur    9587517354  28  Active  10-06-2015    24.32  18875.58 
251 2265 Satyendra Kumar 2014-Aksh-BHARATPUR Vpo Sikri Teh Nagar Bharatpur    9413994113  297  Active  15-06-2015    1260.92  1072.45 
252 2290 Samsuddin 2014-Aksh-BHARATPUR Viil- Jhantli Teh. Nagar Dist. Bhartpur Rajasthan    7665913436  1772  Active  18-06-2015    538.73  41839.56 
253 2302 Dharm Singh 2014-Aksh-BHARATPUR SUNDRAWALI THESIL NAGAR BHARATPUR RAJASTHAN    9887586072  50  Active  20-06-2015    2901.79  11988.13 
254 2304 Chet Ram 2014-Aksh-BHARATPUR NEAR BUS STAND KHOH TEHSIL DEEG BHARATPUR    9928272289  2089  Active  20-06-2015    409.68  6815.89 
255 2306 Ramavatar 2014-Aksh-BHARATPUR KHORKI ROAD TEHSIL NAGAR BHARATPUR RAJASTHAN    9571765235  63  Active  20-06-2015    300.74  24771.43 
256 2307 Santosh Kumar 2014-Aksh-BHARATPUR MAIN MARKET SEWAR BHARATPUR RAJASTHAN    9887002180  200  Active  20-06-2015    .23  12767.19 
257 2308 Arun Kumar Jain 2014-Aksh-BHARATPUR BUDH KI HAAT BHARATPUR    9782505757  Active  20-06-2015    .78  13497.51 
258 2309 Meghraj 2014-Aksh-BHARATPUR NEAR SDM OFFICE BHUS AWAR BHARATPUR RAJASTHAN   8094670022  2652  Active  20-06-2015    86.15  11473.03 
259 2312 Navneet Kumar 2014-Aksh-BHARATPUR GLOBAL EMITRA VILL.SAIDPURA TESIL RUPWAS BHARATPUR    9414694403  2975  Active  23-06-2015    797.74  155.65 
260 2314 Sanju Sharma 2014-Aksh-BHARATPUR PAI BAGH, BHARATPUR    9461867091  3365  Active  27-06-2015    20.26  23986.68 
261 2326 Ravi Kumar 2014-Aksh-BHARATPUR Kaman Bharatpur Rajasthan    7891212512  583  Active  03-07-2015    246.13  217.21 
262 2327 Babli Arya 2014-Aksh-BHARATPUR SAINI MOHALLA KUMHER GATE BHARATPUR RAJASTHAN    9024747685  176  Active  03-07-2015    323.5  16524.37 
263 2363 Lokesh Kumar Sharma 2014-Aksh-BHARATPUR NEAR SBI BANK , HINDOUN ROAD   BHUSAWAR , BHARATPUR RAJASTHAN undefined  8058681832  24  Active  24-07-2015    .75  1223.36 
264 2364 Tarun Dayal Katara 2014-Aksh-BHARATPUR JASWANT NAGAR NEAR JASWANT SCHOOL BHARATPUR RAJASTHAN    9414945210  52  Active  24-07-2015    95.97  8524.04 
265 2370 Akeel Ahmed 2014-Aksh-BHARATPUR Tehsil CampusNagar,Bharatpur    9982090666  500  Active  24-07-2015    .23  20375.73 
266 2374 Vishesh Kumar Sharma 2014-Aksh-BHARATPUR NEAR BHUMIYA BURJ GOPINAAT MAUHLLA KAMAN BHARATPUR RAJASTHAN    7891868653  1138  Active  24-07-2015    .77  1927.30 
267 2375 Narendra 2014-Aksh-BHARATPUR MAIN ROAD UCCHAIN THESIL RUPBAS BHARATPUR RAJASTHAN    8952963617  200  Active  24-07-2015    523.61  1581.15 
268 2376 Harveer Singh 2014-Aksh-BHARATPUR ATAL SEWA KENDRA GAHLAU TEH RUPBAS BHARATPUR RAJASTHAN    7665861616  Active  24-07-2015    617.5  868.56 
269 2378 Aksh Optifibre Limired 2014-Aksh-BHARATPUR VARDHMAN MAHAVEER  OPEN UNIVERSITY BHARATPUR   9782179998  1012  Active  27-07-2015    .86  2804.80 
270 2388 Sanjeev Kumar Saini 2014-Aksh-BHARATPUR Nagar Bharatpur Rajasthan    9672792484  715  Active  30-07-2015    1791.27  867.00 
271 2393 Rakesh Kumar Garg 2014-Aksh-BHARATPUR D-26 SHOPING CENTER JAWAHAR NAGAR  BHARATPUR RAJASTHAN  9352777798  1029  Active  04-08-2015    .23  289.94 
272 2397 Mukand Bihari 2014-Aksh-BHARATPUR CITY SCHOOL KE PASS BAPU BAZAR NAGAR BHARATPUR RAJASTHAN    9024564343  Active  05-08-2015    76.19  29236.01 
273 2399 Ramesh Chand Jha 2014-Aksh-BHARATPUR NEEM KA NEECHE GUD KI MANDI KUMHER BHARATPUR RAJASTHAN    9782514178  1411  Active  05-08-2015    168.11  1819.51 
274 2430 Pawan Kumar 2014-Aksh-BHARATPUR ATAL SEWA KENDRA KURKA THE. RUPBAS BHARATPUR    9785135761  153  Active  10-08-2015    2.18  1871.22 
275 2431 Asad Malik 2014-Aksh-BHARATPUR ATAL SEWA KENDRA KAKRALA THE. NAGAR BHARATPUR    9887669070  Active  10-08-2015    3813.3  9152.96 
276 2432 Ram Ratan Kaushik 2014-Aksh-BHARATPUR EMPLOYEMENT OFFICE BHARATPUR RAJASTHAN    9672900243  526  Active  10-08-2015    491.85  1852.82 
277 2434 Nitish Kumar 2014-Aksh-BHARATPUR MAIN MARKET JANUTHAR TH. DEEG BHARATPUR RAJASTHAN    9799752268  76  Active  14-08-2015    1.8  222.26 
278 2454 MANOJ KUMAR 2014-Aksh-BHARATPUR Village Uncha Nagla Post Behnera Bharatpur  9001708405  Active  25-08-2015    .55  2334.93 
279 2467 Rakesh Tiwari 2014-Aksh-BHARATPUR SAUNALI EMITRA CENTRE BRAHMAWAD THESIL BAYANA BHARATPUR RAJASTHAN    8003603730  35  Active  27-08-2015    4057.55  1965.00 
280 2496 Subhash Singh 2014-Aksh-BHARATPUR ATAL SEWA CENTRE MADARPUR BHARATPUR RAJASTHAN    9001004584  840  Active  01-09-2015    .05  643.07 
281 2500 Praveen Kumar Jangid 2014-Aksh-BHARATPUR MAINAPURA THESIL BHUSAWAR WEIR BHARATPUR RAJASTHAN    8058947094  2340  Active  03-09-2015    314.56  3998.38 
282 2501 Bhagawan Swaroop Pandey 2014-Aksh-BHARATPUR ATAL SEWA KENDRA WEIR BHARATPUR RAJASTHAN    8829834999  360  Active  03-09-2015    35.55  954.28 
283 2516 Vijay Singh 2014-Aksh-BHARATPUR VIJAY E-MITRA NEAR MAIN GATE THANA NADBAI BHARATPUR    9782319241  1200  Active  11-09-2015    .23  6860.50 
284 2517 Surendra Singh 2014-Aksh-BHARATPUR SDM COURT KE SAMNE THESIL NAGAR BHARATPUR RAJASTHAN    9785004476  269  Active  11-09-2015    260.15  866.00 
285 2519 Rajesh Singh 2014-Aksh-BHARATPUR RAJESH EMITRA CENTRE BHUSAWAR BHARATPUR RAJASTHAN    9667230074  2063  Active  11-09-2015    5.48  6567.12 
286 2525 Aksh Optifibre Limited 2014-Aksh-BHARATPUR A.EN. OFFICE (O&M), BAYANA BHARATPUR    9414485885  100000  93160  Active  16-09-2015    .77  7293.16 
287 2526 Jagveer Singh 2014-Aksh-BHARATPUR PARUL EMITRACENTRE KATARA NADBAI BHARATPUR RAJASTHAN    8384961669  45  Active  17-09-2015    18  4230.81 
288 2528 Bhuvnesh Katara 2014-Aksh-BHARATPUR Dahina Ganv, GP Dahina Ganv, PS Roopwas    8432325507  Active  18-09-2015    6278.25  4592.00 
289 2530 Rohit Barhguzar 2014-Aksh-BHARATPUR ROHIT EMITRA NEAR SBI BANK STATION ROAD BAYANA BHARATPUR    9783878131  98  Active  28-09-2015    1213.56  4735.00 
290 2531 Vipin Kumar Jain 2014-Aksh-BHARATPUR SARAFA BAZAR JUREHRA TEH.- KAMA DIST.- BHARATPUR RAJASTHAN    9414716155  2152  Active  29-09-2015    34.35  1452.18 
291 2533 Dharmendra Singh 2014-Aksh-BHARATPUR OPPSITE GREEN GARDEN KRISHNA NAGAR BHARATPUR    7597156563  179  Active  29-09-2015    266.4  297.00 
292 2534 Piyush Kumar Goyal 2014-Aksh-BHARATPUR MAIN MARKET ROOPWAS BHARATPUR RAJASTHAN    9667765197  94  Active  29-09-2015    3.77  12.54 
293 2552 Krishna Kant 2014-Aksh-BHARATPUR KRISHI TAYARS KE PASS DEEG ROAD BHARATPUR    9024281316  489  Active  01-10-2015    38.32  3461.59 
294 2582 Yogesh Kumar 2014-Aksh-BHARATPUR SABLANA TEHSIL KAMAN BHARATPUR RAJASTHAN    9057464748  792  Active  14-10-2015    747.45  3794.48 
295 2583 Sushila Agrawal 2014-Aksh-BHARATPUR COURT CAMPAS BHARATPUR RAJASTHAN    9461033105  Active  14-10-2015    9.27  288.22 
296 2588 Dal Chand 2014-Aksh-BHARATPUR NEAR PANCHYAT KE PASS SIKRI BHARATPUR RAJASTHAN    9672135624  4364  Active  16-10-2015    800.99  11600.97 
297 2589 Bhoori Singh 2014-Aksh-BHARATPUR MUDHERA ROOPWAS BHARATPUR    9610041014  68  Active  17-10-2015    352.63  2752.70 
298 2601 Kavishwar Kant 2014-Aksh-BHARATPUR DEVRAJ EMITRA COMPUTER CENTRE MATHURA JAIPUR BAIPASS BHARATPUR    8386909066  2536  Active  28-10-2015    7.37  532.87 
299 2602 Mohan Swroop Sharma 2014-Aksh-BHARATPUR INFRONT OF GURUKULSCHOOL NADBAI BHARATPUR    8559856204  100  Active  28-10-2015    83  52.00 
300 2603 Deepak Garg 2014-Aksh-BHARATPUR MAIN MARKET ROOPWAS BHARATPUR RAJASTHAN    9549786858  14  Active  28-10-2015    .67  14392.96 
301 2604 Dharmendra Singh 2014-Aksh-BHARATPUR YASH COMPUTERS CENTRE DEEG BHARATPUR RAJASTHAN    9636602060  123  Active  28-10-2015    228.67  259.00 
302 2605 Hemant Kumar Jain 2014-Aksh-BHARATPUR NEAR HANUMAN MANDIR GOPALGARH BHARATPUR    9667004985  1288  Active  28-10-2015    36.04  5330.42 
303 2608 Atar Singh 2014-Aksh-BHARATPUR ATAL SEVA KENDRA JAISHRI TEH. NAGAR BHARATPUR    9983740637  Active  30-10-2015    4008  6999.00 
304 2613 Avinesh Garg 2014-Aksh-BHARATPUR B- 93 SUBHASH NAGAR BHARATPUR    9694545963  6037  Active  02-11-2015    .1  437.46 
305 2638 Lokesh Baswada 2014-Aksh-BHARATPUR MSJ COLLAGE KE SAMNE BHARATPUR    9636841153  2278  Active  07-11-2015    726.11  193.00 
306 2639 Surendra Singh 2014-Aksh-BHARATPUR NEAR BUS STAND KALSARA TEH. BAYANA BHARATPUR    8502881401  Active  07-11-2015    509.25  1255.00 
307 2645 Vishnu Kumar Sharma 2014-Aksh-BHARATPUR ATAL SEWA KENDR PALI DANG TH. BAYANA BHARATPUR RAJASTHAN    8239531975  738  Active  20-11-2015    6.83  2299.74 
308 2646 Kuldeep 2014-Aksh-BHARATPUR SURAJ POLE GATE BHARATPUR    8503920549  16  Active  21-11-2015    7.78  538.90 
309 2720 Artee Kumari 2014-Aksh-BHARATPUR GAYATRI PHOTO STATE COLLECTRECT ROAD BHARATPUR    7742507865  3826  Active  09-12-2015    1505.94  1844.90 
310 2721 Vivek Mangal 2014-Aksh-BHARATPUR NAGAR NIGAM OFFICE BHARATPUR    9509543973  1961  Active  09-12-2015    1073.51  64.00 
311 2722 Praveen Kumar 2014-Aksh-BHARATPUR PRAVEEN E-MITRA NEW PUSHPVATIKA COLONY BHARATPUR    9414980248  255  Active  09-12-2015    2.13  98.93 
312 2723 Shahid Khan 2014-Aksh-BHARATPUR NEAR KISAN BHAWAN DEEG ROAD BHARATPUR    9785989270  35  Active  09-12-2015    2.85  141.13 
313 2724 Neeraj Saini 2014-Aksh-BHARATPUR KRISHNA E-MITRA SURAJPOLE GATE BHARATPUR    7733869060  92  Active  09-12-2015    .72  3634.31 
314 2749 Kamal Dass 2014-Aksh-BHARATPUR INDRA NAGAR NALE KE PASS BHARATPUR    9785180936  126  Active  19-12-2015    14.8  1433.04 
315 2751 Devki Dixit 2014-Aksh-BHARATPUR KATARA MARKET RUPBAS BHARATPUR    8387943416  861  Active  22-12-2015    416.88  114.40 
316 2752 Banay Singh 2014-Aksh-BHARATPUR HARE KRISHNA EMITRA MAHAHADPURA TEHSIL BAYANA Bharatpur    9982322322  100  Active  22-12-2015    .19  2559.10 
317 2753 Peetam Singh Saini 2014-Aksh-BHARATPUR BHARTI EMITRA CENTRE NEAR TEHSIL BHUSAWAR BHARATPUR    8502805851  1805  Active  22-12-2015    760.98  677.41 
318 2789 Dilawer Khan 2014-Aksh-BHARATPUR KHERLI GUMANI TEH. KAMAN DIST.- BHARATPUR RAJASTHAN    8502079191  Active  05-01-2016    1669.63  78.00 
319 2809 Pushpendra 2014-Aksh-BHARATPUR BEENA E-MITRA CENTRE ROJVILLA COLONY SARAS CHAURAHA, BHARATPUR    9887959823  195  Active  06-01-2016    32.42  0.00 
320 2810 Hakim Singh 2014-Aksh-BHARATPUR Atal Sewa Kendra Lahachorakalan Bayana Bharatpur    9057616307  Active  06-01-2016    729.64  2307.57 
321 2811 Ravi Katheriya 2014-Aksh-BHARATPUR Saksham E-Mitra Centre, Jaghina Gate  Gopal Garh, Bharatpur undefined  7062452805  1999  Active  06-01-2016    2.9  490.26 
322 2812 Vishnu Sharma 2014-Aksh-BHARATPUR LAVANIYA E-MITRA CENTRE, SEWAR FORT KE SAMENE  SEWARVROAD, BHARATPUR undefined  8947921593  34  Active  06-01-2016    4.76  1414.03 
323 2814 Jeetendra Singh 2014-Aksh-BHARATPUR OM - SHAI E-MITRA CENTRE, V- RARAH  TEH. - KUMHER, BHARATPUR undefined  9680990299  2392  Active  06-01-2016    1098.35  1946.74 
324 2815 Prasoon Singhal 2014-Aksh-BHARATPUR BAUJI TELECOME & E-MITRA CENTRE SURAJPOLE CHAURAHA GOPAL GARH , BHARATPUR    8559826434  603  Active  06-01-2016    .96  560.67 
325 2862 Asjad Khan 2014-Aksh-BHARATPUR ASJAD EMITRA CENTRE SIKRI VILLAGE BHUHAPUR THE. NAGAR    8239103850  1120  Active  21-01-2016    1.01  501.75 
326 2863 Rakesh Kumar 2014-Aksh-BHARATPUR BARAULI CHHAR TEHSIL NADBAI Bharatpur    9887120040  Active  22-01-2016    127.5  0.00 
327 2884 Sonu Bansal 2014-Aksh-BHARATPUR SABORA TEHSIL KUMHER Bharatpur Rajasthan     9571390022  Active  30-01-2016    190  71.63 
328 2885 Neeraj Kumar 2014-Aksh-BHARATPUR BAROLICHHAR TEH. NADBAI (PAY POINT)Bharatpur     9660985921  Active  30-01-2016    0.00 
329 2887 Yogesh Kumar 2014-Aksh-BHARATPUR VILLAGE - SABLAN, TEHSIL - KAMAN  BHARATPUR   9887878542  Active  30-01-2016    100  52.00 
330 2890 Devendra Kumar 2014-Aksh-BHARATPUR ANKIT PHOTO STATE GAYATRI COLLONY NADBAI Bharatpur    8947841656  Active  30-01-2016    52.00 
331 2922 Soop Ram Jatav 2014-Aksh-BHARATPUR Paypoint PASOPA Deegbharatpur     9001596884  Active  04-02-2016    2.95  4.56 
332 2923 Naresh Kumar 2014-Aksh-BHARATPUR Paypoint BELARA KALA TEHSIL KUMHER Bharatpur     9413995932  Active  04-02-2016    0.00 
333 2924 Ram Singh 2014-Aksh-BHARATPUR CHULERA TEHSIL DEEG Bharatpur     8503085433  Active  04-02-2016    500  4.56 
334 2927 Narendra Singh 2014-Aksh-BHARATPUR Pay Point BEDHAM TEHSIL DEEG Bharatpur     8561067043  Active  04-02-2016    0.00 
335 2930 Susheel Kumar 2014-Aksh-BHARATPUR BADANGHAR, DEEG  BHARATPUR   9887905192  Active  04-02-2016    2.95  13.69 
336 2932 Taiyyab Khan 2014-Aksh-BHARATPUR NEAR MASJID, GARHI MEWAT  BEDHAM, BHARATUR undefined  9610299014  Active  04-02-2016    5.9  4.56 
337 2934 Pramod Kumar 2014-Aksh-BHARATPUR VILLAGE - GIRSE, TEHSIL - DEEG  BHARATPUR   9950101060  Active  04-02-2016    13.69 
338 2949 Ravi Lawaniya 2014-Aksh-BHARATPUR GOVERDHAN GATE, BHARATPUR    9667420119  5074  Active  05-02-2016    15.68 
339 2959 Vipin Bansal 2014-Aksh-BHARATPUR Paypoint KHERIA PUROHIT SONGAON DEEG BHARATPUR    9024484998  Active  09-02-2016    0.00 
340 2960 Jeetendra Kumar 2014-Aksh-BHARATPUR Pay Point Shripur,Deeg Bharatpur    8058334322  Active  09-02-2016    63.89 
341 2961 Dhanesh Kumar 2014-Aksh-BHARATPUR EMITRA PAYPOINT SINSINI, BHARATPUR    9983301011  Active  09-02-2016    0.00 
342 2962 Surendra Singh 2014-Aksh-BHARATPUR EMITRA PAYPOINT KHEMRA BHARATPUR    9828434242  Active  09-02-2016    0.00 
343 2963 Baboo Lal 2014-Aksh-BHARATPUR EMITRA PAYPOINT UMRA, DEEG  BHARATPUR    9460740002  Active  09-02-2016    0.00 
344 2964 Ajay Singh 2014-Aksh-BHARATPUR EMITRA PAYPOINT SUKHAWALI, BHARATPUR    9414718383  Active  09-02-2016    0.00 
345 2965 Rinku Kumar 2014-Aksh-BHARATPUR EMITRA PAYPOINT VILLAGE - TUHIYA, TYONGA  BHARATPUR   8058561420  Active  09-02-2016    0.00 
346 2966 Asjad Khan 2014-Aksh-BHARATPUR Emitra Paypoint BHUAPUR GARHI TEHSIL NAGAR Bharatpur     9529709046  Active  09-02-2016    0.00 
347 2967 Manoj Kumar Saini 2014-Aksh-BHARATPUR EMITRA PAYPOINT SAINI MOHALLA, BEWAR  HALENA, BHARATPUR undefined  9660253382  Active  09-02-2016    0.00 
348 2968 Rajesh Kumar Gupta 2014-Aksh-BHARATPUR EMITRA PAYPOINT VILLAGE - AJROUNDA, TEHSIL - WEIR  BHARATPUR    8290136831  Active  09-02-2016    4.56 
349 2969 Sushil Kumar 2014-Aksh-BHARATPUR EMITRA PAYPOINT BANI KUMHAR, BHARATPUR     9587999024  Active  09-02-2016    0.00 
350 2970 Pramod Kumar Sharma 2014-Aksh-BHARATPUR EMITRA Paypoint BAI,WEIR  BHARATPUR   9414526914  Active  09-02-2016    0.00 
351 2971 Brijesh Kumar 2014-Aksh-BHARATPUR EMITRA PAYPOINT KUTAKPUR, CHIRAWALMALI  NAGAR, BHARATPUR  undefined  8058976432  Active  09-02-2016    0.00 
352 2972 Gopal Prasad 2014-Aksh-BHARATPUR EMITRA PAYPOINT GOVINDPURA GP MUHARI THE. WEIR Bharatpur     8696367635  Active  09-02-2016    4.56 
353 2973 Jaswant Singh 2014-Aksh-BHARATPUR EMITRA PAYPOINT KASODA GP MADAHONI THE. BHARATPUR    9001649139  Active  09-02-2016    4.56 
354 2974 Kuldep Singh 2014-Aksh-BHARATPUR EMITRA PAYPOINT GANGROLI POST HISHAMDA TEH WEIR Bharatpur     9667234915  Active  09-02-2016    9.13 
355 2975 Bharat Singh 2014-Aksh-BHARATPUR EMITRA PAYPOINT NAHREPUR GP SIRAS TEHSIL WEIR BHARATPUR    9660347922  Active  09-02-2016    4.56 
356 2976 Manoj Kumar 2014-Aksh-BHARATPUR EMITRA PAYOINT SHYAMDHAK, BAROLI CHAUTH  DEEG, BHARATPUR undefined  9413309325  Active  09-02-2016    0.00 
357 2977 Hariom 2014-Aksh-BHARATPUR EMITRA PAYPOINT GUHANA, DEEG  BHARATPUR   9414449940  Active  09-02-2016    0.00 
358 2978 Sumit Singh 2014-Aksh-BHARATPUR EMITRA PAYPOINT Bahnera Sewar Bharatpur     7297895400  Active  09-02-2016    4.56 
359 2979 Vipin Kumar 2014-Aksh-BHARATPUR EMITRA PAYPOINT SEHU GP PADMADRA TEH. DEEG Bharatpur     9694805536  Active  09-02-2016    4.56 
360 2980 Nagendra Singh 2014-Aksh-BHARATPUR EMITRA PAYPOINT NARENA CHOTH GP PASTA TEH. DEEG Bharatpur     9785350540  Active  09-02-2016    4.56 
361 2981 Kehar Singh 2014-Aksh-BHARATPUR EMITRA PAYPOINT SHAYPUR GP BARAI TEH. DEEG Bharatpur     9887327743  Active  09-02-2016    13.69 
362 2986 Indrajeet Boudh 2014-Aksh-BHARATPUR EMITRA PAYPOINT JHEETREDI  GP SEMLA KALAN TEH. NAGAR Bharatpur    7891847732  Active  09-02-2016    0.00 
363 2987 Nem Singh 2014-Aksh-BHARATPUR EMITRA PAYPOINT  PIRAKA GP SAIMLAKALAN TEH. NAGAR Bharatpur    9024459580  Active  09-02-2016    2.95  13.69 
364 2988 Prem Prakash 2014-Aksh-BHARATPUR POOLICE THANE KE GATE KE PASS TEHSIL NADBAI Bharatpur    8947841512  1805  Active  10-02-2016    .37  137.92 
365 2990 Sonu Bansal 2014-Aksh-BHARATPUR VILLAGE And POST - SABORA, TEHSIL - KUMHER  DISTRICT- BHARATPUR   9785537341  3980  Active  10-02-2016    1900  1073.00 
366 2992 Vinod Kumar Agrawal 2014-Aksh-BHARATPUR UNCLE G EMITRA A-93RANJEET NAGAR BHARATPUR    9413113575  223  Active  10-02-2016    5.23 
367 2993 Kshitij Singh 2014-Aksh-BHARATPUR EMITRA Paypoint MADARPUR, CHIKSANA  SEWAR, BHARATPUR undefined  8946830750  Active  11-02-2016    0.00 
368 2994 Sahil Khan 2014-Aksh-BHARATPUR EMITRA PAYPOINT BHUTA GP MUDIYA TEH. NAGAR    9785709285  Active  11-02-2016    0.00 
369 2995 Rasid Khan 2014-Aksh-BHARATPUR EMITRA PAYPOINT BALKHEDHA GP KHKHABALI TEH. NAGAR Bharatpur     9828254582  Active  11-02-2016    9.13 
370 2996 Soran 2014-Aksh-BHARATPUR EMITRA PAYPOINT NARANA GP BANDHA CHOTH TEH. DEEG Bharatpur     9214065753  Active  11-02-2016    0.00 
371 2997 Anil Goyam 2014-Aksh-BHARATPUR EMITRA PAYPOINT ROJKI GP PENDKA TEH. NAGAR Bharatpur     9694896625  Active  11-02-2016    0.00 
372 2998 Ajab Singh Beekarwar 2014-Aksh-BHARATPUR EMITRA PAYPOINT MAI KA NAGLA GP MAI TEH. NADBAI Bharatpur     9929499299  Active  11-02-2016    100  9.13 
373 2999 Ankur Thanua 2014-Aksh-BHARATPUR EMITRA PAYPOINT NAUHGAYA , HATHENI  SEWAR, BHARATPUR undefined  9414208208  Active  11-02-2016    0.00 
374 3017 Satnam Singh Sandhu 2014-Aksh-BHARATPUR EMITRA Paypoint BARRPURA , AGHAPUR  CHIKSANA, SEWAR  BHARATPUR  9694565465  Active  13-02-2016    0.00 
375 3022 Ashwani Singh 2014-Aksh-BHARATPUR EMITRA PAY POINT VIJAY NAGAR, RUNDH HELAK  KUMHER, BHARATPUR undefined  9829159955  Active  15-02-2016    0.00 
376 3023 Siddharth Agre 2014-Aksh-BHARATPUR Emitra Paypoint Vijaynagar Khumer Bharatpur Rajasthan     9694837688  Active  15-02-2016    0.00 
377 3024 Ram Singh 2014-Aksh-BHARATPUR EMITRA PAY POINT GHATOLI POST KHANSURJAPUR TEH. RUPBAS BHARATPUR    9929404345  Active  15-02-2016    9.13 
378 3025 Chandra Prakash Yadav 2014-Aksh-BHARATPUR EMITRA PAY POINT MAHCHAULI PIPLA BLOCK SEWAR BHARATPUR    8769060087  703  Active  15-02-2016    .21  223.87 
379 3029 Neeru Singh 2014-Aksh-BHARATPUR EMITRA PAY POINT BHAHRABALI GP BHESHA TEH. RUPBAS BHARATPUR    9166676846  Active  16-02-2016    4.56 
380 3030 Ravi Kumar 2014-Aksh-BHARATPUR EMITRA PAY POINT KARMUKABAAS GP LEHRSAR TEH. KAMAN BHARATPUR    7891212511  Active  16-02-2016    0.00 
381 3032 Manoj Kumar 2014-Aksh-BHARATPUR EMITRA PAY POINT LODHAHEDI GP GHANKAR TEH. NAGAR BHARATPUR    8058260315  Active  16-02-2016    0.00 
382 3034 Narendra Kumar 2014-Aksh-BHARATPUR EMITRA PAY POINT JATOLI GHANA GP BACHAMDI SEWAR BHARATPUR    9461841710  Active  16-02-2016    0.00 
383 3035 Chhote Lal 2014-Aksh-BHARATPUR EMITRA PAY POINT SUPAWAS GP RETHOTI TEH. KUMHER BHARATPUR    9636282236  Active  16-02-2016    0.00 
384 3036 Ramveer Gurjar 2014-Aksh-BHARATPUR EMITRA PAY POINT RANOTA GP MORAKA TEH. NAGAR BHARATPUR    9785438001  Active  16-02-2016    0.00 
385 3037 Ramchand 2014-Aksh-BHARATPUR EMITRA PAY POINT RAVIDASPURA GP GANGABAK TEH NAGAR BHARATPUR     9929797614  Active  16-02-2016    0.00 
386 3038 Ramavtar Gurjar 2014-Aksh-BHARATPUR EMITRA PAY POINT GHATA GP PALLA TEH. KAMAN BHARATPUR    9468682522  Active  16-02-2016    4.56 
387 3039 Mohammad Irashad 2014-Aksh-BHARATPUR EMITRA PAY POINT ANGRAWALI GP BILONG TEH. KAMAN BHARATPUR    9828282183  Active  16-02-2016    0.00 
388 3040 Lakhan Singh 2014-Aksh-BHARATPUR EMITRA PAY POINT JURHARI GP PAAI TEH. KAMAN BHARATPUR    9887539321  Active  16-02-2016    0.00 
389 3041 Narayan Singh 2014-Aksh-BHARATPUR Emitra Pay Point Badhipur Gp Satwas Teh. Kaman Bharatpur    7792951767  Active  16-02-2016    9.13 
390 3042 Rajesh Kumar 2014-Aksh-BHARATPUR EMITRA PAY POINT BAJHRA GP SUNHERA TEH. KAMAN BHARATPUR    9927238301  Active  16-02-2016    0.00 
391 3047 Mohammad Javed 2014-Aksh-BHARATPUR FARHAN EMITRA CENTRE MEEL MADARSH SIKRI THE.PAHADI    9672963909  Active  17-02-2016    93  814.00 
392 3058 Bachchu Singh 2014-Aksh-BHARATPUR NEAR GANDHI MANDIR, PANCHYAT SAMITI ROAD  BAYANA, BHARATPUR undefined  9414446200  1460  Active  17-02-2016    41.81  2307.98 
393 3063 Jagdish Kumar 2014-Aksh-BHARATPUR EMITRA PAY POINT BADHRIPUR TEHSIL DEEG BHARATPUR    9694546972  Active  19-02-2016    0.00 
394 3064 Akash Agre 2014-Aksh-BHARATPUR EMITRA PAY POINT SATYAPURA, RUNDH HELAK  KUMHER , BHARATPUR undefined  9782123003  Active  19-02-2016    0.00 
395 3070 Mohammad Salim 2014-Aksh-BHARATPUR EMITRA PAYPOINT PEEPROLI SIKRI NAGHAR Bharatpur     8107165786  Active  23-02-2016    0.00 
396 3071 Ashok Kumar 2014-Aksh-BHARATPUR EMITRA PAY POINT BOOLKHERA KA BASS GP BOOLKHERA TEH. KAMAN     9950292638  Active  23-02-2016    0.00 
397 3082 Vajid Ali 2014-Aksh-BHARATPUR Vill.Dwarakapur Suketi (Suketi) Se Panchayat  Padalwas Block Teh. Nagar Dist. Bharatpur   8107157786  Active  25-02-2016    0.00 
398 3091 Deepak Katara 2014-Aksh-BHARATPUR PRIYA EMITRA CENTRE KATRA MOHALLA KUMHER Bharatpur    8952865050  Active  29-02-2016    12.00 
399 3092 Asloop 2014-Aksh-BHARATPUR EMITRA PAYPOINT NEEMKI GP FATEHPURKALAN TEH. NAGAR Bharatpur     9828675581  Active  29-02-2016    0.00 
400 3110 Hakim Singh 2014-Aksh-BHARATPUR EMITRA PAY POINT AJNOULI GP LAHCHORAKALAN TEH. BAYANA BHARATPUR    7615999265  Active  01-03-2016    9.13 
401 3113 Rahul Kumar 2014-Aksh-BHARATPUR EMITRA PAY POINT KARBAN GP SUHARI TEH. BHUSAWAR BHARATPUR    9694772267  Active  01-03-2016    0.00 
402 3114 Sarpu Khan 2014-Aksh-BHARATPUR EMITRA PAY POINT RAYAPUR SUKETI GP PALKA TEH NAGAR BHARATPUR    8696530760  Active  01-03-2016    0.00 
403 3115 Govind Singh 2014-Aksh-BHARATPUR EMITRA PAY POINT MADANPUR GP DHADREN TEH. BAYANA BHARATPUR    8003062401  Active  01-03-2016    0.00 
404 3117 Rijwan Khan 2014-Aksh-BHARATPUR EMITRA PAY POINT RASULPUR GP KAKRALA TEH. NAGAR BHARATPUR    9982157989  Active  01-03-2016    0.00 
405 3120 Bahadur Singh 2014-Aksh-BHARATPUR Emitra Pay Point Vill Hingota Deeg Bharatpur    9828713071  Active  01-03-2016    3299.00 
406 3152 Naval Singh 2014-Aksh-BHARATPUR VILLAGE - BAJHERA, POST - BACHHAMADI NOH  TEHSIL And DISTRICT - BHARATPUR   8233007554  465  Active  04-03-2016    198.29  552.52 
407 3153 Ravi Kumar 2014-Aksh-BHARATPUR NEAR BSNL TELEPHONE EXCHANGE, KRISHNA NAGAR  BHARATPUR   8058573640  232  Active  04-03-2016    110.22  124.88 
408 3154 Mukesh Chaturvedi 2014-Aksh-BHARATPUR KANJOLI LINE BHARATPUR    9024718864  1194  Active  04-03-2016    .13  1934.24 
409 3155 Lukman Hakeeem 2014-Aksh-BHARATPUR VILL.DAYANAWAS POST KHOHRI TEHSIL NAGAR Bharatpur     9828485035  Active  04-03-2016    918.00 
410 3156 Yadvendra Singh 2014-Aksh-BHARATPUR EMITRA PAY POINT MILKIPURA GP KHAGRI TEH. NADBAI BHARATPUR    7240724818  Active  04-03-2016    0.00 
411 3157 Mukhiya Singh 2014-Aksh-BHARATPUR EMITRA PAY POINT BARABALI GP SONGAWON TEH. DEEG BHARATPUR    9660011940  Active  04-03-2016    400.00 
412 3158 Rajendra Singh 2014-Aksh-BHARATPUR EMITRA PAY POINT GULBANEE GP JAISHREE TEH. NAGAR BHARATPUR    9166177097  Active  04-03-2016    0.00 
413 3192 Mahesh Chand 2014-Aksh-BHARATPUR EMITRA PAYPOINT SANDUGAR GP PEPAL KEHDA TEH. PAHADI BHARATPUR    9983446060  Active  11-03-2016    0.00 
414 3193 Prakash Chand 2014-Aksh-BHARATPUR EMITRA PAY POINT MEHRAMPUR GP RAISHEES TEH. NADBAI BHARATPUR    9694206895  Active  11-03-2016    0.00 
415 3194 Santoshi Lal 2014-Aksh-BHARATPUR Emitra Pay Point UNDRA GP GUSYAARI TEH BHARATPUR    8947064553  Active  11-03-2016    4.56 
416 3195 Narayan Singh 2014-Aksh-BHARATPUR RAJPOOT EMITRA INDRA COLONEY TEHSIL KAMAN Bharatpur     9680813030  259  Active  12-03-2016    26.53  20.24 
417 3196 Amit Kumar 2014-Aksh-BHARATPUR VILL & POST PEEPLA TEH BHARATPUR    8426960798  495  Active  12-03-2016    930  5.17 
418 3197 Jeetendra Kumar 2014-Aksh-BHARATPUR EMITRA PAY POINT JOGIPURA GP BAROLIRAAN TEH. NADBAI BHARATPUR    9694471104  Active  14-03-2016    0.00 
419 3198 Sagar Kirad 2014-Aksh-BHARATPUR EMITRA PAY POINT UNEAR GP ECHARA TEH. NADBAI BHARATPUR    8058300769  Active  14-03-2016    0.00 
420 3199 Sonu Rawat 2014-Aksh-BHARATPUR EMITRA PAY POINT SIKRORA GP SIKRORI TEH. KUMHER BHARATPUR    9785171759  Active  14-03-2016    0.00 
421 3200 Prakash Chand 2014-Aksh-BHARATPUR EMITRA PAY POINT JAHRLA GP BALABGARD TEH. WEIR BHARATPUR    9784958550  Active  14-03-2016    0.00 
422 3201 Sanjay Singh 2014-Aksh-BHARATPUR EMITRA PAY POINT LULHAARO GP PAHERSAR THE. NADBAI BHARATPUR    9413301358  Active  14-03-2016    0.00 
423 3202 Anil Singh 2014-Aksh-BHARATPUR EMITRA PAY POINT UDPURI GP SAADPURI TEH. NAGAR BHARATPUR    8440082546  Active  14-03-2016    0.00 
424 3203 Rinku Singh 2014-Aksh-BHARATPUR EMITRA PAY POINT VILLAGE - DIDWARI, Gram Panchayat -  TALPHARA TEHSIL - NAGAR  BHARATPUR  7690045154  Active  14-03-2016    0.00 
425 3204 Hargovind Singh 2014-Aksh-BHARATPUR Emitra Pay Point Village - Bailara, Gram Panchayat - Kedi Devi Singh  Tehsil - Nadbai, Bharatpur undefined  9785338413  Active  14-03-2016    4.56 
426 3205 Hemu Rawat 2014-Aksh-BHARATPUR EMITRA PAY POINT SITARA GP PALA TEH. KUMHER BHARATPUR    9983022353  Active  15-03-2016    0.00 
427 3206 Vijendra Singh 2014-Aksh-BHARATPUR Vill.-Higota Deeg Bharatpur Rajasthan     9928225945  Active  15-03-2016    777.00 
428 3230 Rajesh Kumar 2014-Aksh-BHARATPUR RAJESH EMITRA CENTRE VIIL. &POST SUNHERA TH. KAMAN Bharatpur     9521192113  1895  Active  22-03-2016    50.20 
429 3231 Bansal Emitra Centre 2014-Aksh-BHARATPUR BANSAL EMITRA CENTER OPPOSITE STADIUM JASWANT NAGAR BHARATPUR    9414716464  Active  22-03-2016    0.00 
430 3232 Raj Kumar 2014-Aksh-BHARATPUR Vill. Sanwler Teh Pahari Dist Bharatpur    9610072407  Active  22-03-2016    0.00 
431 3233 Shiv Kumar 2014-Aksh-BHARATPUR Bapu Bazar Nagar Bharatpur    9414610952  265  Active  22-03-2016    3460.81 
432 3241 Vijay Pal Singh 2014-Aksh-BHARATPUR EMITRA PAY POINT KEALURI GP RONIJA TEH. NADBAI BHARATPUR    9982130413  Active  22-03-2016    0.00 
433 3242 Shaheed 2014-Aksh-BHARATPUR EMITRA PAY POINT MOOTHUKA GP DIMARI TEH. PHADHI BHARATPUR    9783873062  Active  22-03-2016    0.00 
434 3243 Khaimi Singh 2014-Aksh-BHARATPUR EMITRA PAY POINT GADOLI GP RONIJA TEH. NADBAI BHARATPUR    9950742125  Active  22-03-2016    0.00 
435 3263 Saurabh Kumar 2014-Aksh-BHARATPUR Vpo Jatmasi Tehsil Rupwas Bharatpur    9694854784  Active  29-03-2016    0.00 
436 3303 Vishnu Kumar 2014-Aksh-BHARATPUR SAMOGAR TEHSIL BAYANA BHARATPUR    8386879606  Active  11-04-2016    90.00 
437 3348 Usaman 2014-Aksh-BHARATPUR Emitra Pay Point Targama, Gram Panchayat - Ghatri Weir  Bharatpur, Rajasthan undefined  9785563535  Active  14-04-2016    0.00 
438 3349 Haricharan Singh 2014-Aksh-BHARATPUR Emitra Pay Point Village Dhanipura, Gram Panchayat - Nayavas Nadbai  Bharatpur, Rajasthan undefined  7665178638  Active  14-04-2016    0.00 
439 3350 Govind Sharan 2014-Aksh-BHARATPUR Bhetana Gram Panchayat - Kuchawati Deeg, Bharatpur  Rajasthan   8290540930  Active  14-04-2016    0.00 
440 3351 Narayan Singh 2014-Aksh-BHARATPUR EMITRA PAY POINT JHARKAI GP BHOUSINGATEH NADBAI BHARATPUR    8441957123  Active  14-04-2016    0.00 
441 3352 Faiji Khan 2014-Aksh-BHARATPUR EMITRA PAYPOINT CHANDUKADA NAGAR BHARATPUR     8107174788  Active  14-04-2016    0.00 
442 3353 Ramfal 2014-Aksh-BHARATPUR NAGLA KHATKA BAYANA, BHARATPUR  RAJASTHAN   8741004024  Active  14-04-2016    0.00 
443 3354 Sanju Kumar 2014-Aksh-BHARATPUR CHHKAJI BARPURA GP AGAHAPUR TEH BHARATPUR    9571924821  Active  14-04-2016    0.00 
444 3355 Jagannath Sharma 2014-Aksh-BHARATPUR EMITRA PAY POINT KHOHARI DEEG, BHARATPUR  RAJASTHAN   9782074037  Active  14-04-2016    0.00 
445 3356 Chandra Prakash 2014-Aksh-BHARATPUR EMITRA PAY POINT CHAK CHEALUA GRAM  PANCHAYAT- FATEHPUR KALAN NAGAR, BHARATPUR   9667805875  Active  14-04-2016    0.00 
446 3357 Vinay Garg 2014-Aksh-BHARATPUR EMITRA PAY POINT ATARIPURA (PAY POINT) GRAM PANCHAYAT- BAROLI, WEIR  BHARATPUR,RAJASTHAN undefined  8441086608  Active  14-04-2016    0.00 
447 3418 Junaid Khan 2014-Aksh-BHARATPUR Emitra Pay Point Village - Khohra, Gram  Panchayat - Olanda Kaman. Bharatpur   9983855001  Active  27-04-2016    0.00 
448 3421 Pankaj Kumar 2014-Aksh-BHARATPUR JANGID E-MITRA CENTRE V-P LAITA MUDIA TEH. WEIR BHARATPUR    9549662601  Active  27-04-2016    0.00 
449 3422 Girdhari Lal 2014-Aksh-BHARATPUR EMITRA PAY POINT BADHAKA GP ALAMSHA TEH. NAGAR BHARATPUR    9024997554  Active  27-04-2016    0.00 
450 814 Aqeela Parveen 2014-Comtech Institute of Technology-Bharatpur In Front of New  Tehsil Kaman Bharatpur  9001892350  97  Active  26-08-2014    2.21  8164.77 
451 840 Amarjeet Singh 2014-Comtech Institute of Technology-Bharatpur V+P Sahasan  Tehsil - Pahari Disst. - Bharatpur  8503801959  Active  03-09-2014    1153.61  1215.00 
452 867 Sanjay Singh 2014-Comtech Institute of Technology-Bharatpur INFRONT OF STADIUM, JASWANT     9660718564  442  Active  15-09-2014    9.83  18847.71 
453 868 Nobat Singh 2014-Comtech Institute of Technology-Bharatpur Nobat E - Mitra Center Ibrahimpur Roopwas Bharatpur  9694407982  10  Active  15-09-2014    1290.57  389.00 
454 960 DEEPAK KUMAR 2014-Comtech Institute of Technology-Bharatpur Village-RUPBAS BLOCK -RUPBAS DIS- BHARATPUR  9549786858  1483  Active  08-10-2014    .21  40861.38 
455 990 Amit Kumar 2014-Comtech Institute of Technology-Bharatpur PNB Ke Pass Kumher Bharatpur  9784592620  931  Active  14-10-2014    124.9  10.45 
456 1053 Yogesh Kumar 2014-Comtech Institute of Technology-Bharatpur KALYAN MOHALLA WORD NO.15 KAMAN BHARTAPUR    9875114960  15  Active  21-11-2014    .48  328.61 
457 1067 Shiv Kuamr 2014-Comtech Institute of Technology-Bharatpur SHARMA COMPUTERS NEAR GEETA MANDIR, PAI BAGH BHARATPUR (RAJ.)  9530033717  Active  26-11-2014    .69  195.62 
458 1069 Ram Niwas Saini 2014-Comtech Institute of Technology-Bharatpur NEAR GOVT. HOSPITAL, BHUWASAR  DISTT- BHARATPUR   9587082198  47  Active  26-11-2014    .7  8839.45 
459 1108 Ravi Kumar Holker 2014-Comtech Institute of Technology-Bharatpur VILL-BORAI,TEHSIL-KUMHER DISTRICT-BHARATPUR   8952827211  2522  Active  10-12-2014    2095.83  11739.02 
460 1117 Rohit Sharma 2014-Comtech Institute of Technology-Bharatpur A - 270 Jawahar Nagar Bharatpur   9828844867  2948  Active  15-12-2014    .15  439.84 
461 1119 Jeetendra singh Dagur 2014-Comtech Institute of Technology-Bharatpur Vill -Purabai khera The - Bayana Dist - Bharatpur  9928690092  581  Active  15-12-2014    8479.83  15697.48 
462 1123 Jeetu Goyal 2014-Comtech Institute of Technology-Bharatpur NAGAR ROAD, KOTWALI K SAMNE  DEEG, DISTT- BHARATPUR undefined  05641224021  53  Active  17-12-2014    9.74  41.07 
463 1237 Vishambar 2014-Comtech Institute of Technology-Bharatpur VILLAGE.POST.KHANUA TH.RUPBAS DIST.BHARTAPUR    9887622305  47  Active  29-12-2014    179.85  12863.18 
464 1457 Samim Khan 2014-Comtech Institute of Technology-Bharatpur Seekri Chak No. 1 Sikri Nagar Bharatpur    9929337831  1265  Active  14-03-2015    3584.84  18943.76 
465 1484 Mukesh Chand 2014-Comtech Institute of Technology-Bharatpur Atal Seva Kendra Khemra Kalan    9694775375  218  Active  23-03-2015    742.73  410.70 
466 1514 Mohan Singh 2014-Comtech Institute of Technology-Bharatpur CHHONKAWADA BHUSWAR BHARATPUR    8385834352  67  Active  25-03-2015    145.38  7776.13 
467 1515 Sonu Ram Saini 2014-Comtech Institute of Technology-Bharatpur OLD SABZI MANDI BHUSAWARBHARATPUR    9785004950  258  Active  25-03-2015    1850.12  4725.69 
468 1801 Akash Parewa 2014-Comtech Institute of Technology-Bharatpur Infront Of R.K Marbels Behind Pawan Auto Parts Bharatpur    8440901849  62  Active  06-04-2015    5.33  601.27 
469 1817 Ankit Kuntal 2014-Comtech Institute of Technology-Bharatpur G.P Talphara Tehsil Kumher Bharatpur    9785717239  Active  08-04-2015    9.31  16607.29 
470 1851 Shokeen 2014-Comtech Institute of Technology-Bharatpur ATAL SEWA KENDRA , BAMANWARI, PAHADI BHARATPUR   BHARATPUR  7877919161  1004  Active  14-04-2015    1.45  9295.31 
471 1852 Ved Prakash 2014-Comtech Institute of Technology-Bharatpur G.P. PHULWARA, SEWAR  BHARATPUR   9982594077  268  Active  14-04-2015    1.46  208.25 
472 1853 Omprakash 2014-Comtech Institute of Technology-Bharatpur V&P MAI, NADBAI  BHARATPUR   9001126308  1537  Active  14-04-2015    3240.03  9281.89 
473 1855 Yogesh Kumar 2014-Comtech Institute of Technology-Bharatpur V&P IBRAHIMPUR, ROOPBAS  BHARATPUR   8058990788  35  Active  14-04-2015    1417.45  2419.69 
474 1963 Chhitar 2014-Comtech Institute of Technology-Bharatpur V&P MAI, NADBAI  BHARATPUR   9636674391  Active  20-04-2015    9.92  13360.31 
475 2170 Hakmu 2014-Comtech Institute of Technology-Bharatpur ATAL SEVA KENDRA, DHAULET  PAHARI, BHARATPUR undefined  9694786724  Active  26-05-2015    37.75  34105.73 
476 2452 Tej Singh 2014-Comtech Institute of Technology-Bharatpur BARAULI RAN, NADBAI  BHARATPUR   9929996128  870  Active  24-08-2015    167.33  77.53 
477 2493 Bhagat Singh 2014-Comtech Institute of Technology-Bharatpur PAWAN KUNJ COLONY, KAMAN  BHARATPUR   9571816262  140  Active  31-08-2015    976.62  108.25 
478 2494 Dayachand 2014-Comtech Institute of Technology-Bharatpur INDROLI, CHHICHHARWADI  KAMAN, BHARATPUR undefined  8058248257  880  Active  31-08-2015    3569.7  2860.00 
479 2566 Geetam Singh 2014-Comtech Institute of Technology-Bharatpur ROOPWAS, MILSVA  KHERIYA BILLOCH   9001115145  93  Active  08-10-2015    4881.87  11097.66 
480 2609 Sunil Kumar 2014-Comtech Institute of Technology-Bharatpur B-NARAYAN GATE DHOBI MOHALLA BHARATPUR    8946908790  422  Active  30-10-2015    423.82  1457.79 
481 2610 Bharat Saini 2014-Comtech Institute of Technology-Bharatpur PURANA BUY PASS ROAD NAGAR BHARATPUR    8562010240  2459  Active  30-10-2015    197.77  898.25 
482 2611 Dashrath 2014-Comtech Institute of Technology-Bharatpur RUDABAL ROAD JUHGLA PATTI,UCHCHAIN  RUPBAS BHARATPUR    8504085436  55  Active  30-10-2015    9.41  2569.20 
483 2629 Gulshan Singal 2014-Comtech Institute of Technology-Bharatpur B.NARAYAN GATE,ATAL BANDH ROAD BHARATPUR   7791033074  83  Active  05-11-2015    36.24  408.12 
484 2630 Hitesh Kumar 2014-Comtech Institute of Technology-Bharatpur WARD NO. 19, SONPURA TILAK NAGAR BHARATPUR   9587827377  292  Active  05-11-2015    .87  4385.59 
485 2631 Tulsi Das 2014-Comtech Institute of Technology-Bharatpur PANDURI,CHENKARA RUPWAS,BHARATPUR undefined  9166693895  Active  05-11-2015    252  258.00 
486 2632 Prem Chand Saini 2014-Comtech Institute of Technology-Bharatpur KANJALI LINE DEEG ROAD BHARATPUR    9680883288  3868  Active  05-11-2015    39.3  8679.44 
487 2641 Yunus Khan 2014-Comtech Institute of Technology-Bharatpur VPO-BHATPUR,TECH-NAGAR BHARATPUR   7073793419  1430  Active  10-11-2015    3801.94  5615.00 
488 2652 Vikas Agarwal 2014-Comtech Institute of Technology-Bharatpur NEAR GANDHI PARK, PAL BAGH  BHARATPUR   8441982575  276  Active  24-11-2015    .45  2903.48 
489 2655 Madhvendra Kumar 2014-Comtech Institute of Technology-Bharatpur BEHIND OLD LAXMAN MANDIR, BHARATPUR    7610921914  108  Active  24-11-2015    320.21  61.91 
490 2716 Gokulesh Katara 2014-Comtech Institute of Technology-Bharatpur SUBHASH NAGAR NEAR ADITI CLINIC, GOLPURA ROAD BHARATPUR    7740818852  349  Active  08-12-2015    323.1  54.92 
491 2741 Mazzal Khan 2014-Comtech Institute of Technology-Bharatpur VILL- JATWAS, UDKI DALLA  NAGAR, BHARATPUR undefined  9672281484  1917  Active  14-12-2015    11.43  8383.43 
492 2743 Indrajeet Singh 2014-Comtech Institute of Technology-Bharatpur Santruk Kumher Bharatpur    9785615761  Active  14-12-2015    60.02  367.39 
493 2767 Laxman Singh 2014-Comtech Institute of Technology-Bharatpur AGRASEN SCHOOL KE PASS, SUBHASH NAGAR   BHARATPUR   8058202702  6246  Active  04-01-2016    770.69  171.09 
494 2768 Gulab Singh 2014-Comtech Institute of Technology-Bharatpur GP- GULPADA, BLOCK- NAGARR  BHARATPUR   8741081160  437  Active  04-01-2016    3631.07  4568.33 
495 2793 Anil Kumar 2014-Comtech Institute of Technology-Bharatpur WARD NO- 13, NEAR SOLANKI HOSPITAL  BHARATPUR   8503940935  171  Active  06-01-2016    10.13  0.00 
496 2795 Teerath Raj 2014-Comtech Institute of Technology-Bharatpur SALPURPATHI , SIKARI NAGAR, BHARATPUR undefined  9549083991  190  Active  06-01-2016    370.79  1260.25 
497 2796 Umesh Chand Saini 2014-Comtech Institute of Technology-Bharatpur VILL- NAYAMADPUR, POST- DHARSONI  WEIR , BHARATPUR undefined  9571805384  Active  06-01-2016    1106.75  1878.17 
498 2797 Hitesh Goyal 2014-Comtech Institute of Technology-Bharatpur SUB TEHSIL OFFICE PARAH, BHARATPUR    7891307585  155  Active  06-01-2016    183.78  955.58 
499 2798 Jeetesh Kumar 2014-Comtech Institute of Technology-Bharatpur VPO- KHARERA, UCHAIN   ROOPWAS, BHARATPUR undefined  9887546526  878  Active  06-01-2016    342.15  436.97 
500 2799 Sanjay Singh Yadav 2014-Comtech Institute of Technology-Bharatpur VILL- GULPADA, NAGAR  BHARATPUR   9928795656  1126  Active  06-01-2016    .7  1129.56 
501 2800 Harvendra Kumar 2014-Comtech Institute of Technology-Bharatpur Atal Sewa Kendra, Gram Pachayat Dumariya Tehsil Roopwas, Bharatpur   9983939425  760  Active  06-01-2016    1235.35  1837.27 
502 2801 Munfaid Khan 2014-Comtech Institute of Technology-Bharatpur JUMMA BANAINI DHONLKA, PADALWAS  TEH-NAGAR, BHARATPUR undefined  9610567110  849  Active  06-01-2016    .25  643.39 
503 2802 Vishnu Kumar 2014-Comtech Institute of Technology-Bharatpur GP- SOUMKA, TEH- KAMAN  BHARATPUR   9672439280  Active  06-01-2016    181.5  2045.00 
504 2803 Shailendra Singh 2014-Comtech Institute of Technology-Bharatpur NEAR BUS STAND, SUBHASH NAGAR  BHARATPUR   8947070110  484  Active  06-01-2016    12.21  0.00 
505 2804 Parshottam 2014-Comtech Institute of Technology-Bharatpur KANWARA , TEHSIL- KAMAN  BHARATPUR   8740976447  375  Active  06-01-2016    1784.61  82.14 
506 2805 Sirajuddin 2014-Comtech Institute of Technology-Bharatpur ATAL SEWA KENDRA SOMKA, KAMAN  BHARATPUR   8696614061  10  Active  06-01-2016    20.79  633.00 
507 2807 Gordhan Prasad 2014-Comtech Institute of Technology-Bharatpur VILL- SIRROND, RUPWAS  BHARATPUR   7726854458  Active  06-01-2016    0.00 
508 2808 Ravindra Singh 2014-Comtech Institute of Technology-Bharatpur NEAR KANNI GURJAR CIRCLE, BHARATPUR    9928902445  2645  Active  06-01-2016    536.43  327.04 
509 2860 Uttamchand Sharma 2014-Comtech Institute of Technology-Bharatpur ATAL SEVA KENDRA PAR, SEWAR  BHARATPUR   9828356142  77  Active  19-01-2016    378.92  819.23 
510 2861 Devendra Sharma 2014-Comtech Institute of Technology-Bharatpur ATAL SEVA KENDRA PINGORA, NADBAI  BHARATPUR   8739826723  1007  Active  19-01-2016    842.37  316.48 
511 2868 Veerendra Kumar 2014-Comtech Institute of Technology-Bharatpur BYANA ROAD JARILA, BHAWANPURA  ROOPBAS, BHARATPUR undefined  9772300192  Active  25-01-2016    0.00 
512 2869 Omprakash 2014-Comtech Institute of Technology-Bharatpur EMITRA PAY POINT NAGLA MAI, GP- MAI  NADMAI, BHARATPUR undefined  9001126308  Active  25-01-2016    75.36  0.55 
513 2875 Bajib 2014-Comtech Institute of Technology-Bharatpur VILL DUNAWAL, NAGAR   BHARATPUR   9057977653  Active  28-01-2016    .75  0.00 
514 2876 Lavesh Mudgal 2014-Comtech Institute of Technology-Bharatpur SHARMA EMITRA KENDRA, KHEDIYA MODE  NADBAI, BHARATPUR undefined  7737303119  75  Active  28-01-2016    6.33  447.29 
515 2877 Rajveer Singh 2014-Comtech Institute of Technology-Bharatpur NET WEB SOFT EMITRA CENTER, NEAR SARAS HOTEL  VIJAYNAGAR, BHARATPUR undefined  8233196869  38  Active  28-01-2016    39.98  0.27 
516 2878 Balram Singh 2014-Comtech Institute of Technology-Bharatpur BAJRANG ROJGAR CENTER, BACHHAMADI  SEWAR, BHARATPUR undefined  9549959201  105  Active  28-01-2016    41.42  0.00 
517 2880 Mubeen Khan 2014-Comtech Institute of Technology-Bharatpur ATAL SEVA KENDRA PAPRA, TEH- PAHARI  BHARATPUR   9887345240  Active  28-01-2016    1882.5  2083.00 
518 2881 Vivek Kumar 2014-Comtech Institute of Technology-Bharatpur ATAL SEVA KANDRA DAHINA GAUV,ROOPBAS BHARATPUR   8058329140  387  Active  28-01-2016    38.53  38.00 
519 2882 Pramod Yadav 2014-Comtech Institute of Technology-Bharatpur ATAL SEWA KENDRA JHAROLI, SEWAR  BHARATPUR   8432182838  Active  28-01-2016    217.5  363.98 
520 2895 Shokeen 2014-Comtech Institute of Technology-Bharatpur E-MITRA PAY POINT KUKARPURI GP:BAMANWARI PANCHYAT SAMITI:-PAHADI, BHARATPUR    7877919161  Active  30-01-2016    5.9  9.13 
521 2902 Anil Kumar 2014-Comtech Institute of Technology-Bharatpur NEAR BUS STAND PAHARI,BHARATPUR    9509274849  460  Active  02-02-2016    544.56  2355.95 
522 2904 Pramod Kumar 2014-Comtech Institute of Technology-Bharatpur VPO EAWARA KUMHER,BHARATPUR    9667429101  Active  02-02-2016    104.00 
523 2905 Satyendra Singh 2014-Comtech Institute of Technology-Bharatpur VILL-MUDHERA,BHARATPUR    9460925072  1092  Active  02-02-2016    .19  1014.70 
524 2936 Jitendra Kumar 2014-Comtech Institute of Technology-Bharatpur E-MITRA PAY POINT JURHARIGP:PAI, KAMAN BHARATPUR    8440810723  Active  04-02-2016    18.25 
525 2985 Susheela Devi 2014-Comtech Institute of Technology-Bharatpur E-MITRA PAY POINT BIRAR GP:SABLANA KAMAN BHARATPUR    9680135253  Active  09-02-2016    13.69 
526 3005 Robin Kumar 2014-Comtech Institute of Technology-Bharatpur ROBIN EMITRA CENTER, NEAR BUS STAND  KHUMHER, BHARATPUR undefined  7691804811  21  Active  11-02-2016    3.4  63.73 
527 3008 Dharm Singh 2014-Comtech Institute of Technology-Bharatpur CHHOTE RAM JI MANDIR, HIGH SCHOOL KE PASS  KAMAN, BHARATPUR undefined  9549914172  1950  Active  12-02-2016    23.58  0.00 
528 3010 Bhola Ram 2014-Comtech Institute of Technology-Bharatpur NIKKI COMPUTERS & EMITRA CENTER NAJDEEKI PETROL PUMP KE SAMNE, PAHARI  BHARATPUR   9529825570  Active  12-02-2016    165.75  608.00 
529 3011 Tej Singh Yadav 2014-Comtech Institute of Technology-Bharatpur GP-BERRU,TEH-NAGAR BHARATPUR   9772676379  Active  12-02-2016    326.25  168.27 
530 3012 Abhay Singh Chaudhary 2014-Comtech Institute of Technology-Bharatpur ATAL SEVA KENDRA , WEIR  BHARATPUR   9929452588  Active  12-02-2016    180  0.00 
531 3013 Monu Kumar 2014-Comtech Institute of Technology-Bharatpur ATAL SEWA KENDRA KHEDI DEVI SINGH, NADBAI  BHARATPUR   8386840056  189  Active  12-02-2016    13.02  0.00 
532 3014 Manoj Kumar Yadav 2014-Comtech Institute of Technology-Bharatpur ATAL SEWA KENDRA, BERRO  BHARATPUR   9828741131  1591  Active  12-02-2016    .01  109.23 
533 3049 Santosh Kumar 2014-Comtech Institute of Technology-Bharatpur VPO- KHAKHAWALI, NAGAR  BHARATPUR   9828622644  Active  17-02-2016    0.00 
534 3050 Kumarpal 2014-Comtech Institute of Technology-Bharatpur VPO- BARAHI, DEEG  BHARATPUR   9887691796  250  Active  17-02-2016    209.6  205.85 
535 3051 Neha Jain 2014-Comtech Institute of Technology-Bharatpur INDRA CHOWK KUMHER,TEH-KUMHER BHARATPUR   9460877077  1237  Active  17-02-2016    .78  974.53 
536 3052 Bhagat Singh 2014-Comtech Institute of Technology-Bharatpur SONKH ROAD, KUMHER  BHARATPUR   9414483985  Active  17-02-2016    0.00 
537 3072 Ramgopal Singh 2014-Comtech Institute of Technology-Bharatpur E-MITRA PAY POINT KARUA GP:TAMRER, KUMHER BHARATPUR    8426919293  Active  23-02-2016    129.00 
538 3096 Zakir Husain 2014-Comtech Institute of Technology-Bharatpur EMITRA PAY POINT RANIYALA,GP-JAISHREE PS-NAGAR,BHARATPUR undefined  9772307016  Active  29-02-2016    0.00 
539 3097 Rajender Kumar 2014-Comtech Institute of Technology-Bharatpur SHIVAM STUDIO , SAHYOG NAGAR  BHARATPUR   9785613357  1397  Active  29-02-2016    29.02  622.13 
540 3111 Sajid Khan 2014-Comtech Institute of Technology-Bharatpur VILL- BILOND, KAMAN   BHARATPUR   7691828384  Active  01-03-2016    0.00 
541 3143 Nagendra Singh 2014-Comtech Institute of Technology-Bharatpur Heeradas Central Bus Stand Ke Samne, Khadi Bhandar Ki Bagal Main  Bharatpur   9166862393  1515  Active  03-03-2016    .58  587.23 
542 3144 Tahir Mohammad 2014-Comtech Institute of Technology-Bharatpur ATAL SEVA KENDRA LADAMKA, PS- PAHARI  BHARATPUR   9828554381  Active  03-03-2016    0.00 
543 3160 Harish Khan 2014-Comtech Institute of Technology-Bharatpur Village ,Bhori Bhartpur    9996395786  Active  09-03-2016    0.00 
544 3161 Imran 2014-Comtech Institute of Technology-Bharatpur VILL-SIKRI,PS-NAGAR BHARATPUR   7732861901  Active  09-03-2016    0.00 
545 3162 Lokesh Mahavar 2014-Comtech Institute of Technology-Bharatpur UCHAIN,RUPBAS BHARATPUR   9950324410  Active  09-03-2016    0.00 
546 3284 Sirajuddin 2014-Comtech Institute of Technology-Bharatpur VILL-DHANA,GP-SOMKA TEH-PAHARI,BHARATPUR undefined  8696614061  Active  01-04-2016    0.00 
547 3285 Mustufa 2014-Comtech Institute of Technology-Bharatpur EMITRA PAY POINT KHERIL NANOO,GP-GHOSEENGA PS-PAHAI,BHARATPUR undefined  8058532828  Active  01-04-2016    0.00 
548 3360 Saurabh Kumar 2014-Comtech Institute of Technology-Bharatpur NEAR BAGARWALA SHOWROOM,OLD LAXMAN MANDIR BHARATPUR   8058577992  3840  Active  14-04-2016    36.51 
549 3361 Deepak Mishra 2014-Comtech Institute of Technology-Bharatpur R.D. GIRLS COLLEGE, NEAR GAYATRI TEMPLE  KILA, BHARATPUR undefined  8386803247  Active  14-04-2016    0.00 
550 3362 Yogesh Kumar 2014-Comtech Institute of Technology-Bharatpur V&P-KURKA,TEH-ROOPBAS BHARATPUR   9982768963  Active  14-04-2016    0.00 
551 3363 Sintoo Singh 2014-Comtech Institute of Technology-Bharatpur V&P-MADHONI,BLOCK-SEWAR BHARATPUR   8875557735  Active  14-04-2016    0.00 
552 3393 Satyapal Harsainia 2014-Comtech Institute of Technology-Bharatpur TODAY INFORMATICS CENTER, INDRA NAGAR  HEERADAS, BHARATPUR undefined  7597412603  Active  21-04-2016    0.00 
553 1434 Pushpendra Kumar 2014-CMS eMitra-Bharatpur Main Kachari Road Bayana Dis. Bharatpur    05648-225122  653  Active  02-03-2015    5063.42  19387.62 
554 1435 Yashwant Yadav 2014-CMS eMitra-Bharatpur GARM BISDA POST JHAROLI SEWAR BHARATPUR    8432182838  14  Active  02-03-2015    499.67  20212.37 
555 1511 Mahesh Chand 2014-CMS eMitra-Bharatpur Gram Sendhli Weir Bharatpur    9887091919  Active  25-03-2015    6.95  7325.87 
556 1512 Bhagwan Singh 2014-CMS eMitra-Bharatpur Gram Itamda Bhusawar Bharatpur    9887847501  3610  Active  25-03-2015    13866.07  20525.98 
557 2134 Naresh Chand Gupta 2014-CMS eMitra-Bharatpur KAKAJI MARKET KE PASS CHOUBURJA BAZAR BHARATPUR    9413650001  5912  Active  14-05-2015    25.05  1741.15 
558 2221 Indar Singh 2014-CMS eMitra-Bharatpur GRAM-GIVINDPURA POST-MUHARI WEIR BHARATPUR    05643272582  2719  Active  29-05-2015    3.35  5959.43 
559 2223 Jitendra Prakash 2014-CMS eMitra-Bharatpur Jawahar Nagar Bharatpur     8829839877  89  Active  29-05-2015    12.33  783.34 
560 2481 Govind Singh 2014-CMS eMitra-Bharatpur BAGHEL PHOTO STATE,HELAK CHORAHA  SAVER, BHARATPUR undefined  9785139859  1625  Active  28-08-2015    43.33  5033.53 
561 2592 Prabhu Dayal 2014-CMS eMitra-Bharatpur GRAM PANHORI TEH. DEEG BHARATPUR    9785622773  Active  19-10-2015    5744.25  3414.00 
562 2634 Manoj Kumar Katara 2014-CMS eMitra-Bharatpur Ganpati Market Anah Gate Bharatpur Raj.    9461462215  23  Active  06-11-2015    1298.3  1782.78 
563 3057 Rajkumar 2014-CMS eMitra-Bharatpur Umra,Au.Deeg Bharatpur   9982240193  Active  17-02-2016    0.00 
564 3374 Vishal 2014-CMS eMitra-Bharatpur Vishal Emitra Center Binarayan Gate Bharatpur    8502879450  Active  18-04-2016    0.00 
565 3375 Shiv Prasad 2014-CMS eMitra-Bharatpur Emitra Center Kumher Bharatpur    8696014571  Active  18-04-2016    0.00 
566 3429 Suresh Chand 2014-CMS eMitra-Bharatpur Emitra Pay PointGram Arauda Hantra Nadbai Bharatpur    9057778495  Active  29-04-2016    0.00 
567 3430 Pooran Singh 2014-CMS eMitra-Bharatpur Emitra Pay PointGram Sadhpura Purwai Kheda Bayana Bharatpur    7690951414  Active  29-04-2016    0.00 
568 3431 Ramveer Singh 2014-CMS eMitra-Bharatpur Emitra Pay PointGram Thikariya Brodha Bayana Bharatpur    8696546769  Active  29-04-2016    0.00 
569 3432 Jawahar Singh 2014-CMS eMitra-Bharatpur Emitra Pay PointGram Bhootka Muriya Nagar Bharatpur    9929816348  Active  29-04-2016    0.00 
570 3433 Sunil Kumar 2014-CMS eMitra-Bharatpur Emitra Pay PointGram Sasaina Weir Bharatpur    8094505869  Active  29-04-2016    0.00 
571 3434 Anju Kumar 2014-CMS eMitra-Bharatpur Emitra Pay Point Gram Dharsoni Weir Bharatpur    9460649964  Active  29-04-2016    0.00 
572 3435 Rajendra Singh 2014-CMS eMitra-Bharatpur Vill. Moraka, Teh. Nagar  Bharatpur   9001922197  Active  29-04-2016    0.00 
573 3436 Meghraj 2014-CMS eMitra-Bharatpur Emitra Pay PointGram Kurkain Aalamshah Nagar Bharatpur    8058912838  Active  29-04-2016    0.00 
574 3437 Lakhan Singh 2014-CMS eMitra-Bharatpur Emitra Pay PointGram Khanpur Jarothi Weir Bharatpur    9549126940  Active  29-04-2016    0.00 
575 3438 Pankaj Kumar Verma 2014-CMS eMitra-Bharatpur Emitra Pay PointGram+Post Bachhren Wair Bharatpur    8441809880  Active  29-04-2016    0.00 
576 3439 Pankaj Kumar Verma 2014-CMS eMitra-Bharatpur Emitra Pay PointGram+Post Bachhren Wair Bharatpur    8441809880  Active  29-04-2016    0.00 
577 3440 Arif Khan 2014-CMS eMitra-Bharatpur Emitra Pay PointGram Arsi Nagar Bharatpur    9672204915  Active  29-04-2016    0.00 
578 833 pradlad shing 2014-Vakrangee-Bharatpur jaya usrani kumher bharatpur   9667039751  173  Active  02-09-2014    1911.71  694.81 
579 834 moti ram 2014-Vakrangee-Bharatpur khan khera dist:- bharatpur   8890214708  243  Active  02-09-2014    1037.15  51769.58 
580 836 pushp lata 2014-Vakrangee-Bharatpur vpo-jharonti block-weit bharatpur  9414681595  872  Active  02-09-2014    104.97  5939.47 
581 837 Shyambeer Chauhan 2014-Vakrangee-Bharatpur vpo-kharera block:-rupbas bharatpur  9414975080  13  Active  02-09-2014    341.87  5959.83 
582 838 radhe shyam 2014-Vakrangee-Bharatpur singhara block bayana bharatpur  9887368316  524  Active  02-09-2014    9.16  3829.10 
583 839 Pramod Kumar 2014-Vakrangee-Bharatpur VPO - Siras BLOCK - Weirs Dist - Bharatpur  9887223330  192  Active  03-09-2014    21.06  14509.57 
584 844 Raj kumar 2014-Vakrangee-Bharatpur VPO - Reethauthi Block - Kunher Dist - Bharatpur  9783924366  158  Active  03-09-2014    1612.16  1014.25 
585 848 Ravindra Kumar Meena 2014-Vakrangee-Bharatpur VPO- Chaintoli, Block - Weir Dist. - Bharatpur  9468666284  1115  Active  04-09-2014    5027.61  4111.45 
586 849 Ashok Lawaniya 2014-Vakrangee-Bharatpur VPO- Halena,  Block - Weir Dist. - Bharatpur  9414903955  1798  Active  04-09-2014    13.17  6087.12 
587 851 Vipin Kumar 2014-Vakrangee-Bharatpur sikandara Block - Bayana Disst. - Bharatpur  8094283058  167  Active  04-09-2014    22.36  8497.28 
588 852 Raju Singh 2014-Vakrangee-Bharatpur Takha, G/P - Ta Kha  block - Kumher Disst. - Bharatpur  9694341720  1074  Active  04-09-2014    5053.44  4808.18 
589 853 Lokesh Kumar 2014-Vakrangee-Bharatpur Kot  Bayana Bharatpur  9799320408  10  Active  04-09-2014    1489.6  2705.17 
590 854 Prathveeraj 2014-Vakrangee-Bharatpur Baroda Ayana Disst. - Bhartpur  8003686804  1503  Active  04-09-2014    .63  11722.35 
591 903 Gaurav Kumar 2014-Vakrangee-Bharatpur VPO- Khandewla Block - Nagar Dist. - Bharatpur  9461080611  Active  17-09-2014    16530.89  16940.23 
592 904 Haripal 2014-Vakrangee-Bharatpur Ward No. 13  Naharganj mohalla Kumher Bharatpur  9460659190  923  Active  17-09-2014    .65  159.72 
593 905 Naresh Kumar Sharma 2014-Vakrangee-Bharatpur Gangora, Nagar Bharatpur  8094577032  11631  Active  17-09-2014    2871.48  34449.22 
594 906 Rajesh Kumar 2014-Vakrangee-Bharatpur Nagla Heeradas, Opp Numaish Ground Bharatpur  9309314407  1519  Active  17-09-2014    .79  6216.87 
595 922 PRADEEP SINGH 2014-Vakrangee-Bharatpur Ward no 16 Neeraj Mishthan Bhandhar Ke Pichhe Kumher Bhartpur   9166545061  1676  Active  19-09-2014    .9  7449.44 
596 925 Poonam Chand Saini 2014-Vakrangee-Bharatpur Barauli  Weir,Bharatpur   9782754965  153  Active  20-09-2014    1.14  24197.77 
597 926 Rajendra Kumar Sharma 2014-Vakrangee-Bharatpur Sharma Computers, Khodi Mod Deeg Road, Nagar Bharatpur  9828537748  1138  Active  20-09-2014    .63  2586.71 
598 935 Bhagwan Singh Meena 2014-Vakrangee-Bharatpur Barkhera  Bayana Bharatpur  9414890478  3202  Active  26-09-2014    1175.84  16711.85 
599 936 Anil Kumar Mathur 2014-Vakrangee-Bharatpur Mathur Internet & Emitra Center Basan Gate Kotwali Bharatpur  9571511899  6120  Active  26-09-2014    .46  9929.51 
600 937 Khushi Ram 2014-Vakrangee-Bharatpur Nagla Beeja Rupbas Bharatpur  9784309994  801  Active  26-09-2014    1071.18  3133.25 
601 938 RAJENDRA DAGUR 2014-Vakrangee-Bharatpur Dagur emitra V/P nagar Teh- nagar near govt hospital Bhartpur   9667175659  4435  Active  26-09-2014    .66  47224.22 
602 939 Sanjay Singh 2014-Vakrangee-Bharatpur Peepla Sewar Bharatpur  9782599434  387  Active  26-09-2014    470.77  20979.84 
603 941 SHER SINGH 2014-Vakrangee-Bharatpur Cheema emitra Nand Hotel ke pass ward no 19 Bhartpur   9828580712  Active  26-09-2014    15.44  13002.71 
604 943 JUGAL BIHARI 2014-Vakrangee-Bharatpur Purohit emitra center kotwali bazar near sitaramji mandir Bhartpur   9783319205  717  Active  26-09-2014    .55  2296.70 
605 945 SANJAY KUMAR 2014-Vakrangee-Bharatpur Sanjay emitra Ward no 05 Near Panchyat Samiti Sewar Bhartpur   9928816222  5440  Active  26-09-2014    4.87  4268.86 
606 946 JITENDRA KUMAR 2014-Vakrangee-Bharatpur Jitendra emitra center Kumher Bhartpur   8003601746  186  Active  26-09-2014    .31  5407.49 
607 959 Shiv Kumar Sharma 2014-Vakrangee-Bharatpur Marauli, Rupbas Bharatpur   9785719204  6118  Active  08-10-2014    10  12180.20 
608 968 Rohit Sharma 2014-Vakrangee-Bharatpur Tilak Nagar Bharatpur   8003391909  3820  Active  09-10-2014    .49  929.73 
609 969 Paras Ram Saini 2014-Vakrangee-Bharatpur Near Bus Stand Deeg Bharatpur   9529003555  2237  Active  09-10-2014    4945.32  1211.70 
610 1024 Manoj Kumar 2014-Vakrangee-Bharatpur Kumher Road Bohra Market,Bharatpur    9983664711  11  Active  29-10-2014    1077.59  11358.69 
611 1025 Kali Charan 2014-Vakrangee-Bharatpur Jahangeerpur,Nadbai,Bharatpur     9602761341  11346  Active  29-10-2014    12320.28  25971.42 
612 1026 Parasram 2014-Vakrangee-Bharatpur Talchhera,Nadbai,Bharatpur    9667865574  Active  29-10-2014    3080.63  10078.00 
613 1049 Bhupendra Singh 2014-Vakrangee-Bharatpur Padawali,Bayana Bharatpur   9636059531  17  Active  21-11-2014    .17  20790.93 
614 1050 Lakhan Singh 2014-Vakrangee-Bharatpur Gazipur,Bayana Bharatpur   9680121506  36  Active  21-11-2014    .59  3372.78 
615 1054 Hemendra Kumar 2014-Vakrangee-Bharatpur VPO-Dandoo,Block-Kumher Distt.-Bharatpur   9785202112  Active  21-11-2014    3.88  3593.22 
616 1055 Jitendra Singh 2014-Vakrangee-Bharatpur VPO-Thana Dang,Block-Bayana Distt.-Bharatpur   8740979934  567  Active  22-11-2014    1780.29  6779.13 
617 1056 Irfan 2014-Vakrangee-Bharatpur VPO-Nagla Kundan,Block-Kaman Distt.-Bharatpur   9982562793  48  Active  22-11-2014    922.53  7047.25 
618 1063 Jagat Singh 2014-Vakrangee-Bharatpur VPO-Karwari,Block-Bayana Distt.-Bharatpur   9875036609  Active  25-11-2014    136.56  -92.43 
619 1070 Anil Kumar 2014-Vakrangee-Bharatpur Anil Emitra,Bapu Bazar Nagar,Bharatpur undefined  9784397159  4807  Active  26-11-2014    6214.82  25546.79 
620 1071 Saurabh Godha 2014-Vakrangee-Bharatpur Near Kotwali,Chauturja Bharatpur   9509618018  804  Active  26-11-2014    .39  2832.22 
621 1084 Sarita 2014-Vakrangee-Bharatpur Bahra Rekhapur,Rupbas Bharatpur   8058592215  11  Active  27-11-2014    .67  1009.06 
622 1085 Kapil Goyal 2014-Vakrangee-Bharatpur BAYANA, BHARATPUR   RAJASTHAN,PIN CODE NO - 321401 undefined  9667548958  57  Active  27-11-2014    5567.62  4208.06 
623 1087 Hemant Kumar 2014-Vakrangee-Bharatpur Nigohi,Deeg Bharatpur   8239774703  Active  27-11-2014    749.89  1349.21 
624 1089 Raju Pachahara 2014-Vakrangee-Bharatpur Bandha Chauth,Deeg Bharatpur   9413590442  802  Active  27-11-2014    1591.76  1003.30 
625 1091 Ravi Kumar 2014-Vakrangee-Bharatpur Nahroli Deshwar,Shishwada Deeg,Bharatpur undefined  8875023730  8998  Active  27-11-2014    52.21  9055.84 
626 1103 Pushpendra Singh 2014-Vakrangee-Bharatpur Piprau,Block-NAdbai Distt.-BharatpUr   9166662311  Active  04-12-2014    0.00 
627 1104 Narendra Kumar 2014-Vakrangee-Bharatpur VPO-Sedpura,Block-Rupbas Distt.-Bharatpur   05645276427  506  Active  04-12-2014    1688.32  27053.81 
628 1114 Bhag Chand Saini 2014-Vakrangee-Bharatpur Chak Dharsoni,Block-Weir Distt.-BhAratpur   9414758409  28  Active  11-12-2014    .9  2704.42 
629 1115 Pradeep Kumar 2014-Vakrangee-Bharatpur Agarwal Printer,Weir Bharatpur   9414713614  944  Active  11-12-2014    1988.02  391.90 
630 1116 Rajkumar 2014-Vakrangee-Bharatpur Malipura,Sewar Bharatpur   9782734407  207  Active  11-12-2014    7.12  1397.00 
631 1128 Harish Kumar 2014-Vakrangee-Bharatpur VPO-Rarah,Block-Kumher Distt.-Bharatpur   9782506026  1729  Active  18-12-2014    10.12  2993.86 
632 1129 Areef Khan 2014-Vakrangee-Bharatpur Malki,Nagar Bharatpur   9828171290  10  Active  18-12-2014    23.33  10200.95 
633 1136 Jitendra Singh 2014-Vakrangee-Bharatpur Village Nonera Thesil Kaman    7690908990  102  Active  19-12-2014    46.27  1388.44 
634 1137 Rahul Bansal 2014-Vakrangee-Bharatpur Mangal Colony Rudaval    9875203203  148  Active  19-12-2014    138.89  129.35 
635 1138 Hardev Singh 2014-Vakrangee-Bharatpur Village Januthar Deeg Bharatpur    8504925138  Active  19-12-2014    .46  44218.66 
636 1139 Ved Prakash Saini 2014-Vakrangee-Bharatpur Near Tehsil Kaman    05641230758  150  Active  19-12-2014    956.27  415.00 
637 1140 Hitesh Garg 2014-Vakrangee-Bharatpur Jurhera Kaman    9549677294  970  Active  19-12-2014    6552.86  7035.70 
638 1219 Rajveer Singh 2014-Vakrangee-Bharatpur RARODA , KHAN KHEDA  BAYANA ,BHARATPUR undefined  9828835905  21  Active  22-12-2014    2995.5  2528.44 
639 1221 Shailender Kumar Saini 2014-Vakrangee-Bharatpur Nai Sadak Deeg    05641220230  105  Active  23-12-2014    .76  2898.36 
640 1232 Ashish Kumar 2014-Vakrangee-Bharatpur VPO-Gurdha Nadi,Block-Bayana Distt.-Bharatpur   8290557872  853  Active  26-12-2014    1500.48  7417.74 
641 1238 Ram Babu 2014-Vakrangee-Bharatpur Near Chotala Ki Shop  Subhash Nagar Bharatpur   9680834848  3176  Active  29-12-2014    244.21  35198.18 
642 1239 Hem Kumar 2014-Vakrangee-Bharatpur Bhuda Gate Deeg    05641220016  1986  Active  29-12-2014    1.67  1823.92 
643 1240 Gulshan Sharma 2014-Vakrangee-Bharatpur Rajiv Gandhi Seva Kendra Village Post Bachhmadi(Noh)Bharatpur    7611851998  Active  29-12-2014    856.95  6358.26 
644 1242 Suneel Kumar 2014-Vakrangee-Bharatpur INFRONT OF SBBJ BANK, ARYA SAMAJ ROAD  BAYANA, BHARATPUR undefined  8432663479  575  Active  07-01-2015    84.17  4504.27 
645 1243 Subran Singh 2014-Vakrangee-Bharatpur JANOOTHAR, TEHSIL - DEEG  BHARATPUR   9829547617  221  Active  07-01-2015    1.06  3660.96 
646 1247 Navdeep Singh 2014-Vakrangee-Bharatpur RAJIV GANDHI KENDRA KHER,BAYANA BHARATPUR(RAJASTHAN)   9694716874  655  Active  07-01-2015    753.65  21502.98 
647 1248 Raju Lal 2014-Vakrangee-Bharatpur Ghor Mahua Sawer    7891035727  6288  Active  07-01-2015    601.31  17700.15 
648 1262 Manish Chhabra 2014-Vakrangee-Bharatpur SHIV NAGAR, BEHING SINGHAL OIL MILL  BHARATPUR   8854878487  264  Active  10-01-2015    1534.38  3834.97 
649 1264 Akhalesh Kumar 2014-Vakrangee-Bharatpur GARG CYBER ZONE, ATALBAND  BHARATPUR   9549973808  1887  Active  10-01-2015    .4  4118.13 
650 1268 Mohit Kumar 2014-Vakrangee-Bharatpur Near Pashu Hosptal, Kachahari Road  Bharatpur   9461868469  2442  Active  12-01-2015    .62  26349.64 
651 1280 Girish Kumar 2014-Vakrangee-Bharatpur INFRONT OF SAMUDAYAK BHAWAN, RIICO ROAD  BHARATPUR   8952043136  546  Active  16-01-2015    .22  6940.00 
652 1289 Dharmender Singh 2014-Vakrangee-Bharatpur VPO-Pali,Block-Weir Distt.-Bharatpur   9928134310  19  Active  21-01-2015    1.18  23450.07 
653 1290 Sakir Husain 2014-Vakrangee-Bharatpur Ladamka,Nagar Bharatpur   9772603960  479  Active  21-01-2015    1971.7  56722.59 
654 1291 Ganga Singh Yadav 2014-Vakrangee-Bharatpur VPO-Dhilawati,Block-Kaman Distt.-Bharatpur   7568257478  2588  Active  21-01-2015    32.45  15975.43 
655 1292 Ram Gopal 2014-Vakrangee-Bharatpur INFRONT OF MSJ COLLAGE, BHARATPUR    9782290010  222  Active  21-01-2015    94.78  44.91 
656 1295 Mohini Dubey 2014-Vakrangee-Bharatpur Behind Kendriya Bus Stand, Bharatpur    8058276502  1453  Active  22-01-2015    436.65  9459.99 
657 1298 Sachin Khandelwal 2014-Vakrangee-Bharatpur Deeg Road Kumher    9024221353  3486  Active  22-01-2015    .75  5173.59 
658 1299 Lokesh Singh 2014-Vakrangee-Bharatpur Village Toda Post Hingota Deeg Bharatpur     8441097557  880  Active  22-01-2015    695.62  1592.42 
659 1300 Nagendra Singh 2014-Vakrangee-Bharatpur Village Jatoli Thoon Deeg Bharatpur    8239320003  286  Active  22-01-2015    1296.25  2029.54 
660 1301 Akhalesh Kumar 2014-Vakrangee-Bharatpur Near Lal Darbaja Bayana Bharatpur    9672575195  1464  Active  22-01-2015    39.16  10647.07 
661 1302 Manoj Kumar 2014-Vakrangee-Bharatpur Ward-08,Vijay Nagar Colony Bharatpur   9785050703  114  Active  22-01-2015    60.43  6232.33 
662 1303 Ramendra Singh 2014-Vakrangee-Bharatpur NEAR COLLECTRATE CAMPUS, BHARATPUR    8058468405  1548  Active  22-01-2015    .82  11328.79 
663 1304 Ranjeet Singh 2014-Vakrangee-Bharatpur IT KENDRA, HATHAINI  BLOCK- SEWAR, BHARATPUR undefined  9887962044  4895  Active  22-01-2015    4507.28  8909.36 
664 1305 Rameshwar 2014-Vakrangee-Bharatpur IT KENDRA, GHUSHYARI  BLOCK- SEWAR, BHARATPUR undefined  8290556585  11  Active  22-01-2015    1403.91  1346.00 
665 1306 Gaurav Kumar 2014-Vakrangee-Bharatpur Anah Gate Pather Ki Taal Bharatpur    9887126355  1014  Active  23-01-2015    .33  10505.86 
666 1318 Govind 2014-Vakrangee-Bharatpur SHERGADH,BAYANA BHARATPUR   9413312658  1582  Active  30-01-2015    116.49  13728.74 
667 1319 Mukesh Kumar Dubey 2014-Vakrangee-Bharatpur WARD-02,BEHIND BUS DEPOT HELAR HOUSE,SUBHASH NAGAR BHARATPUR  9414889065  98  Active  30-01-2015    1061.51  1771.87 
668 1326 Niranjan Lal Gauttam 2014-Vakrangee-Bharatpur 31,Kalyan Mauhlla Kaman,Bharatpur undefined  9828025135  1291  Active  03-02-2015    7.94  174.07 
669 1327 Ramesh Singh 2014-Vakrangee-Bharatpur VIL-KHANSWARA POST -PAPRERA TEH-KUMHER DIST-BHARATPUR    9636191024  54  Active  03-02-2015    3784.59  4894.57 
670 1328 Dinesh Kumar 2014-Vakrangee-Bharatpur Dinesh Emitra,Infront Of MSJ Collage Bharatpur,Bharatpur undefined  9649103299  499  Active  03-02-2015    .55  177.01 
671 1330 Prem Singh 2014-Vakrangee-Bharatpur IT KENDRA, JHAROLI  BLOCK - SEWAR, BHARATPUR undefined  8952013367  122  Active  03-02-2015    938.68  4949.03 
672 1336 Mubarik 2014-Vakrangee-Bharatpur VPO Bhonri The. Pahari Bharatpur    9587773344  410  Active  03-02-2015    27848.79  25758.11 
673 1337 Rashid 2014-Vakrangee-Bharatpur Village Nandera Teh. Kaman Bharatpur    8094509630  15  Active  03-02-2015    .52  1957.72 
674 1362 Hari Das 2014-Vakrangee-Bharatpur BEHIND PHOOL SINGH TANT HOUSE, HEERADAS  BHARATPUR   9887540721  25  Active  05-02-2015    .58  1920.18 
675 1363 Ajay Singh 2014-Vakrangee-Bharatpur IT KENDRA, MOROLI KALAN  TEH. & DISTRICT - BHARATPUR   9694235107  205  Active  05-02-2015    533.73  10471.98 
676 1364 Prashan Kumar 2014-Vakrangee-Bharatpur IT KENDRA, BILOTHI  TEHSIL & DISTRICT - BHARATPUR   8696620636  10  Active  05-02-2015    44.94  1182.87 
677 1365 Rohtash Kumar 2014-Vakrangee-Bharatpur KASAI MOHALLA, PAHARI  BHARATPUR   8058273926  Active  06-02-2015    14.52  1679.13 
678 1366 Neeraj Kumar Sharma 2014-Vakrangee-Bharatpur Kaman Bypass Road Neem Ghata Mohalla Deeg    9414695025  743  Active  06-02-2015    1723.38  3310.95 
679 1367 Kapil Khandelwal 2014-Vakrangee-Bharatpur SHRI RADHE COMMUNICATION, NEW MANDI  BHARATPUR   8890525962  Active  06-02-2015    4.29  1723.17 
680 1368 Anand Kumar 2014-Vakrangee-Bharatpur SHASHTRI SHALA ROAD, NAGAR  BHARATPUR   386  Active  06-02-2015    .14  3430.38 
681 1369 Rajendra Singh 2014-Vakrangee-Bharatpur AZADPURA, CHAK DHARSONI  WEIR, BHARATPUR undefined  9694508308  4415  Active  06-02-2015    5680.23  14866.38 
682 1370 Surjeet Singh 2014-Vakrangee-Bharatpur NEWADA, WEIR  BHARATPUR   9928002775  446  Active  06-02-2015    8995.26  14228.51 
683 1371 Braj Gopal 2014-Vakrangee-Bharatpur ALIPUR, BHUSAWAR BHARATPUR   8290853081  250  Active  06-02-2015    11215.17  17410.59 
684 1372 Rakesh Kumar 2014-Vakrangee-Bharatpur RUNDH IKRAN,SEWAR  BHARATPUR   8432670342  135  Active  06-02-2015    65.57  12.00 
685 1373 Harish Kumar 2014-Vakrangee-Bharatpur V & P - JAGHINA, BHARATPUR    9509847007  6607  Active  06-02-2015    6.21  22704.34 
686 1374 Vishambhar Singh 2014-Vakrangee-Bharatpur Tyohari,Weir Bharatpur   9414388760  22  Active  06-02-2015    5036.15  3467.44 
687 1375 Govind Sharan 2014-Vakrangee-Bharatpur MAIN BAZAR, OLD SABJI MANDI  DEEG, BHARATPUR undefined  8290540930  21  Active  06-02-2015    2.77  26.23 
688 1380 Ramakant Sharma 2014-Vakrangee-Bharatpur Sirrond,Rupbas Bharatpur   9982679225  610  Active  11-02-2015    6710.58  21060.19 
689 1382 Rahul Saini 2014-Vakrangee-Bharatpur VPO-Jhanjhar,Block-Nagar Distt.-Bharatpur   8875023726  204  Active  12-02-2015    9842.43  10599.39 
690 1388 Lalit Kumar 2014-Vakrangee-Bharatpur NEAR SARAS CHAURAHA, VIJAY NAGAR  BHARATPUR   8058845059  951  Active  18-02-2015    .75  959.76 
691 1400 Dharmendra Kumar 2014-Vakrangee-Bharatpur VPO Pahari Teh. Pahari Bharatpur    9694816516  105  Active  19-02-2015    8178.78  16003.00 
692 1401 Gajendra Singh Chandel 2014-Vakrangee-Bharatpur Rajiv Gandhi Seva Kendra Guhana    9694826177  69  Active  19-02-2015    3561.19  6580.89 
693 1402 Rahul Dev 2014-Vakrangee-Bharatpur WARD NO. 03, PAHARI  BHARATPUR   950953507  211  Active  19-02-2015    12628.99  12372.93 
694 1404 Ram Kishan 2014-Vakrangee-Bharatpur V&P- JATOLI RATHBHAN, BLOCK- SEWAR  BHARATPUR   8432422135  10  Active  19-02-2015    14.99  87.13 
695 1409 Vikas Kumar Khandelwal 2014-Vakrangee-Bharatpur Rajiv Gandhi Seva Kendra Panhori    8058926340  Active  19-02-2015    1541.41  4533.98 
696 1410 Umesh Chand 2014-Vakrangee-Bharatpur V&P PAR, BLOCK- SEWAR  BHARATPUR   9887750088  593  Active  19-02-2015    2.55  8386.66 
697 1411 Dhanpal Singh 2014-Vakrangee-Bharatpur V&P- KATHAUL, PAHARI  BHARATPUR   9680428449  868  Active  19-02-2015    2134.92  21381.40 
698 1417 Pavan Kumar 2014-Vakrangee-Bharatpur RANG REG GALI, RUDAWAL  RUPBAS, BHARATPUR undefined  8505083434  1224  Active  20-02-2015    .47  8600.33 
699 1436 Saikool 2014-Vakrangee-Bharatpur Village-Nagla Kulwana Teh.-Kaman Bharatpur    9660560986  120  Active  02-03-2015    1645.64  1217.67 
700 1441 Deshraj Saini 2014-Vakrangee-Bharatpur NEAR RAM MANDIR, KHERLI ROAD  NAGAR, BHARATPUR undefined  7891390330  15  Active  02-03-2015    1938.76  1255.00 
701 1448 Mahendra Singh 2014-Vakrangee-Bharatpur VPO-HATEEJAR TEH WEIR DIST BHARATPUR    9414654341  3250  Active  11-03-2015    177.28  3399.35 
702 1462 Manoj Kumar 2014-Vakrangee-Bharatpur Pingora, Nadbai  Bharatpur   9166679417  3245  Active  17-03-2015    914.33  4855.56 
703 1517 CSC Sinsini 2014-Vakrangee-Bharatpur Village - Sinsini Block - Deeg,GP -Sinsini Tehsil - Deeg  9024261121  4012  Active  26-03-2015    .14  7176.28 
704 1518 CSC Bahaj 2014-Vakrangee-Bharatpur Village - Bahaj block - Deeg,GP-Bahaj Tehsil - Deeg  9783105695  716  Active  26-03-2015    .72  3819.05 
705 1519 CSC Hantra 2014-Vakrangee-Bharatpur Village - Hantra Block - Nadbai, GP -Hantra Tehsil - Nadbai  9887241930  1342  Active  26-03-2015    88.5  25080.83 
706 1520 CSC Rudawal 2014-Vakrangee-Bharatpur Village - Rudawal Block - Rupbas,GP -Rudawal Tehsil - Rupbas  05645274384  426  Active  26-03-2015    .23  26721.84 
707 1521 CSC Uchchain 2014-Vakrangee-Bharatpur Village - Uchchain Block - Rupbas,GP -Uchchen Tehsil - Rupbas  8058231977  1635  Active  26-03-2015    627.1  593.00 
708 1522 CSC Chiksana 2014-Vakrangee-Bharatpur Village - Chiksana Block - Sewar,GP -Chiksana Tehsil -Bharatpur  9828294579  723  Active  26-03-2015    7000.28  5368.19 
709 1523 CSC Nithar 2014-Vakrangee-Bharatpur Village - Nithar Block - Weir,GP -Nithar Tehsil - Weir  9829173114  50  Active  26-03-2015    171.6  2456.71 
710 1524 CSC Kamalpura 2014-Vakrangee-Bharatpur Village - Kamalpura Block - Weir,GP -Kamalpura Tehsil - Weir  9785203822  2644  Active  26-03-2015    3123.15  9796.15 
711 1525 CSC Moloni 2014-Vakrangee-Bharatpur Village - Moloni Block - Weir,GP -Moloni Tehsil - Weir  7568357181  1114  Active  26-03-2015    8857.49  14118.00 
712 1526 CSC Bajhera Kalan 2014-Vakrangee-Bharatpur Village - Bajhera Kalan Block - Weir,GP- Bjera Kalan Tehsil - Bharatpur  9460324222  413  Active  26-03-2015    336.3  193.63 
713 1527 CSC Deewali 2014-Vakrangee-Bharatpur Village - Deewali Block -Weir,GP -Divli Tehsil - Weir  7742053693  Active  26-03-2015    3.96  1849.88 
714 1528 CSC Halena 2014-Vakrangee-Bharatpur Village - Halena Block - Weir,GP -Halena Tehsil - Weir  9928134310  445  Active  26-03-2015    8.72  7792.20 
715 1529 CSC Rupbas 2014-Vakrangee-Bharatpur Village - Rupbas Block - Rupbas,GP -Rupbas Tehsil - Rupbas  05645-273027  169  Active  26-03-2015    .87  21720.99 
716 1530 CSC Chhokarwara Kalan 2014-Vakrangee-Bharatpur Village - Chhokarwara Kalan Block - Weir Bharatpur  9785358031  333  Active  26-03-2015    .26  39872.89 
717 1531 CSC Mai 2014-Vakrangee-Bharatpur Village - Mai  Block - Nadbai Bharatpur  9783015108  4088  Active  26-03-2015    .15  7870.77 
718 1532 CSC barauli Chhar 2014-Vakrangee-Bharatpur Village-Barauli Chhar Block-Nadbai Bharatpur  9660985921  408  Active  26-03-2015    .79  9979.25 
719 1534 CSC pahari 2014-Vakrangee-Bharatpur Village-Pahari Block-Nagar Bharatpur  8890198658  3335  Active  26-03-2015    50.65  5820.84 
720 1536 CSC ludhabai 2014-Vakrangee-Bharatpur Village-Ludhabai Block-Sewar Bharatpur  9166767525  153  Active  26-03-2015    .81  1296.05 
721 1539 CSC Kanawar 2014-Vakrangee-Bharatpur Village - Kanawar Block - Bayana Bharatpur  9828300711  2644  Active  26-03-2015    1427.84  5216.48 
722 1540 CSC Janoothar 2014-Vakrangee-Bharatpur Village-Janoothar Block-Deeg Bharatpur  8104440387  17  Active  26-03-2015    .87  11839.81 
723 1542 CSC Bahnera 2014-Vakrangee-Bharatpur Village-Bahnera Block-Sewar Bharatpur  8561985295  1920  Active  26-03-2015    11681.49  2458.00 
724 1545 CSC Seedpur 2014-Vakrangee-Bharatpur Village - Seedpur Block - Bayana Bharatpur  9799081802  39  Active  26-03-2015    6041.32  16814.94 
725 1547 CSC Sikrori 2014-Vakrangee-Bharatpur Village - Sikrori Block - Kumher Bharatpur  9414327298  44  Active  26-03-2015    41.2  7555.44 
726 1550 CSC Gulpara 2014-Vakrangee-Bharatpur Village - Gulpara Block - Nagar,GP -Gulpada Tehsil - Nagar  9649498388  196  Active  26-03-2015    96.94  22627.54 
727 1551 Csc Khera Thakur 2014-Vakrangee-Bharatpur Village-Khera Thakur Block-Rupbas District-Bharatpur   8824365595  58  Active  26-03-2015    47.63  80.56 
728 1552 Csc Sarsaina 2014-Vakrangee-Bharatpur Village-Sarsaina Block-Weir District-Bharatpur  9636305014  401  Active  26-03-2015    13.74  21856.58 
729 1553 Csc Bhatpura 2014-Vakrangee-Bharatpur Village-Bhatpura Block-Nagar District-Bharatpur  9672172461  1030  Active  26-03-2015    5494.25  8323.31 
730 1555 Csc Seekri Chak No 1 2014-Vakrangee-Bharatpur Village-Seekri Chak No.1 Block-Nagar District-Bharatpur  9950750001  1584  Active  26-03-2015    3173.13  2179.63 
731 1556 CSC Palka 2014-Vakrangee-Bharatpur Village - Palka Block - Nagar,GP -Palka Tehsil - Nagar  9828229302  189  Active  26-03-2015    900.57  14749.64 
732 1557 CSC Shyorawali 2014-Vakrangee-Bharatpur Village - Shyorawali Block - Deeg,GP -Shyorawali Tehsil - Deeg  9887037190  92  Active  26-03-2015    7.48  1838.86 
733 1558 CSC Bedham 2014-Vakrangee-Bharatpur Village - Dedham Block - Deeg,GP - Baidam Tehsil - Deeg  9887050988  4706  Active  26-03-2015    3476.24  8149.73 
734 1560 CSC Samogar 2014-Vakrangee-Bharatpur ATAL SEVA KENDRA SAMOGAR,  TEH-BAYANA, DISTRICT- BHARATPUR   9414485885  105  Active  26-03-2015    405.18  684.15 
735 1561 CSC Ubar 2014-Vakrangee-Bharatpur Village- Ubar Block- Kumher District- Bharatpur  9782276183   1769  Active  26-03-2015    2.23  17535.93 
736 1563 CSC Seekri Chak No 2 2014-Vakrangee-Bharatpur Village- Seekri Chak No 2 Block- Nagar District- Bharatpur  9413994113  280  Active  26-03-2015    12026.02  63551.71 
737 1564 CSC Berroo 2014-Vakrangee-Bharatpur Village- Berroo Block- Nagar District- Bharatpur  9983740637  Active  26-03-2015    8.46  8694.23 
738 1565 CSC Shahna 2014-Vakrangee-Bharatpur Village - Shahna Block - Rupbas,GP -Sahna Tehsil - Rupbas  8058592215  459  Active  26-03-2015    2743.22  6908.69 
739 1571 CSC Dehgawan 2014-Vakrangee-Bharatpur Village- Dehgawan  Block- Bayana  District- Bharatpur  9887919379  163  Active  26-03-2015    1508.72  6054.29 
740 1572 CSC Paramdara 2014-Vakrangee-Bharatpur Village- Paramadara Block- Deeg District- Bharatpur  9413227228  18  Active  26-03-2015    58.92  8561.20 
741 1575 CSC Baroli Chauth 2014-Vakrangee-Bharatpur Village- Baroli Chauth  Block- Deeg  District- Bharatpur  9950866507  1137  Active  26-03-2015    20.37  3738.24 
742 1577 CSC Satwas 2014-Vakrangee-Bharatpur Village- Satwas  Block- Kaman  District- Bharatpur   9982321410  704  Active  26-03-2015    .51  480.01 
743 1578 CSC Moonsepur 2014-Vakrangee-Bharatpur Village- Moonsepur  Block- Kaman  District- Bharatpur   9001892350  79  Active  26-03-2015    4.75  2198.29 
744 1579 CSC Jurhara 2014-Vakrangee-Bharatpur Village- Jurhara  Block- Kaman  District- Bharatpur  9413878652  1254  Active  26-03-2015    2.32  1357.53 
745 1580 CSC Sablana 2014-Vakrangee-Bharatpur Village- Sablana  Block- Kaman  District- Bharatpur  9413193034  752  Active  26-03-2015    1.08  128.75 
746 1581 CSC Kathaul 2014-Vakrangee-Bharatpur Village- Kathaul  Block- Kaman  District- Bharatpur   9509535906  96  Active  26-03-2015    637.25  1486.08 
747 1582 CSC Birharu 2014-Vakrangee-Bharatpur Village- Birharu  Block- Kumher  District- Bharatpur  9785037811  90  Active  26-03-2015    303.45  4042.16 
748 1583 CSC Belara Kalan 2014-Vakrangee-Bharatpur Village- Belara Kalan  Block- Kumher  District- Bharatpur  8058521191  947  Active  26-03-2015    3941.9  6286.54 
749 1584 CSC Lakhan 2014-Vakrangee-Bharatpur Village- Lakhan  Block- Kumher  District- Bharatpur  9602406517  281  Active  26-03-2015    29.38  6772.85 
750 1585 CSC Borai 2014-Vakrangee-Bharatpur Village- Borai  Block- Kumher  District- Bharatpur   9694199137  25  Active  26-03-2015    .97  3535.80 
751 1586 CSC Kurka 2014-Vakrangee-Bharatpur Village- Kurka  Block- Rupbas  District- Bharatpur  9783284432  Active  26-03-2015    .19  4267.45 
752 1587 CSC Malah 2014-Vakrangee-Bharatpur Village- Malah  Block- Sewar  District- Bharatpur   9001668134  1832  Active  26-03-2015    6651.69  5156.28 
753 1591 CSC KORER 2014-Vakrangee-Bharatpur Village KORER  Block DEEG  District BHARATPUR   9783156574  582  Active  26-03-2015    .41  8209.26 
754 1593 CSC Ajau 2014-Vakrangee-Bharatpur Village Ajau  Block KUMHER   District BHARATPUR   9286557605  Active  26-03-2015    13.17  0.00 
755 1594 CSC Barauli Ran 2014-Vakrangee-Bharatpur Village Barauli Ran  Block NADBAI  District BHARATPUR   9252730750  Active  26-03-2015    394.07  0.00 
756 1596 CSC Shakkarpur 2014-Vakrangee-Bharatpur Village Shakkarpur  Block RUPBAS  District BHARATPUR   9462355422  680  Active  26-03-2015    4386.58  11239.67 
757 1600 CSC Siras 2014-Vakrangee-Bharatpur Village Siras   Block WEIR  District BHARATPUR   9460877014  25  Active  26-03-2015    200.55  13545.85 
758 1601 CSC Bhaiseena 2014-Vakrangee-Bharatpur Village Bhaiseena  Block WEIR  District BHARATPUR   9214944095  769  Active  26-03-2015    .08  29838.67 
759 1602 CSC Samraya 2014-Vakrangee-Bharatpur Village Samraya  Block WEIR  District BHARATPUR   9667808828  985  Active  26-03-2015    8.01  9484.88 
760 1604 CSC HATAURI 2014-Vakrangee-Bharatpur Village HATAURI   Block WEIR   District BHARATPUR   000000000000  213  Active  26-03-2015    .57  17567.96 
761 1606 CSC Barah Mafi 2014-Vakrangee-Bharatpur Village - Barah Mafi Block - Rupbas GP - Barah Mafi  9680805312  15  Active  26-03-2015    844.86  2224.64 
762 1609 CSC Sahsan 2014-Vakrangee-Bharatpur Village Sahsan  Block KAMAN  District BHARATPUR   96101000045  119  Active  26-03-2015    2.82  15454.54 
763 1610 CSC Pichoomar 2014-Vakrangee-Bharatpur Village Pichoomar  Block KUMHER  District BHARATPUR   7737100184  52  Active  26-03-2015    402.02  64.92 
764 1611 CSC Peepal Khera 2014-Vakrangee-Bharatpur Village Peepal Khera  Block NAGAR  District BHARATPUR   9772404014  10  Active  26-03-2015    .55  8469.96 
765 1614 CSC Aghapur 2014-Vakrangee-Bharatpur Village Aghapur  Block SEWAR  District BHARATPUR   9549249946  2130  Active  26-03-2015    14347.36  14062.77 
766 1615 CSC Moondota 2014-Vakrangee-Bharatpur Village MOONDOTA   Block SEWAR   District BHARATPUR   9887482598  160  Active  26-03-2015    6426.8  6466.60 
767 1616 CSC Jahanpur 2014-Vakrangee-Bharatpur Village- Jahanpur Block- Weir  District- Bharatpur   9694265999  70  Active  26-03-2015    .37  8600.36 
768 1618 CSC Samai 2014-Vakrangee-Bharatpur Village Samai  Block DEEG  District BHARATPUR   9509535226  1303  Active  26-03-2015    5000.7  10935.64 
769 1620 CSC Pai 2014-Vakrangee-Bharatpur Village Pai  Block KAMAN  District BHARATPUR   9413309008  203  Active  26-03-2015    97.56  3759.90 
770 1622 CSC Gopalgarh 2014-Vakrangee-Bharatpur Village Gopalgarh  Block NAGAR  District BHARATPUR   9983757532  509  Active  26-03-2015    24.36  11330.77 
771 1624 CSC Dahina Gaon 2014-Vakrangee-Bharatpur Village Dahina Gaon  Block RUPBAS  District BHARATPUR   9983650149  1472  Active  26-03-2015    4365.15  10544.94 
772 1626 CSC Sanwler 2014-Vakrangee-Bharatpur Village- Sanwler Block- Kaman  District- Bharatpur  9982052204  480  Active  26-03-2015    11.49  1781.37 
773 1627 CSC Bilang 2014-Vakrangee-Bharatpur Village- Bilang Block- Kaman  District- Bharatpur  8504075123  67  Active  26-03-2015    13.38  26.00 
774 1628 CSC Koomha (Khumer) 2014-Vakrangee-Bharatpur Village- Koomha  Block- Kumher  District- Bharatpur  9887438336  1783  Active  26-03-2015    .65  6189.11 
775 1629 CSC Bachhamadi 2014-Vakrangee-Bharatpur Village- Bachhamadi Block- Nadbai District- Bharatpur  9680669629  20  Active  26-03-2015    1009.07  1385.00 
776 1631 CSC Taraudar 2014-Vakrangee-Bharatpur Village- Taraudar  Block- Nagar District- Bharatpur  9783527827  1747  Active  26-03-2015    22355.62  30074.26 
777 1632 CSC Tuhiya 2014-Vakrangee-Bharatpur Village- Tuhiya  Block- Sewar  District- Bharatpur  9887934359  75  Active  26-03-2015    9706.79  18190.62 
778 1633 CSC Naroli 2014-Vakrangee-Bharatpur Village- Naroli Block- Bayana  District- Bharatpur  9799726525  421  Active  26-03-2015    2971.7  4580.62 
779 1636 CSC Atari 2014-Vakrangee-Bharatpur Village- Atari Block- Nadbai District- Bharatpur  9414377002  6083  Active  26-03-2015    98.23  17877.19 
780 1638 CSC Karhi 2014-Vakrangee-Bharatpur Village- Karhi Block- Nadbai District- Bharatpur  9950324526  1582  Active  26-03-2015    2000.91  8650.93 
781 1644 CSC Chhichharwari 2014-Vakrangee-Bharatpur Village- Chhichharwari Block- Kaman  District- Bharatpur  9828523499  65  Active  26-03-2015    9.37  6560.98 
782 1647 CSC Nyotha 2014-Vakrangee-Bharatpur Village- Nyotha  Block- Nadbai District- Bharatpur  05643275505  119  Active  26-03-2015    596  532.76 
783 1649 CSC Kheri Devisingh 2014-Vakrangee-Bharatpur Village- Kheri Devisingh  Block- Nadbai  District- Bharatpur  9887395295  38  Active  26-03-2015    506.68  4308.38 
784 1650 CSC Piprau 2014-Vakrangee-Bharatpur Village- Piprau Block- Nadbai District- Bharatpur  8442076861  12  Active  26-03-2015    349.07  327.43 
785 1654 CSC Undra 2014-Vakrangee-Bharatpur Village- Undra  Block- Sewar  District- Bharatpur  7742257001  14  Active  26-03-2015    905.81  576.82 
786 1656 CSC Lakhanpur (Weir) 2014-Vakrangee-Bharatpur Village- Lakhanpur Block- Weir  District- Bharatpur  9782635066  107  Active  26-03-2015    2515.75  5217.77 
787 1657 CSC Moodiya Laleeta 2014-Vakrangee-Bharatpur Village- Moodiya Laleeta Block- Weir  District- Bharatpur  9414758409  158  Active  26-03-2015    .15  14993.35 
788 1660 CSC Jatmasi 2014-Vakrangee-Bharatpur Village JATMASI  Block RUPBAS  District BHARATPUR   8058932026  12365  Active  26-03-2015    992.91  20855.36 
789 1661 CSC Ajan 2014-Vakrangee-Bharatpur Village Ajan  Block KUMHER  District BHARATPUR   9887687712  1423  Active  26-03-2015    .9  7846.21 
790 1663 CSC Bhatawali 2014-Vakrangee-Bharatpur Village BHATAWALI  Block KUMHER  District BHARATPUR   9530446606  188  Active  26-03-2015    697.68  1940.75 
791 1666 CSC Barauli Dhau 2014-Vakrangee-Bharatpur Village- Barauli Dhau Block- Kaman District- Bharatpur  9636033448  Active  26-03-2015    2019.73  5331.00 
792 1668 CSC Jagarka 2014-Vakrangee-Bharatpur Village- Jagarka Block- Nagar  District- Bharatpur    Active  26-03-2015    8.25  180.00 
793 1670 CSC Badri 2014-Vakrangee-Bharatpur Village BADRI  Block DEEG  District BHARATPUR   9875298827  593  Active  26-03-2015    721.22  5854.01 
794 1672 CSC Bilond 2014-Vakrangee-Bharatpur Village BILOND  Block KAMAN  District BHARATPUR   9875114960  12  Active  26-03-2015    44.49  35.54 
795 1676 CSC Noharda 2014-Vakrangee-Bharatpur Village NOHARDA  Block RUPBAS  District BHARATPUR   9413510642  80  Active  26-03-2015    100.55  292.51 
796 1677 CSC PHULWARA 2014-Vakrangee-Bharatpur Village PHULWARA  Block SEWAR  District BHARATPUR   05644220663  259  Active  26-03-2015    404.13  378.89 
797 1679 CSC BRAHMAWAD 2014-Vakrangee-Bharatpur Village BRAHMAWAD  Block BAYANA  District BHARATPUR   05648232035  12  Active  26-03-2015    .92  1331.90 
798 1681 CSC Sooti 2014-Vakrangee-Bharatpur Village SOOTI  Block SEWAR  District BHARATPUR   8094749430  37  Active  26-03-2015    105.09  349.70 
799 1682 CSC Jagheena (Rural) 2014-Vakrangee-Bharatpur Village- Jagheena (Rural) Block- Sewar  District- Bharatpur  9782633090  73  Active  26-03-2015    1218.92  2940.20 
800 1683 CSC Naunera 2014-Vakrangee-Bharatpur Village Naunera  Block KAMAN  District BHARATPUR   9782528569  88  Active  26-03-2015    305.15  2951.96 
801 1684 CSC Udaka 2014-Vakrangee-Bharatpur Village Udaka  Block KAMAN  District BHARATPUR   9887770292  454  Active  26-03-2015    30.38  122.49 
802 1685 CSC Helak 2014-Vakrangee-Bharatpur Village Helak  Block KUMHER  District BHARATPUR   9414889065  596  Active  26-03-2015    697.29  3728.75 
803 1686 CSC RANDHEERGARH 2014-Vakrangee-Bharatpur Village RANDHEERGARH  Block WEIR  District BHARATPUR   9828356625  10  Active  26-03-2015    9866.82  24749.76 
804 1688 CSC Khan Surjapura 2014-Vakrangee-Bharatpur village khan surjapura block rupbas District bharatpur  9929935890  97  Active  26-03-2015    676.76  16913.92 
805 1689 CSC Ghatri 2014-Vakrangee-Bharatpur Village Ghatri Block Weir District Bharatpur  000000000000  27  Active  26-03-2015    .64  22079.16 
806 1690 CSC Vaulkhera 2014-Vakrangee-Bharatpur Village Vaulkhera  Block KAMAN  District BHARATPUR   9928280228  199  Active  26-03-2015    2.42  5559.61 
807 1693 CSC Sundrawali 2014-Vakrangee-Bharatpur Village- Sundrawali Block- Nagar  District- Bharatpur  9261767670  Active  26-03-2015    526.68  3060.75 
808 1696 CSC Pahua 2014-Vakrangee-Bharatpur Village- Pahua  Block- Kumher  District- Bharatpur  9784058944  902  Active  26-03-2015    1003.86  3069.18 
809 1697 CSC Kakrala 2014-Vakrangee-Bharatpur Village- Kakrala Block- Nagar District- Bharatpur  9828672146  501  Active  26-03-2015    15123.31  54322.59 
810 1698 CSC Dawak 2014-Vakrangee-Bharatpur Village- Dawak Block- Nagar District- Bharatpur  9610562668  2079  Active  26-03-2015    6455.84  10741.63 
811 1700 CSC Andhiyari 2014-Vakrangee-Bharatpur Village- Andhiyari Block- Rupbas District- Bharatpur  9950324410  19  Active  26-03-2015    .77  5534.64 
812 1701 CSC Bhawanpura 2014-Vakrangee-Bharatpur Village- Bhawanpura Block- Rupbas District- Bharatpur  9828223330  Active  26-03-2015    203.69  327.56 
813 1703 CSC Madhoni 2014-Vakrangee-Bharatpur Village- Madhoni Block- Sewar District- Bharatpur  9414895963  10  Active  26-03-2015    61.69  26.00 
814 1705 CSC Santrook 2014-Vakrangee-Bharatpur Village- Santrook Block- Kumher District- Bharatpur  9982774208  1267  Active  26-03-2015    1378.61  763.00 
815 1706 CSC Therawar 2014-Vakrangee-Bharatpur Village- Therawar Block- Kumher District- Bharatpur  9772922025  25  Active  26-03-2015    .54  1293.80 
816 1707 CSC Ranph 2014-Vakrangee-Bharatpur Village- Ranph Block- Nagar District- Bharatpur  7891634369  1055  Active  26-03-2015    308.9  39891.72 
817 1709 CSC Matooki 2014-Vakrangee-Bharatpur Village- Matooki Block- Nagar District- Bharatpur  8058603373  1947  Active  26-03-2015    1789.01  827.46 
818 1710 CSC Nabhera 2014-Vakrangee-Bharatpur Village- Nabhera Block- Rupbas District- Bharatpur  9694147825  562  Active  26-03-2015    1849.35  16386.54 
819 1711 CSC Padalwas 2014-Vakrangee-Bharatpur Village- Padalwas Block- Nagar District- Bharatpur  9982320886  666  Active  26-03-2015    16.16  9891.34 
820 1721 CSC Bodoli 2014-Vakrangee-Bharatpur Village- Bodoli Block- Nagar  District- Bharatpur  9587774983  36  Active  26-03-2015    5.61  3966.33 
821 1723 CSC Kasot_WRS 2014-Vakrangee-Bharatpur Village- Kasot Block- Deeg District- Bharatpur  9950306770  2078  Active  26-03-2015    121.66  4166.18 
822 1726 CSC Khangri_WRS 2014-Vakrangee-Bharatpur Village- Khangri Block- Nadbai District- Bharatpur  9784436739  669  Active  26-03-2015    1649.74  555.00 
823 1729 CSC Daulatgarh 2014-Vakrangee-Bharatpur Village- Daulatgarh Block- Rupbas District- Bharatpur  8058253021  642  Active  26-03-2015    996.3  13976.14 
824 1731 CSC Uchchain 2014-Vakrangee-Bharatpur Village - Uchchain Block - Rupbas Dist. - Bharatpur  9928892871  1798  Active  26-03-2015    83.38  15614.96 
825 1732 CSC Paharpur 2014-Vakrangee-Bharatpur Village - Paharpur Block - Rupbas Dist. - Bharatpur  9610374499  123  Active  26-03-2015    .2  21118.11 
826 1733 CSC Rundh Rupbas 2014-Vakrangee-Bharatpur Village - Rundh Rupbas Block - Rupbas Dist. - Bharatpur  0000000  12  Active  26-03-2015    1802.07  1554.93 
827 1734 CSC Rupbas_WRS 2014-Vakrangee-Bharatpur Village - Rupbas Block - Rupbas Dist. - Bharatpur  9828863302  850  Active  26-03-2015    250.87  2877.60 
828 1735 CSC Rudawal 2014-Vakrangee-Bharatpur Vilage - Rudawal Block - Rupbas Dist. - Bharatpur  9610023242  225  Active  26-03-2015    3146.45  2981.27 
829 1737 CSC NAWLI 2014-Vakrangee-Bharatpur Village-NAWLI BLOCK -BAYANA DIS- BHARATPUR  9001558722  449  Active  26-03-2015    310  870.22 
830 1738 CSC KUCHAWATI 2014-Vakrangee-Bharatpur Village-KUCHAWATI BLOCK -DEEG DIS- BHARATPUR  9875144247  804  Active  26-03-2015    494.63  2289.00 
831 1740 CSC BAMANWARI 2014-Vakrangee-Bharatpur Village-BAMANWARI BLOCK -KAMAN DIS- BHARATPUR  9785707577  4017  Active  26-03-2015    .65  23007.78 
832 1741 CSC GHATMEEKA 2014-Vakrangee-Bharatpur Village-GHATMEEKA BLOCK -KAMAN DIS- BHARATPUR  8094797171  4089  Active  26-03-2015    .74  62287.63 
833 1742 CSC PIPRAU 2014-Vakrangee-Bharatpur Village-PIPRAU BLOCK -NADBAI DIS- BHARATPUR  9166662311  3933  Active  26-03-2015    1488.41  3577.99 
834 1743 CSC LAKHANPUR 2014-Vakrangee-Bharatpur Village-LAKHANPUR BLOCK -NADBAI DIS- BHARATPUR  9414214046  3456  Active  26-03-2015    3060.26  15728.52 
835 1745 CSC IBRAHIMPUR 2014-Vakrangee-Bharatpur Village-IBRAHIMPUR BLOCK -RUPBAS DIS- BHARATPUR  9772543150  95  Active  26-03-2015    243.32  316.91 
836 1746 CSC BANSI KUURD 2014-Vakrangee-Bharatpur Village-BANSI KUURD BLOCK -SEWAR DIS- BHARATPUR  9875008565  119  Active  26-03-2015    3.33  1999.82 
837 1747 CSC PATHENA 2014-Vakrangee-Bharatpur Village-PATHENA BLOCK -WEIR DIS- BHARATPUR  9461247513  30  Active  26-03-2015    73.14  2336.29 
838 1749 JSS Infotech emitra center 2014-Vakrangee-Bharatpur Near SRS College  Block Kumher  Bharatpur  9950192400  829  Active  26-03-2015    4.06  6749.86 
839 1750 Kuldeep Emitra Center 2014-Vakrangee-Bharatpur Infront of Zila Parishad Shop No. 1 Krishana Nagar Bharatpur  9887149141  5316  Active  26-03-2015    41.05  1488.31 
840 1751 Tamanna Emitra Center 2014-Vakrangee-Bharatpur Shop No. 15 Collectrate Campus Near S.B.B.J Collectrate Branch Bharatpur  000000000  8672  Active  26-03-2015    112.92  11099.18 
841 1752 Anuj eMitra 2014-Vakrangee-Bharatpur 82, Ekta Vihar Colony Sunkh Road Bharatpur  000000000  985  Active  26-03-2015    .68  405.83 
842 1754 City eMitra Center 2014-Vakrangee-Bharatpur Near Siki Wale Hanuman Mandir Mandi Alal Bandh  Bharatpur  05644220341  1522  Active  26-03-2015    1.1  31182.52 
843 1755 Rakesh eMitra Center 2014-Vakrangee-Bharatpur Shop No-1 Near Panchayat Samiti Blcok-Nadbai Bharatpur  05643275050  7855  Active  26-03-2015    .58  28816.40 
844 1756 Anil Emitra 2014-Vakrangee-Bharatpur Jain Book Depot Block Bayana District- Bharatpur   05648225200  431  Active  26-03-2015    258.3  46.29 
845 1757 Gaurav eMitra 2014-Vakrangee-Bharatpur Koli Pada Caabkari Mohalla NAi Sadak Deeg Bharatpur  9414715893  1482  Active  26-03-2015    20.5  796.13 
846 1758 Sony eMitra Center 2014-Vakrangee-Bharatpur Near Jageshwar Mandir Kumher Bharatpur   9024728351  Active  26-03-2015    1.26  1119.84 
847 1759 Balaji emitra Center Nadbai 2014-Vakrangee-Bharatpur Balaji Printing Press  Nagar Road Nadbai  9785578785  1991  Active  26-03-2015    .58  5626.92 
848 1760 Shri Radhey Mohan eMitra Center 2014-Vakrangee-Bharatpur Natani Mohalla Deeg Bharatpur  9887905192  2330  Active  26-03-2015    142.9  5716.82 
849 1761 Dakshita eMitra Center 2014-Vakrangee-Bharatpur Infront of Mohanji Mandir Budh ki Haat Bharatpur  9413916336  227  Active  26-03-2015    .65  119.22 
850 1838 Mevaram 2014-Vakrangee-Bharatpur atal Seva kendra kapura, malooka    8290695834  20  Active  13-04-2015    216.48  193.00 
851 1842 Laxmi Narayan Gaur 2014-Vakrangee-Bharatpur Atal Seva Kendra Ghosinga Kaman Bharatpur    9982906461  253  Active  13-04-2015    47.72  8037.26 
852 1843 Narendra Kumar 2014-Vakrangee-Bharatpur Atal Seva Kendra Vpo Uadki Dalla Nagar Bharatpur    8502921843  436  Active  13-04-2015    6000.36  13958.52 
853 1844 Sanjay Kumar 2014-Vakrangee-Bharatpur Atal Seva Kendra Dayana Ka Bass Khohri Nagar Bharatpur     9772925002  Active  13-04-2015    13100.61  11423.00 
854 1880 Chandra Shekhar 2014-Vakrangee-Bharatpur Vill- madapura,rupbas bharatpur   9694325981  121  Active  16-04-2015    3194.19  7425.83 
855 1881 Anil Kumar 2014-Vakrangee-Bharatpur Vill- Fatehpur,Rupbas bharatpur   9460291176  292  Active  16-04-2015    1370.97  2500.16 
856 1882 Ravindra Singh 2014-Vakrangee-Bharatpur Vill- Vinaua,Rupbas Bharatpur   9602931193  Active  16-04-2015    13.79  11.59 
857 1884 Santosh Kumar 2014-Vakrangee-Bharatpur VPO-Akhaigarh the-nadbai dist-bharatpur    9887472471  247  Active  16-04-2015    3786.15  13273.10 
858 1885 Ram Sahay 2014-Vakrangee-Bharatpur VPO-Nayabas the-nadbai dist-bharatpur    9785190846  188  Active  16-04-2015    133.11  4547.12 
859 1890 Rajneesh 2014-Vakrangee-Bharatpur Vill-Ajit nagar post-Dharsoni the-weir dist-bharatpur    9828571484  4695  Active  16-04-2015    .78  7559.16 
860 1892 Vishnu Kumar 2014-Vakrangee-Bharatpur Vill- chulera, Tehsil - Deeg    9887691796  Active  16-04-2015    1.56  1115.23 
861 1896 Ghanshyam Singh 2014-Vakrangee-Bharatpur Near Petrol Pump    9982183871  111  Active  16-04-2015    900.09  3249.75 
862 1897 Jitendra Kumar 2014-Vakrangee-Bharatpur Dumriya,Roopbas Bharatpur   9928208514  Active  16-04-2015    116.05  12367.24 
863 1898 Khajan Singh 2014-Vakrangee-Bharatpur Ghata,Aodal Gaddi Rupbas,Bharatpur undefined  8432303126  1704  Active  16-04-2015    1045.97  7548.36 
864 1900 Suresh Chand 2014-Vakrangee-Bharatpur VPO Malah Sawer Bharatpur    2511  Active  16-04-2015    5.01  7129.44 
865 1901 Devendra Singh 2014-Vakrangee-Bharatpur VPO-KHATAUTI TEH-NADBAI DIST-BHARATPUR    9785156162  10  Active  16-04-2015    1819  564.38 
866 1902 Vishnu Kumar 2014-Vakrangee-Bharatpur VPO Chulera Deeg Bharatpur    9549869225  4327  Active  16-04-2015    1589.74  3944.51 
867 1903 Devendra Singh 2014-Vakrangee-Bharatpur VPO Pasta Deeg Bharatpur    8058521363  66  Active  16-04-2015    580.73  2513.32 
868 1904 Kumar Singh 2014-Vakrangee-Bharatpur VPO Khohri Deeg Bharatpur    9587994507  63  Active  16-04-2015    718.64  5617.42 
869 1905 Virendra Pal Singh 2014-Vakrangee-Bharatpur VPO Khohri Deeg Bharatpur    7597756933  Active  16-04-2015    64.29  398.09 
870 1906 Pradeep Kumar 2014-Vakrangee-Bharatpur Dhaulet Kaman Bharatpur    9610020647  3585  Active  16-04-2015    .81  52603.85 
871 1907 Rameej Khan 2014-Vakrangee-Bharatpur Kherli Manna Pahari Nagar    9610020647  769  Active  16-04-2015    5601.63  5109.00 
872 1910 Sunil Kumar 2014-Vakrangee-Bharatpur G.P. KHANUA, ROOPBAS BHARATPUR   8441083556  370  Active  16-04-2015    1202.96  11733.61 
873 1911 Jandail Singh 2014-Vakrangee-Bharatpur G.P. DHANA KHERLI, ROOPBAS  BHARATPUR   9784489724  1780  Active  16-04-2015    9552.69  11926.69 
874 1912 Gopal Singh 2014-Vakrangee-Bharatpur VILL-JAHANPUR POST-MOLONI TEH-WEIR DIST-BHARATPUR    9667902928  177  Active  16-04-2015    313.14  7295.26 
875 1913 Harish Chand 2014-Vakrangee-Bharatpur VPO-KARILI TEH-NADBAI DIST-BHARATPUR RAJ    9828354550  5429  Active  16-04-2015    .9  27520.95 
876 1914 Sonu Singh 2014-Vakrangee-Bharatpur VPO-RAYSIS TEH-NADBAI DIST-BHARATPUR RAJ     7891285253  Active  16-04-2015    2105.04  427.08 
877 1916 Jeetendra Singh 2014-Vakrangee-Bharatpur VPO-ENCHERA TEH-NADBAI DIST-BHARATPUR RAJ.    9636948833  935  Active  16-04-2015    3148.94  2622.00 
878 1917 Lalaram Saini 2014-Vakrangee-Bharatpur VPO-AKHAIGARH TEH-NADBAI DIST-BHARATPUR RAJ.321614    8107612481  Active  16-04-2015    2267.71  4895.15 
879 1918 Rambabu 2014-Vakrangee-Bharatpur G.P. SENDHLI, BHUSAWAR  BHARATPUR   9782635464  151  Active  16-04-2015    .06  1294.27 
880 1919 Ajaharuddeen 2014-Vakrangee-Bharatpur Atal Seva Kendra Teski Nagar Bharatpur    9587911862  102  Active  16-04-2015    1425.43  5489.99 
881 1922 Kanhiya Lal 2014-Vakrangee-Bharatpur Atal Sewa Kendra Satwari,Pahari Nagar ,Bharatpur undefined  9694217678  314  Active  16-04-2015    874.6  12025.19 
882 1941 Mahipal Singh 2014-Vakrangee-Bharatpur VPO Shyourawali Deeg Bharatpur    9828659838  852  Active  17-04-2015    1157.73  6524.07 
883 1943 Saleem 2014-Vakrangee-Bharatpur Village- Ghari Jhil Patti , Kaman    9783322056  241  Active  17-04-2015    1401.69  -552.00 
884 1960 Kuldeep Singh 2014-Vakrangee-Bharatpur VPO-ALIPUR TEH-WEIR DIST-BHARATPUR RAJ.    9252535610  100  Active  20-04-2015    1940.62  2963.54 
885 1961 Subhash Chand 2014-Vakrangee-Bharatpur VPO-NAROLI TEH-WEIR DIST-BHARATPUR RAJ    7891273172  Active  20-04-2015    3723.75  1849.00 
886 1970 Sahil 2014-Vakrangee-Bharatpur VILL.-LEVDATEH.-KAMANDIST.-BHARATPUR    8302391952  400  Active  24-04-2015    4346.37  14081.74 
887 1971 Manuj 2014-Vakrangee-Bharatpur Atal Sewa Kendra Sahsan,Kaman Bharatpur   9982484243  33  Active  24-04-2015    1603.31  2055.83 
888 1974 Sukhveer Singh 2014-Vakrangee-Bharatpur BHANDRA, KAMAN  BHARATPUR   9680687275  100  Active  24-04-2015    101.96  2724.29 
889 1982 Rajeev 2014-Vakrangee-Bharatpur Bodoli Dahar Nagar Bharatpur    9772131500  287  Active  27-04-2015    25073.84  27556.00 
890 1985 Amajad Khan 2014-Vakrangee-Bharatpur Udki Dalla Nagar Bharatpur    9783421642  377  Active  27-04-2015    14094.26  21264.74 
891 1987 Preeti Rani 2014-Vakrangee-Bharatpur G.P. SATWAS, KAMAN  BHARATPUR   9571941818  214  Active  27-04-2015    239.43  821.91 
892 1988 Jeetendra Singh 2014-Vakrangee-Bharatpur Atal Sewa Kendra, Kharera, GP- Kharera, Roopwas     9667424562  71  Active  27-04-2015    26.94  2165.82 
893 1989 Satyendra Kumar 2014-Vakrangee-Bharatpur G.P. KHAKHAWALI, NAGAR  BHARATPUR   9785549716  Active  27-04-2015    91.48  402.51 
894 1991 Jagveer Singh 2014-Vakrangee-Bharatpur Palka,Nagar  Bharatpur   9610077616  57  Active  27-04-2015    2356.56  2870.08 
895 1992 Robin 2014-Vakrangee-Bharatpur Vill-Ladamka,Pahari Nagar,Bharatpur undefined  8769665665  420  Active  27-04-2015    .81  4037.86 
896 1993 Gopi Kamwar 2014-Vakrangee-Bharatpur Vill. DHANWADA GP.-DHANWADATEH. KUMHERDIST. BHARATPUR    7665903596  116  Active  27-04-2015    5542.49  9698.21 
897 1994 Tirthendra Kumar 2014-Vakrangee-Bharatpur NEAR OF BIHARI JI TEMPLE, MAHAL KHAS ROAD  KILA, BHARATPUR undefined  9414208420  408  Active  27-04-2015    3328.91  10174.95 
898 1995 Ravi Kant 2014-Vakrangee-Bharatpur Vill Jhitaredi Nagar Bharatpur    8239735599  233  Active  27-04-2015    7153.8  23376.42 
899 1996 Shailendra Kumar 2014-Vakrangee-Bharatpur Near Panchayat Samati Rupbas    05645273071  375  Active  27-04-2015    9019.7  27572.70 
900 1997 Jiwaram 2014-Vakrangee-Bharatpur Near Peer Mohalla Kaman    7568394564  2589  Active  27-04-2015    .16  1953.27 
901 2000 Farram Khan 2014-Vakrangee-Bharatpur OLANDA, KAMAN  BHARATPUR   9929170950  18  Active  27-04-2015    1696.03  1098.94 
902 2001 Ansar Ahmad 2014-Vakrangee-Bharatpur UDAKA, KAMAN  BHARATPUR   9667924143  40  Active  27-04-2015    17.69  0.00 
903 2002 Ajam Ali 2014-Vakrangee-Bharatpur MOONSEPUR,KAMAN Bharatpur   9887355386  66  Active  27-04-2015    820.97  1094.69 
904 2004 Govind Singh 2014-Vakrangee-Bharatpur KANWARA, KAMAN  BHARATPUR   9875177264  16  Active  27-04-2015    2.35  1188.06 
905 2005 Aneesh 2014-Vakrangee-Bharatpur BHORI, PAHARI  BHARATPUR   9887936012  Active  27-04-2015    .78  4864.56 
906 2006 Janish Khan 2014-Vakrangee-Bharatpur GARHAJAN, KAMAN  BHARATPUR   9413157862  75  Active  27-04-2015    6.23  328.17 
907 2009 Ramavatar Gurjar 2014-Vakrangee-Bharatpur PALLA, KAMAN  BHARATPUR   9875161441  569  Active  27-04-2015    5276.34  2077.57 
908 2010 Tarif Mohhamad 2014-Vakrangee-Bharatpur Ladlaka,Pahari Bharatpur   8875058404  Active  27-04-2015    1.05  11218.11 
909 2011 Anuj Kumar 2014-Vakrangee-Bharatpur ग्राम पंचायत अऊ तहसील डीग  जिला भरतपुर राजस्थान  9828638957  2386  Active  27-04-2015    124.24  2731.01 
910 2060 Ashok Kumar 2014-Vakrangee-Bharatpur Dayana Ka Bass Khohri Nagar Bharatpur    9783351699  2735  Active  04-05-2015    11092.66  20033.55 
911 2062 Gopal Ram Koli 2014-Vakrangee-Bharatpur Near Bus Stand Bhusaware    9887091922  20  Active  04-05-2015    29.9  16.20 
912 2063 Asu Khan 2014-Vakrangee-Bharatpur Atal Sewa Kendra,Jurhera Kaman,Bharatpur undefined  9828287548  1023  Active  05-05-2015    1897.2  2418.41 
913 2064 Pradeep Kumar 2014-Vakrangee-Bharatpur Near Bus Stand,Heera Das Bharatpur   9782824899  355  Active  05-05-2015    94.05  3581.38 
914 2065 Jeetendra Kumar 2014-Vakrangee-Bharatpur Alamshah,Nagar Bharatpur   8824310939  990  Active  05-05-2015    2105.93  8886.04 
915 2066 Ghanshyam Sharma 2014-Vakrangee-Bharatpur Jurhera,Kaman Bharatpur   9887458200  1587  Active  05-05-2015    5.08  26186.18 
916 2067 Jeetendra Singh 2014-Vakrangee-Bharatpur Shahna,Roopwas Bharatpur   7891440920  1043  Active  05-05-2015    .05  31830.15 
917 2069 Dharmendra Singh 2014-Vakrangee-Bharatpur Bachhrain,Weir Bharatpur   9636979736  1592  Active  05-05-2015    949.48  4567.00 
918 2074 Suresh Chand 2014-Vakrangee-Bharatpur Near PNB Bank Deeg Bharatpur    9414695077  23  Active  05-05-2015    13.12  1707.24 
919 2076 Deepak Kumar 2014-Vakrangee-Bharatpur INFRONT BIJALI GHAR OFFICE, MAAN SINGH CIRCLE  BHARATPUR   9610085507  Active  05-05-2015    .76  6971.27 
920 2080 Sakir Hussain 2014-Vakrangee-Bharatpur VILL.-MOONGASKATEH/BLOCK .-KAMANDIST.-BHARATPUR    9610030300  1745  Active  05-05-2015    421.04  5079.05 
921 2085 Satish Chand 2014-Vakrangee-Bharatpur NAGAR PALIKA BAYANA,BAYANA BHARATPUR   9460456748  72  Active  05-05-2015    17.18  9501.91 
922 2107 Chandra Prakash 2014-Vakrangee-Bharatpur Near Vatnary Hospital Infront Of Collectrate Bharatpur    9875008565  178  Active  13-05-2015    149.82  13645.08 
923 2108 Virendra 2014-Vakrangee-Bharatpur Sirthala,Nagar Bharatpur   8003120878  Active  13-05-2015    2833.06  2973.35 
924 2109 Shakrulla Khan 2014-Vakrangee-Bharatpur Jalalpur,Nagar Bharatpur   8890841456  12082  Active  13-05-2015    67.97  22655.61 
925 2110 Abhishek Jain 2014-Vakrangee-Bharatpur Ward No 10,Weir Bharatpur   05643272027  1161  Active  13-05-2015    697.49  659.48 
926 2112 Dilip Kumar Mathur 2014-Vakrangee-Bharatpur EXCELL INFOTECH, ATAL BANDH  BHARATPUR   9024636465  195  Active  14-05-2015    75.75  4.86 
927 2115 Jeetendra Singh 2014-Vakrangee-Bharatpur G.P- SOGAR, KUMHER  BHARATPUR   8385919296  Active  14-05-2015    .98  6362.70 
928 2116 Tahir Mohammad 2014-Vakrangee-Bharatpur V&P- LADMAKA, PAHARI  BHARATPUR   9828554381  684  Active  14-05-2015    5034.11  13281.08 
929 2117 Akbar Hussain 2014-Vakrangee-Bharatpur G.P. JOTRI PEEPAL, PAHARI  BHARATPUR   8094740181  110  Active  14-05-2015    560.44  1039.99 
930 2119 Lala Ram 2014-Vakrangee-Bharatpur Pahari,Nagar Bharatpur   9828116381  184  Active  14-05-2015    942.99  778.24 
931 2121 Ram Lal Yogi 2014-Vakrangee-Bharatpur Atal Sewa Kendra,Mudiya Nagar,Bharatpur undefined  9784028801  36  Active  14-05-2015    1976.62  10691.12 
932 2122 Sahoon Khan 2014-Vakrangee-Bharatpur Atal Sewa Kendra Dunawal,Nagar Bharatpur   9166731376  815  Active  14-05-2015    7194.71  12764.64 
933 2124 Prabhu Dayal Sharma 2014-Vakrangee-Bharatpur Atal Sewa Kendra,Gangawak Nagar,Bharatpur undefined  9828574840  61  Active  14-05-2015    4038.32  7229.06 
934 2125 Banti 2014-Vakrangee-Bharatpur Atal Sewa Kendra,Semla Kalan Nagar,Bharatpur undefined  9772722836  41  Active  14-05-2015    .77  20900.32 
935 2126 Ashutosh Soni 2014-Vakrangee-Bharatpur Sarafa Gali,Near Laxman Mandir Bharatpur   8963877343  993  Active  14-05-2015    .91  5738.58 
936 2127 Sandeep Kumar 2014-Vakrangee-Bharatpur Atal Sewa Kendra Dharsoni,Weir Bharatpur   9667356195  134  Active  14-05-2015    5206.65  6988.90 
937 2128 Bhoora Singh 2014-Vakrangee-Bharatpur Atal Sewa Kendra,Santrook Kumher,Bharatpur undefined  7823891881  1181  Active  14-05-2015    2487.28  1583.02 
938 2141 Kapil Kumar 2014-Vakrangee-Bharatpur Near Govt.Hospital,Jurhera Kaman,Bharatpur undefined  9649753604  60  Active  18-05-2015    1200.46  1661.25 
939 2142 Khalid Hussain 2014-Vakrangee-Bharatpur Kherli Manna,Kaman Bharatpur   9649262885  922  Active  18-05-2015    3290.98  5262.51 
940 2143 Pavan Kumar 2014-Vakrangee-Bharatpur ATAL SEVA KENDRA, COLLACTRATE CAMPUS  BHARATPUR   9252067407  78  Active  18-05-2015    1566.28  6429.00 
941 2187 Lakhan Lal 2014-Vakrangee-Bharatpur Village Post Pathena Bhusawar    9694417929  670  Active  29-05-2015    976.88  1567.98 
942 2191 Natware Singh 2014-Vakrangee-Bharatpur Atal Seva Kendra Dantloathi Deeg Bharatpur    7692587542  Active  29-05-2015    .53  2046.73 
943 2192 Mahish Singh 2014-Vakrangee-Bharatpur Thok Aeldiya Village Sinsini Deeg Bharatpur    9001454392  421  Active  29-05-2015    5.35  1241.83 
944 2193 Mukhiya Rahul Singh 2014-Vakrangee-Bharatpur Village Gaonri Jurhara Kaman Bharatpur    9783867474  10  Active  29-05-2015    864.55  3816.87 
945 2194 Mahesh Chand 2014-Vakrangee-Bharatpur Chiksana,Bharatpur    9772870267  30  Active  29-05-2015    300.78  27.38 
946 2196 Dharmendra Singh 2014-Vakrangee-Bharatpur Jagner Road, Gram Panchayat Roopwas, Bharatpur    9610076382  1971  Active  29-05-2015    .45  1962.13 
947 2197 Arif 2014-Vakrangee-Bharatpur Sihawali,Nagar Bharatpur   9660444440  Active  29-05-2015    523.5  840.00 
948 2198 Nirottam Lal 2014-Vakrangee-Bharatpur Atal Seva Kendra Khohara,Bayana Bharatpur   9887290212  94  Active  29-05-2015    3035.73  2119.33 
949 2199 Lokendra Singh 2014-Vakrangee-Bharatpur Atal Seva Kendra Kherli Khdasiya,Bayana Bharatpur   8426988602  18  Active  29-05-2015    1.8  9493.16 
950 2202 Meshpal Singh 2014-Vakrangee-Bharatpur Atal Sewa Kendra, Gram Pachayat Jatmasi Tehsil Roopwas, Bharatpur   9887900738  Active  29-05-2015    615.26  80.63 
951 2203 Savitri 2014-Vakrangee-Bharatpur Atal Seva Kendra Kuchawati    9784727929  235  Active  29-05-2015    928  4469.85 
952 2204 Bhim Singh 2014-Vakrangee-Bharatpur Mahamadpura,Bayana Bharatpur   9982460404  96  Active  29-05-2015    150.73  14689.71 
953 2205 Suresh Chand 2014-Vakrangee-Bharatpur Atal Seva Kendra Beerampura,Bayana Bharatpur   7891896889  484  Active  29-05-2015    .35  7171.55 
954 2206 Rajkumar 2014-Vakrangee-Bharatpur New Sanatan Dharm Market,Laxman Mandir Bharatpur   8504089564  141  Active  29-05-2015    102.2  0.00 
955 2207 Subhash 2014-Vakrangee-Bharatpur Dayana Ka Bas,Khaohri Nagar,Bharatpur undefined  9983881096  31  Active  29-05-2015    6.72  42587.47 
956 2208 Hemraj 2014-Vakrangee-Bharatpur Naunera,Kaman Bharatpur   9785406406  Active  29-05-2015    39.58  156.00 
957 2209 Jahira Khan 2014-Vakrangee-Bharatpur Jhantli,Sihawali Nagar,Bharatpur undefined  9610081206  80  Active  29-05-2015    6057.73  15421.00 
958 2210 Sonveer Singh 2014-Vakrangee-Bharatpur ATAL SEVA KENDRA, SUNARI  SEWAR, BHARATPUR undefined  9784564061  154  Active  29-05-2015    38.4  5197.04 
959 2211 Satyendra Singh 2014-Vakrangee-Bharatpur Near Panchayat Samiti Mela Ground Rupbas    9950151650  4319  Active  29-05-2015    18107.93  40480.13 
960 2213 Kartar Singh 2014-Vakrangee-Bharatpur Atal Seva Kendra Panhori Deeg Bharatpur    9610341318  Active  29-05-2015    16.79  1134.93 
961 2215 Kailashee Ram 2014-Vakrangee-Bharatpur Atal Sewa Kendra Madoli,Roopwas Bharatpur   9694385142  489  Active  29-05-2015    350.44  798.01 
962 2218 Bachhu Singh 2014-Vakrangee-Bharatpur Jeewad,Weir Bharatpur   9785835210  1080  Active  29-05-2015    2935.66  2652.00 
963 2219 Sushil Goyal 2014-Vakrangee-Bharatpur Jatmasi Road B-24, Tehsil- Roopwas, Dist- Bharatpur     9001409635  Active  29-05-2015    19414.21  24171.25 
964 2249 Sanjay Singh Shastri 2014-Vakrangee-Bharatpur Naunera,Kaman Bharatpur   9828101520  235  Active  03-06-2015    490.72  6663.13 
965 2250 Harish 2014-Vakrangee-Bharatpur Naogaon,Kaman Bharatpur   9950025358  Active  04-06-2015    1724.06  1856.23 
966 2266 Satish Chand 2014-Vakrangee-Bharatpur G.P. MADARPUR, SEWAR  BHARATPUR   9460076110  20  Active  15-06-2015    1022.33  731.57 
967 2268 Devendra Singh 2014-Vakrangee-Bharatpur Baroli Chhar,Nadbai Bharatpur   8440088543  452  Active  15-06-2015    2054.67  1893.84 
968 2269 Mahendra Kumar 2014-Vakrangee-Bharatpur Mathura Gate,Gulal Kund Bharatpur   9351868666  3684  Active  15-06-2015    45.01  6990.40 
969 2270 Bhoopendra Kumar 2014-Vakrangee-Bharatpur Atal Seva Kendra Pasopa    9166080776  Active  15-06-2015    6026.25  6947.00 
970 2271 Yogesh Kumar 2014-Vakrangee-Bharatpur Near Hospital Janoothar Deeg Bharatpur    8104013819  380  Active  15-06-2015    .03  9069.99 
971 2272 Ankit Chahar 2014-Vakrangee-Bharatpur Near Manav Bharati School Anah Gate Bharatpur    9782561418  174  Active  15-06-2015    1685.03  2013.97 
972 2273 Nirbhay Singh 2014-Vakrangee-Bharatpur Near N S Deshwal School Sawer Bharatpur    9929000140  81  Active  15-06-2015    103.28  1920.23 
973 2275 Sateesh Chand 2014-Vakrangee-Bharatpur Sahana,Roopwas Bharatpur   9799457542  1937  Active  16-06-2015    .25  12300.16 
974 2276 Gyan Deep Nagar 2014-Vakrangee-Bharatpur Atal Seva Kendra Khoh    8741950051  4116  Active  16-06-2015    439.51  5213.00 
975 2278 Majid Khan 2014-Vakrangee-Bharatpur Papra,Kaman Bharapur   8824067574  119  Active  16-06-2015    .12  6208.60 
976 2279 Manish Kumar 2014-Vakrangee-Bharatpur Near Thesil Bapu Bazar Nagar Bharatpur    9694286686  1177  Active  16-06-2015    150.72  0.00 
977 2280 Raju Saini 2014-Vakrangee-Bharatpur Village Nyamadpur Post Dharsoni Weir Bharatpur    9414489608  1989  Active  16-06-2015    682.37  8259.30 
978 2281 Kaushal Dutt Mishra 2014-Vakrangee-Bharatpur SHYAM SADAN, KHIRNI GHAT  BHARATPUR   9460680394  8916  Active  16-06-2015    581.93  1635.82 
979 2282 Sandeep Agrawal 2014-Vakrangee-Bharatpur Opp. Bank Of Baroda Station Road New Mandi Bharatpur    9828535797  11874  Active  16-06-2015